Provisional Data: Driftwood Branch Sinnemahoning Creek


Please select a monitoring station.
Please select start date.
Please select start date.

Toggle Unit: C/F Toggle Unit: C/F
Sample Time Temperature (C) Temperature (F) Specific Conductivity (mS/cm) pH   Turbidity (NTU+) DO (mg/L)
8/9/2021 12:00:00 AM 22.02 71.636 0.079 7.1 1.01 7.53
8/9/2021 12:15:00 AM 21.95 71.51 0.079 7.1 0.98 7.55
8/9/2021 12:30:00 AM 21.89 71.402 0.079 7.1 1.82 7.56
8/9/2021 12:45:00 AM 21.84 71.312 0.079 7.1 1.22 7.56
8/9/2021 1:00:00 AM 21.78 71.204 0.08 7.1 1.01 7.57
8/9/2021 1:15:00 AM 21.74 71.132 0.079 7.04 1.29 7.59
8/9/2021 1:30:00 AM 21.68 71.024 0.08 7.1 1.37 7.59
8/9/2021 1:45:00 AM 21.64 70.952 0.079 7.09 1.59 7.61
8/9/2021 2:00:00 AM 21.58 70.844 0.08 7.09 0.98 7.62
8/9/2021 2:15:00 AM 21.53 70.754 0.08 7.09 1.33 7.63
8/9/2021 2:30:00 AM 21.48 70.664 0.08 7.02 1.09 7.64
8/9/2021 2:45:00 AM 21.43 70.574 0.08 7.1 1.16 7.66
8/9/2021 3:00:00 AM 21.38 70.484 0.08 7.09 1.04 7.66
8/9/2021 3:15:00 AM 21.34 70.412 0.08 7.1 0.96 7.67
8/9/2021 3:30:00 AM 21.3 70.34 0.08 7.1 1.85 7.7
8/9/2021 3:45:00 AM 21.25 70.25 0.08 7.1 1.23 7.7
8/9/2021 4:00:00 AM 21.2 70.16 0.08 7.09 1.15 7.7
8/9/2021 4:15:00 AM 21.16 70.088 0.08 7.1 1.4 7.72
8/9/2021 4:30:00 AM 21.11 69.998 0.08 7.1 1.03 7.73
8/9/2021 4:45:00 AM 21.06 69.908 0.08 7.1 1.05 7.74
8/9/2021 5:00:00 AM 21.02 69.836 0.08 7.1 2.04 7.75
8/9/2021 5:15:00 AM 20.98 69.764 0.08 7.1 1.06 7.75
8/9/2021 5:30:00 AM 20.94 69.692 0.08 7.1 1.17 7.78
8/9/2021 5:45:00 AM 20.9 69.62 0.08 7.1 1.09 7.79
8/9/2021 6:00:00 AM 20.87 69.566 0.08 7.1 1.34 7.79
8/9/2021 6:15:00 AM 20.83 69.494 0.08 7.1 1.99 7.8
8/9/2021 6:30:00 AM 20.79 69.422 0.08 7.08 1.04 7.83
8/9/2021 6:45:00 AM 20.74 69.332 0.08 7.12 0.88 7.85
8/9/2021 7:00:00 AM 20.71 69.278 0.08 7.11 0.98 7.89
8/9/2021 7:15:00 AM 20.69 69.242 0.08 7.08 0.94 7.95
8/9/2021 7:30:00 AM 20.67 69.206 0.08 7.14 0.86 8.03
8/9/2021 7:45:00 AM 20.67 69.206 0.08 7.15 0.89 8.15
8/9/2021 8:00:00 AM 20.68 69.224 0.08 7.17 0.87 8.25
8/9/2021 8:15:00 AM 20.69 69.242 0.079 7.18 0.85 8.38
8/9/2021 8:30:00 AM 20.71 69.278 0.079 7.22 0.74 8.52
8/9/2021 8:45:00 AM 20.75 69.35 0.079 7.23 0.76 8.65
8/9/2021 9:00:00 AM 20.86 69.548 0.079 7.28 0.73 8.86
8/9/2021 9:15:00 AM 20.99 69.782 0.078 7.32 0.67 9.01
8/9/2021 9:30:00 AM 21.11 69.998 0.078 7.37 0.71 9.14
8/9/2021 9:45:00 AM 21.2 70.16 0.078 7.39 0.67 9.21
8/9/2021 10:00:00 AM 21.3 70.34 0.078 7.44 0.72 9.32
8/9/2021 10:15:00 AM 21.38 70.484 0.078 7.48 0.68 9.38
8/9/2021 10:30:00 AM 21.5 70.7 0.078 7.52 0.7 9.44
8/9/2021 10:45:00 AM 21.64 70.952 0.077 7.56 0.77 9.5
8/9/2021 11:00:00 AM 21.94 71.492 0.077 7.59 0.63 9.56
8/9/2021 11:15:00 AM 22.24 72.032 0.077 7.66 0.7 9.57
8/9/2021 11:30:00 AM 22.54 72.57201 0.077 7.7 0.56 9.59
8/9/2021 11:45:00 AM 22.84 73.112 0.077 7.74 0.65 9.57
8/9/2021 12:00:00 PM 23.16 73.688 0.077 7.78 0.72 9.58
8/9/2021 12:15:00 PM 23.47 74.246 0.077 7.82 0.68 9.58
8/9/2021 12:30:00 PM 23.76 74.768 0.077 7.88 0.74 9.58
8/9/2021 12:45:00 PM 23.91 75.038 0.077 7.87 0.69 9.51
8/9/2021 1:00:00 PM 24.25 75.65 0.077 7.89 0.63 9.51
8/9/2021 1:15:00 PM 24.61 76.298 0.077 7.92 0.6 9.47
8/9/2021 1:30:00 PM 24.7 76.46 0.077 7.95 0.62 9.4
8/9/2021 1:45:00 PM 24.92 76.856 0.076 7.98 0.57 9.36
8/9/2021 2:00:00 PM 25.23 77.414 0.076 8.01 0.56 9.35
8/9/2021 2:15:00 PM 25.55 77.99 0.076 8.04 0.5 9.36
8/9/2021 2:30:00 PM 25.77 78.386 0.076 8.1 0.44 9.3
8/9/2021 2:45:00 PM 25.83 78.494 0.076 8.11 0.61 9.25
8/9/2021 3:00:00 PM 25.75 78.35 0.076 8.08 0.51 9.16
8/9/2021 3:15:00 PM 25.82 78.476 0.076 8.06 0.66 9.1
8/9/2021 3:30:00 PM 25.99 78.782 0.076 8.08 0.4 9.09
8/9/2021 3:45:00 PM 26.11 78.998 0.076 8.06 0.52 9.05
8/9/2021 4:00:00 PM 26.09 78.962 0.076 8.06 0.48 9.02
8/9/2021 4:15:00 PM 26.1 78.98 0.076 8.04 0.49 8.95
8/9/2021 4:30:00 PM 26.1 78.98 0.076 8.02 0.53 8.88
8/9/2021 4:45:00 PM 26.07 78.926 0.076 7.98 0.59 8.8
8/9/2021 5:00:00 PM 26.07 78.926 0.076 7.97 0.46 8.77
8/9/2021 5:15:00 PM 26.09 78.962 0.076 7.88 0.52 8.71
8/9/2021 5:30:00 PM 26.02 78.836 0.076 7.84 0.44 8.62
8/9/2021 5:45:00 PM 25.91 78.638 0.076 7.82 0.52 8.56
8/9/2021 6:00:00 PM 25.77 78.386 0.076 7.69 0.47 8.44
8/9/2021 6:15:00 PM 25.66 78.188 0.076 7.69 0.48 8.35
8/9/2021 6:30:00 PM 25.55 77.99 0.076 7.61 0.51 8.25
8/9/2021 6:45:00 PM 25.44 77.792 0.076 7.55 0.58 8.14
8/9/2021 7:00:00 PM 25.34 77.612 0.076 7.51 0.55 8.06
8/9/2021 7:15:00 PM 25.25 77.45 0.076 7.39 0.54 7.97
8/9/2021 7:30:00 PM 25.15 77.27 0.077 7.38 0.61 7.87
8/9/2021 7:45:00 PM 25.04 77.07201 0.077 7.37 0.61 7.77
8/9/2021 8:00:00 PM 24.92 76.856 0.077 7.33 0.55 7.66
8/9/2021 8:15:00 PM 24.8 76.64 0.078 7.29 0.73 7.55
8/9/2021 8:30:00 PM 24.67 76.406 0.078 7.25 0.69 7.46
8/9/2021 8:45:00 PM 24.53 76.154 0.078 7.19 0.8 7.38
8/9/2021 9:00:00 PM 24.4 75.92 0.078 7.2 0.68 7.32
8/9/2021 9:15:00 PM 24.26 75.668 0.079 7.13 0.66 7.29
8/9/2021 9:30:00 PM 24.13 75.434 0.079 7.12 0.74 7.26
8/9/2021 9:45:00 PM 24.01 75.218 0.079 7.14 0.91 7.24
8/9/2021 10:00:00 PM 23.89 75.002 0.079 7.12 0.85 7.23
8/9/2021 10:15:00 PM 23.78 74.804 0.079 7.12 0.88 7.22
8/9/2021 10:30:00 PM 23.68 74.624 0.079 7.11 0.9 7.23
8/9/2021 10:45:00 PM 23.57 74.426 0.079 7.08 0.91 7.24
8/9/2021 11:00:00 PM 23.46 74.228 0.08 7.09 0.98 7.23
8/9/2021 11:15:00 PM 23.36 74.048 0.08 7.01 0.94 7.23
8/9/2021 11:30:00 PM 23.27 73.886 0.079 7.08 0.94 7.26
8/9/2021 11:45:00 PM 23.18 73.724 0.079 7.08 0.96 7.28
8/10/2021 12:00:00 AM 23.1 73.58 0.079 7.08 0.98 7.3
8/10/2021 12:15:00 AM 23.02 73.436 0.079 7.08 0.91 7.32
8/10/2021 12:30:00 AM 22.94 73.292 0.079 7.08 1.09 7.33
8/10/2021 12:45:00 AM 22.87 73.166 0.079 7.08 0.99 7.33
8/10/2021 1:00:00 AM 22.8 73.04 0.079 7.07 1.01 7.36
8/10/2021 1:15:00 AM 22.73 72.914 0.079 7.08 0.95 7.37
8/10/2021 1:30:00 AM 22.65 72.77 0.079 7.08 0.98 7.38
8/10/2021 1:45:00 AM 22.56 72.608 0.079 7.07 1.16 7.39
8/10/2021 2:00:00 AM 22.49 72.482 0.079 7.06 1.15 7.41
8/10/2021 2:15:00 AM 22.42 72.356 0.079 7.07 1.1 7.42
8/10/2021 2:30:00 AM 22.36 72.248 0.08 7.07 0.98 7.44
8/10/2021 2:45:00 AM 22.31 72.158 0.079 7.02 0.99 7.46
8/10/2021 3:00:00 AM 22.25 72.05 0.08 7.06 0.99 7.47
8/10/2021 3:15:00 AM 22.19 71.942 0.08 7.06 1.22 7.48
8/10/2021 3:30:00 AM 22.14 71.852 0.08 7.08 5.22 7.46
8/10/2021 3:45:00 AM 22.08 71.744 0.08 7.08 1.04 7.5
8/10/2021 4:00:00 AM 22.03 71.654 0.08 7.07 1.06 7.51
8/10/2021 4:15:00 AM 21.98 71.564 0.081 7.08 0.93 7.52
8/10/2021 4:30:00 AM 21.92 71.456 0.083 7.08 1.33 7.53
8/10/2021 4:45:00 AM 21.86 71.348 0.083 7.06 1.11 7.53
8/10/2021 5:00:00 AM 21.82 71.276 0.083 7.07 0.92 7.53
8/10/2021 5:15:00 AM 21.77 71.186 0.081 7.06 1.65 7.52
8/10/2021 5:30:00 AM 21.72 71.096 0.081 7.02 1.03 7.53
8/10/2021 5:45:00 AM 21.67 71.006 0.082 7.07 1.36 7.54
8/10/2021 6:00:00 AM 21.62 70.916 0.082 7.06 1.09 7.17
8/10/2021 6:15:00 AM 21.57 70.826 0.076 7.05 1.55 7.57
8/10/2021 6:30:00 AM 21.53 70.754 0.083 7.07 0.92 7.59
8/10/2021 6:45:00 AM 21.49 70.682 0.082 7.02 1.12 7.65
8/10/2021 7:00:00 AM 21.46 70.628 0.081 7.1 0.99 7.7
8/10/2021 7:15:00 AM 21.43 70.574 0.081 7.1 1.36 7.77
8/10/2021 7:30:00 AM 21.41 70.538 0.081 7.11 0.87 7.83
8/10/2021 7:45:00 AM 21.39 70.502 0.08 7.12 0.84 7.88
8/10/2021 8:00:00 AM 21.39 70.502 0.08 7.13 0.91 8.01
8/10/2021 8:15:00 AM 21.4 70.52 0.08 7.16 0.78 8.12
8/10/2021 8:30:00 AM 21.43 70.574 0.08 7.19 0.82 8.27
8/10/2021 8:45:00 AM 21.47 70.646 0.08 7.17 0.76 8.43
8/10/2021 9:00:00 AM 21.52 70.736 0.079 7.24 0.82 8.54
8/10/2021 9:15:00 AM 21.64 70.952 0.079 7.27 0.69 8.73
8/10/2021 9:30:00 AM 21.68 71.024 0.079 7.31 0.63 8.77
8/10/2021 9:45:00 AM 21.76 71.168 0.079 7.28 0.77 8.9
8/10/2021 10:00:00 AM 21.8 71.24 0.079 7.3 0.92 8.9
8/10/2021 10:15:00 AM 21.8 71.24 0.079 7.36 0.87 8.86
8/10/2021 10:30:00 AM 21.84 71.312 0.079 7.38 0.8 8.91
8/10/2021 10:45:00 AM 21.96 71.528 0.079 7.41 0.7 9.03
8/10/2021 11:00:00 AM 22.07 71.726 0.078 7.46 0.69 9.1
8/10/2021 11:15:00 AM 22.29 72.122 0.078 7.51 0.72 9.24
8/10/2021 11:30:00 AM 22.52 72.536 0.078 7.57 0.65 9.33
8/10/2021 11:45:00 AM 22.64 72.752 0.078 7.6 0.87 9.37
8/10/2021 12:00:00 PM 22.84 73.112 0.078 7.65 0.65 9.39
8/10/2021 12:15:00 PM 23 73.4 0.078 7.7 0.72 9.43
8/10/2021 12:30:00 PM 23.1 73.58 0.078 7.69 1.37 9.39
8/10/2021 12:45:00 PM 23.13 73.634 0.078 7.73 0.75 9.34
8/10/2021 1:00:00 PM 23.21 73.778 0.078 7.7 0.7 9.37
8/10/2021 1:15:00 PM 23.23 73.814 0.077 7.74 0.85 9.26
8/10/2021 1:30:00 PM 23.21 73.778 0.164 7.51 76.37 8.82
8/10/2021 1:45:00 PM 23.13 73.634 0.086 7.7 3.32 8.86
8/10/2021 2:00:00 PM 23.1 73.58 0.078 7.58 2.2 8.86
8/10/2021 2:15:00 PM 23.13 73.634 0.077 7.56 1.46 8.93
8/10/2021 2:30:00 PM 23.22 73.796 0.077 7.61 1.3 8.99
8/10/2021 2:45:00 PM 23.53 74.354 0.076 7.71 1.16 9.15
8/10/2021 3:00:00 PM 23.77 74.786 0.076 7.72 0.97 9.21
8/10/2021 3:15:00 PM 23.82 74.876 0.076 7.76 0.94 9.19
8/10/2021 3:30:00 PM 23.75 74.75 0.076 7.74 0.88 9.17
8/10/2021 3:45:00 PM 24 75.2 0.076 7.81 0.89 9.2
8/10/2021 4:00:00 PM 24.11 75.398 0.076 7.83 0.9 9.18
8/10/2021 4:15:00 PM 24.06 75.308 0.076 7.79 1.02 9.11
8/10/2021 4:30:00 PM 24 75.2 0.076 7.74 0.98 9.07
8/10/2021 4:45:00 PM 24.12 75.416 0.076 7.77 0.98 9.02
8/10/2021 5:00:00 PM 24.04 75.272 0.076 7.71 1.01 8.91
8/10/2021 5:15:00 PM 24.01 75.218 0.076 7.68 1.04 8.89
8/10/2021 5:30:00 PM 24 75.2 0.076 7.65 0.92 8.85
8/10/2021 5:45:00 PM 23.97 75.146 0.076 7.61 1.06 8.77
8/10/2021 6:00:00 PM 23.93 75.074 0.076 7.54 12.06 8.7
8/10/2021 6:15:00 PM 23.9 75.02 0.076 7.55 0.99 8.64
8/10/2021 6:30:00 PM 23.86 74.948 0.076 7.49 0.96 8.54
8/10/2021 6:45:00 PM 23.79 74.82201 0.076 7.43 0.91 8.48
8/10/2021 7:00:00 PM 23.71 74.67799 0.076 7.43 0.85 8.38
8/10/2021 7:15:00 PM 23.64 74.552 0.076 7.39 0.83 8.27
8/10/2021 7:30:00 PM 23.58 74.444 0.077 7.33 0.96 8.15
8/10/2021 7:45:00 PM 23.5 74.3 0.077 7.3 0.94 8.03
8/10/2021 8:00:00 PM 23.42 74.156 0.077 7.24 0.98 7.93
8/10/2021 8:15:00 PM 23.32 73.976 0.077 7.24 1.05 7.84
8/10/2021 8:30:00 PM 23.24 73.832 0.077 7.2 1.15 7.76
8/10/2021 8:45:00 PM 23.17 73.706 0.077 7.19 1.15 7.68
8/10/2021 9:00:00 PM 23.1 73.58 0.077 7.14 1.23 7.63
8/10/2021 9:15:00 PM 23.03 73.454 0.077 7.12 1.26 7.59
8/10/2021 9:30:00 PM 22.95 73.31 0.077 7.13 1.43 7.56
8/10/2021 9:45:00 PM 22.88 73.184 0.077 7.11 1.5 7.56
8/10/2021 10:00:00 PM 22.83 73.094 0.077 7.11 1.36 7.54
8/10/2021 10:15:00 PM 22.77 72.986 0.077 7.07 1.37 7.53
8/10/2021 10:30:00 PM 22.72 72.896 0.077 7.11 1.47 7.54
8/10/2021 10:45:00 PM 22.66 72.788 0.077 7.08 1.61 7.53
8/10/2021 11:00:00 PM 22.61 72.698 0.077 7.09 1.58 7.53
8/10/2021 11:15:00 PM 22.55 72.59 0.077 7.06 1.47 7.52
8/10/2021 11:30:00 PM 22.49 72.482 0.077 7.09 1.44 7.53
8/10/2021 11:45:00 PM 22.43 72.374 0.077 7.09 1.44 7.54
8/11/2021 12:00:00 AM 22.38 72.284 0.077 7.08 1.79 7.55
8/11/2021 12:15:00 AM 22.33 72.194 0.078 7.09 1.28 7.56
8/11/2021 12:30:00 AM 22.27 72.086 0.078 7.08 1.43 7.57
8/11/2021 12:45:00 AM 22.22 71.996 0.078 7.08 1.54 7.58
8/11/2021 1:00:00 AM 22.17 71.906 0.078 7.09 1.51 7.59
8/11/2021 1:15:00 AM 22.11 71.798 0.078 7.07 1.37 7.6
8/11/2021 1:30:00 AM 22.05 71.69 0.078 7.08 1.7 7.61
8/11/2021 1:45:00 AM 22 71.6 0.078 7.08 1.75 7.62
8/11/2021 2:00:00 AM 21.96 71.528 0.078 7.07 1.58 7.63
8/11/2021 2:15:00 AM 21.91 71.438 0.078 7.08 1.31 7.64
8/11/2021 2:30:00 AM 21.87 71.366 0.078 7.02 1.42 7.66
8/11/2021 2:45:00 AM 21.82 71.276 0.078 7.08 1.25 7.66
8/11/2021 3:00:00 AM 21.78 71.204 0.078 7.08 1.29 7.68
8/11/2021 3:15:00 AM 21.74 71.132 0.078 7.03 1.35 7.68
8/11/2021 3:30:00 AM 21.7 71.06 0.077 7.08 1.27 7.7
8/11/2021 3:45:00 AM 21.65 70.97 0.077 7.08 1.34 7.7
8/11/2021 4:00:00 AM 21.61 70.898 0.077 7.07 1.25 7.72
8/11/2021 4:15:00 AM 21.56 70.808 0.077 7.08 1.23 7.73
8/11/2021 4:30:00 AM 21.52 70.736 0.077 7.08 1.61 7.74
8/11/2021 4:45:00 AM 21.49 70.682 0.077 7.09 1.47 7.75
8/11/2021 5:00:00 AM 21.45 70.61 0.077 7.08 1.33 7.76
8/11/2021 5:15:00 AM 21.42 70.556 0.077 7.08 1.42 7.76
8/11/2021 5:30:00 AM 21.39 70.502 0.077 7.08 2.61 7.76
8/11/2021 5:45:00 AM 21.35 70.43 0.077 7.08 1.97 7.78
8/11/2021 6:00:00 AM 21.32 70.376 0.077 7.08 1.73 7.79
8/11/2021 6:15:00 AM 21.29 70.32201 0.077 7.07 1.8 7.8
8/11/2021 6:30:00 AM 21.27 70.286 0.077 7.08 1.96 7.82
8/11/2021 6:45:00 AM 21.24 70.232 0.077 7.05 9.48 7.85
8/11/2021 7:00:00 AM 21.23 70.214 0.077 7.06 2.04 7.89
8/11/2021 7:15:00 AM 21.21 70.17799 0.077 7.1 2.17 7.94
8/11/2021 7:30:00 AM 21.21 70.17799 0.077 7.12 2.15 8.04
8/11/2021 7:45:00 AM 21.2 70.16 0.077 7.13 2.35 8.09
8/11/2021 8:00:00 AM 21.19 70.142 0.077 7.13 2.29 8.12
8/11/2021 8:15:00 AM 21.18 70.124 0.077 7.09 2.15 8.13
8/11/2021 8:30:00 AM 21.18 70.124 0.076 7.12 2.04 8.18
8/11/2021 8:45:00 AM 21.18 70.124 0.076 7.15 1.92 8.22
8/11/2021 9:00:00 AM 21.19 70.142 0.077 7.16 1.98 8.32
8/11/2021 9:15:00 AM 21.27 70.286 0.076 7.14 1.98 8.52
8/11/2021 9:30:00 AM 21.38 70.484 0.076 7.2 1.84 8.7
8/11/2021 9:45:00 AM 21.44 70.592 0.076 7.27 1.7 8.79
8/11/2021 10:00:00 AM 21.46 70.628 0.076 7.28 1.52 8.8
8/11/2021 10:15:00 AM 21.46 70.628 0.076 7.29 1.49 8.79
8/11/2021 10:30:00 AM 21.48 70.664 0.075 7.3 1.29 8.83
8/11/2021 10:45:00 AM 21.5 70.7 0.076 7.28 1.23 8.79
8/11/2021 11:00:00 AM 21.62 70.916 0.075 7.36 1.31 8.95
8/11/2021 11:15:00 AM 21.65 70.97 0.075 7.37 1.21 8.93
8/11/2021 11:30:00 AM 21.71 71.078 0.075 7.32 1.06 9.01
8/11/2021 11:45:00 AM 21.69 71.042 0.075 7.38 1.2 8.94
8/11/2021 12:00:00 PM 21.75 71.15 0.075 7.34 1.02 9.03
8/11/2021 12:15:00 PM 21.91 71.438 0.075 7.48 0.95 9.15
8/11/2021 12:30:00 PM 22.19 71.942 0.075 7.51 0.94 9.24
8/11/2021 12:45:00 PM 22.36 72.248 0.075 7.55 1.02 9.3
8/11/2021 1:00:00 PM 22.55 72.59 0.075 7.64 3.63 9.4
8/11/2021 1:15:00 PM 22.77 72.986 0.075 7.7 0.79 9.4
8/11/2021 1:30:00 PM 23.21 73.778 0.075 7.76 0.86 9.42
8/11/2021 1:45:00 PM 23.68 74.624 0.075 7.81 0.84 9.44
8/11/2021 2:00:00 PM 23.9 75.02 0.075 7.86 0.83 9.42
8/11/2021 2:15:00 PM 24.31 75.758 0.074 7.9 1.45 9.4
8/11/2021 2:30:00 PM 24.53 76.154 0.074 7.94 0.72 9.38
8/11/2021 2:45:00 PM 24.86 76.748 0.074 7.97 0.86 9.34
8/11/2021 3:00:00 PM 24.95 76.91 0.074 7.96 0.79 9.23
8/11/2021 3:15:00 PM 25 77 0.074 7.96 0.87 9.23
8/11/2021 3:30:00 PM 25.07 77.126 0.074 7.95 0.85 9.17
8/11/2021 3:45:00 PM 25.01 77.018 0.074 7.95 0.81 9.12
8/11/2021 4:00:00 PM 25.01 77.018 0.074 7.93 2.11 9.09
8/11/2021 4:15:00 PM 25 77 0.074 7.93 0.77 9.03
8/11/2021 4:30:00 PM 24.88 76.784 0.074 7.89 0.71 8.98
8/11/2021 4:45:00 PM 24.76 76.568 0.074 7.87 0.71 8.92
8/11/2021 5:00:00 PM 24.68 76.424 0.074 7.81 0.64 8.86
8/11/2021 5:15:00 PM 24.6 76.28 0.074 7.79 0.69 8.83
8/11/2021 5:30:00 PM 24.54 76.172 0.074 7.72 0.66 8.78
8/11/2021 5:45:00 PM 24.45 76.01 0.074 7.65 0.71 8.69
8/11/2021 6:00:00 PM 24.36 75.848 0.074 7.61 0.84 8.58
8/11/2021 6:15:00 PM 24.24 75.632 0.074 7.57 0.84 8.45
8/11/2021 6:30:00 PM 24.17 75.506 0.075 7.5 0.76 8.32
8/11/2021 6:45:00 PM 24.07 75.326 0.075 7.45 0.74 8.2
8/11/2021 7:00:00 PM 23.97 75.146 0.075 7.41 0.67 8.05
8/11/2021 7:15:00 PM 23.87 74.966 0.075 7.33 0.78 7.95
8/11/2021 7:30:00 PM 23.77 74.786 0.076 7.32 0.67 7.83
8/11/2021 7:45:00 PM 23.67 74.606 0.076 7.29 0.77 7.75
8/11/2021 8:00:00 PM 23.58 74.444 0.076 7.26 0.75 7.67
8/11/2021 8:15:00 PM 23.49 74.282 0.076 7.23 0.76 7.6
8/11/2021 8:30:00 PM 23.41 74.138 0.077 7.15 0.87 7.55
8/11/2021 8:45:00 PM 23.32 73.976 0.077 7.19 0.96 7.52
8/11/2021 9:00:00 PM 23.26 73.868 0.077 7.17 0.95 7.49
8/11/2021 9:15:00 PM 23.18 73.724 0.077 7.11 0.93 7.47
8/11/2021 9:30:00 PM 23.09 73.562 0.078 7.15 0.83 7.44
8/11/2021 9:45:00 PM 23.01 73.418 0.078 7.08 1.02 7.44
8/11/2021 10:00:00 PM 22.91 73.238 0.078 7.14 1.04 7.45
8/11/2021 10:15:00 PM 22.83 73.094 0.077 7.12 1.01 7.45
8/11/2021 10:30:00 PM 22.75 72.95 0.077 7.14 1.05 7.46
8/11/2021 10:45:00 PM 22.68 72.824 0.077 7.12 1.11 7.48
8/11/2021 11:00:00 PM 22.6 72.68 0.077 7.11 1.16 7.49
8/11/2021 11:15:00 PM 22.53 72.554 0.078 7.1 1.1 7.49
8/11/2021 11:30:00 PM 22.47 72.446 0.078 7.11 1.11 7.51
8/11/2021 11:45:00 PM 22.41 72.338 0.078 7.06 1.16 7.52
8/12/2021 12:00:00 AM 22.35 72.23 0.078 7.12 1.27 7.53
8/12/2021 12:15:00 AM 22.28 72.104 0.078 7.1 1.13 7.54
8/12/2021 12:30:00 AM 22.22 71.996 0.078 7.07 1.22 7.53
8/12/2021 12:45:00 AM 22.15 71.87 0.078 7.11 1 7.57
8/12/2021 1:00:00 AM 22.08 71.744 0.078 7.04 1.31 7.57
8/12/2021 1:15:00 AM 22.01 71.618 0.078 7.11 1.45 7.58
8/12/2021 1:30:00 AM 21.95 71.51 0.078 7.1 1.12 7.59
8/12/2021 1:45:00 AM 21.88 71.384 0.078 7.11 1.31 7.61
8/12/2021 2:00:00 AM 21.81 71.258 0.079 7.05 1.26 7.6
8/12/2021 2:15:00 AM 21.74 71.132 0.079 7.06 1.19 7.62
8/12/2021 2:30:00 AM 21.68 71.024 0.079 7.1 1.09 7.63
8/12/2021 2:45:00 AM 21.64 70.952 0.079 7.1 1.38 7.64
8/12/2021 3:00:00 AM 21.59 70.862 0.079 7.09 1.08 7.63
8/12/2021 3:15:00 AM 21.54 70.772 0.079 7.1 1.34 7.66
8/12/2021 3:30:00 AM 21.5 70.7 0.079 7.11 1.06 7.65
8/12/2021 3:45:00 AM 21.44 70.592 0.079 7.1 1.05 7.68
8/12/2021 4:00:00 AM 21.39 70.502 0.079 7.11 1.08 7.68
8/12/2021 4:15:00 AM 21.33 70.394 0.079 7.05 1.37 7.71
8/12/2021 4:30:00 AM 21.27 70.286 0.079 7.11 1.06 7.71
8/12/2021 4:45:00 AM 21.22 70.196 0.079 7.1 0.98 7.72
8/12/2021 5:00:00 AM 21.17 70.106 0.079 7.08 0.97 7.74
8/12/2021 5:15:00 AM 21.11 69.998 0.079 7.1 1.47 7.75
8/12/2021 5:30:00 AM 21.06 69.908 0.079 7.1 3.13 7.75
8/12/2021 5:45:00 AM 21.01 69.818 0.079 7.11 1.1 7.77
8/12/2021 6:00:00 AM 20.96 69.728 0.079 7.1 1.1 7.78
8/12/2021 6:15:00 AM 20.92 69.656 0.079 7.1 1.21 7.81
8/12/2021 6:30:00 AM 20.88 69.584 0.079 7.11 0.97 7.83
8/12/2021 6:45:00 AM 20.83 69.494 0.079 7.11 1.08 7.87
8/12/2021 7:00:00 AM 20.79 69.422 0.08 7.05 1.01 7.92
8/12/2021 7:15:00 AM 20.76 69.368 0.079 7.08 0.86 8
8/12/2021 7:30:00 AM 20.74 69.332 0.079 7.12 0.95 8.09
8/12/2021 7:45:00 AM 20.73 69.314 0.079 7.16 0.94 8.19
8/12/2021 8:00:00 AM 20.75 69.35 0.079 7.17 0.89 8.32
8/12/2021 8:15:00 AM 20.79 69.422 0.079 7.21 0.93 8.46
8/12/2021 8:30:00 AM 20.84 69.512 0.079 7.23 0.79 8.55
8/12/2021 8:45:00 AM 20.92 69.656 0.079 7.2 0.76 8.67
8/12/2021 9:00:00 AM 21.03 69.854 0.078 7.28 0.79 8.76
8/12/2021 9:15:00 AM 21.16 70.088 0.078 7.26 0.76 8.87
8/12/2021 9:30:00 AM 21.24 70.232 0.078 7.33 0.74 8.9
8/12/2021 9:45:00 AM 21.29 70.32201 0.078 7.35 0.79 8.92
8/12/2021 10:00:00 AM 21.38 70.484 0.078 7.37 0.82 9.01
8/12/2021 10:15:00 AM 21.52 70.736 0.078 7.41 0.79 9.13
8/12/2021 10:30:00 AM 21.72 71.096 0.077 7.45 0.88 9.21
8/12/2021 10:45:00 AM 21.85 71.33 0.076 7.47 1.3 9.16
8/12/2021 11:00:00 AM 21.92 71.456 0.077 7.5 0.75 9.24
8/12/2021 11:15:00 AM 22.09 71.762 0.077 7.52 0.84 9.33
8/12/2021 11:30:00 AM 22.4 72.32 0.077 7.62 0.78 9.37
8/12/2021 11:45:00 AM 22.66 72.788 0.077 7.66 0.6 9.47
8/12/2021 12:00:00 PM 22.86 73.148 0.077 7.7 0.71 9.45
8/12/2021 12:15:00 PM 23.14 73.652 0.18 7.96 183.03 8.84
8/12/2021 12:30:00 PM 22.72 72.896 0.081 7.66 3.81 9.01
8/12/2021 12:45:00 PM 22.87 73.166 0.077 7.6 1.26 9.11
8/12/2021 1:00:00 PM 23.24 73.832 0.076 7.66 1.18 9.16
8/12/2021 1:15:00 PM 23.75 74.75 0.076 7.71 1.21 9.24
8/12/2021 1:30:00 PM 24.23 75.614 0.076 7.75 1.07 9.26
8/12/2021 1:45:00 PM 24.34 75.812 0.075 7.8 1.03 9.26
8/12/2021 2:00:00 PM 24.66 76.388 0.075 7.83 1.48 9.27
8/12/2021 2:15:00 PM 24.96 76.92799 0.075 7.86 0.85 9.25
8/12/2021 2:30:00 PM 25.29 77.522 0.075 7.9 0.97 9.21
8/12/2021 2:45:00 PM 25.43 77.774 0.076 7.88 1.05 9.08
8/12/2021 3:00:00 PM 25.44 77.792 0.076 7.84 0.95 9.04
8/12/2021 3:15:00 PM 25.46 77.828 0.076 7.85 1.22 8.95
8/12/2021 3:30:00 PM 25.63 78.134 0.076 7.86 1.63 8.98
8/12/2021 3:45:00 PM 25.47 77.846 0.075 7.85 1.21 8.92
8/12/2021 4:00:00 PM 25.31 77.558 0.075 7.78 1.27 8.84
8/12/2021 4:15:00 PM 25.2 77.36 0.075 7.67 1.34 8.78
8/12/2021 4:30:00 PM 25.14 77.252 0.075 7.66 1.16 8.75
8/12/2021 4:45:00 PM 25.11 77.198 0.074 7.7 1.37 8.74
8/12/2021 5:00:00 PM 25.09 77.162 0.074 7.7 1.24 8.72
8/12/2021 5:15:00 PM 25.13 77.234 0.074 7.7 1.36 8.7
8/12/2021 5:30:00 PM 25.09 77.162 0.074 7.67 1.35 8.63
8/12/2021 5:45:00 PM 25.01 77.018 0.074 7.59 1.4 8.5
8/12/2021 6:00:00 PM 24.9 76.82 0.074 7.5 1.25 8.34
8/12/2021 6:15:00 PM 24.81 76.658 0.074 7.36 1.24 8.14
8/12/2021 6:30:00 PM 24.72 76.496 0.074 7.35 1.26 7.98
8/12/2021 6:45:00 PM 24.64 76.352 0.074 7.3 1.54 7.82
8/12/2021 7:00:00 PM 24.55 76.19 0.074 7.25 1.72 7.7
8/12/2021 7:15:00 PM 24.46 76.028 0.074 7.18 1.76 7.63
8/12/2021 7:30:00 PM 24.37 75.866 0.075 7.17 1.93 7.56
8/12/2021 7:45:00 PM 24.28 75.704 0.075 7.16 2 7.51
8/12/2021 8:00:00 PM 24.19 75.542 0.075 7.14 2.1 7.48
8/12/2021 8:15:00 PM 24.11 75.398 0.075 7.11 2.36 7.46
8/12/2021 8:30:00 PM 24.04 75.272 0.075 7.09 2.44 7.44
8/12/2021 8:45:00 PM 23.95 75.11 0.08 7.09 2.83 7.45
8/12/2021 9:00:00 PM 23.87 74.966 0.077 7.12 3.31 7.44
8/12/2021 9:15:00 PM 23.78 74.804 0.078 7.13 3.9 7.44
8/12/2021 9:30:00 PM 23.69 74.642 0.08 7.13 7.36 7.45
8/12/2021 9:45:00 PM 23.6 74.48 0.078 7.13 7.24 7.45
8/12/2021 10:00:00 PM 23.52 74.336 0.076 7.11 3.52 7.44
8/12/2021 10:15:00 PM 23.44 74.192 0.075 7.11 2.66 7.43
8/12/2021 10:30:00 PM 23.36 74.048 0.075 7.09 2.36 7.43
8/12/2021 10:45:00 PM 23.28 73.904 0.075 7.1 3.22 7.44
8/12/2021 11:00:00 PM 23.2 73.76 0.074 7.11 2.33 7.45
8/12/2021 11:15:00 PM 23.12 73.616 0.075 7.1 2.4 7.46
8/12/2021 11:30:00 PM 23.04 73.472 0.075 7.1 2.26 7.47
8/12/2021 11:45:00 PM 22.97 73.346 0.075 7.02 2.25 7.45
8/13/2021 12:00:00 AM 22.9 73.22 0.075 7.11 2.78 7.5
8/13/2021 12:15:00 AM 22.82 73.076 0.075 7.08 3.11 7.51
8/13/2021 12:30:00 AM 22.75 72.95 0.075 7.09 3.62 7.53
8/13/2021 12:45:00 AM 22.67 72.806 0.075 7.09 3.78 7.54
8/13/2021 1:00:00 AM 22.6 72.68 0.075 7.08 4.32 7.55
8/13/2021 1:15:00 AM 22.53 72.554 0.075 7.08 5.39 7.58
8/13/2021 1:30:00 AM 22.46 72.42799 0.075 7.03 6.15 7.6
8/13/2021 1:45:00 AM 22.38 72.284 0.075 7.09 6.61 7.6
8/13/2021 2:00:00 AM 22.31 72.158 0.075 7.08 8.06 7.62
8/13/2021 2:15:00 AM 22.24 72.032 0.075 7.08 8.61 7.64
8/13/2021 2:30:00 AM 22.17 71.906 0.075 7.07 9.42 7.66
8/13/2021 2:45:00 AM 22.1 71.78 0.075 7.09 9.61 7.68
8/13/2021 3:00:00 AM 22.04 71.672 0.075 7.09 9.84 7.69
8/13/2021 3:15:00 AM 21.97 71.546 0.075 7.08 10.19 7.71
8/13/2021 3:30:00 AM 21.91 71.438 0.075 7.07 9.67 7.73
8/13/2021 3:45:00 AM 21.85 71.33 0.075 7.01 8.96 7.75
8/13/2021 4:00:00 AM 21.8 71.24 0.075 7.08 8.38 7.76
8/13/2021 4:15:00 AM 21.75 71.15 0.075 7.08 7.87 7.77
8/13/2021 4:30:00 AM 21.69 71.042 0.075 7.03 7.23 7.79
8/13/2021 4:45:00 AM 21.63 70.934 0.075 7.09 6.52 7.8
8/13/2021 5:00:00 AM 21.56 70.808 0.075 7.08 6.1 7.82
8/13/2021 5:15:00 AM 21.51 70.718 0.076 7.09 5.6 7.84
8/13/2021 5:30:00 AM 21.46 70.628 0.077 7.09 4.96 7.85
8/13/2021 5:45:00 AM 21.41 70.538 0.077 7.04 4.57 7.86
8/13/2021 6:00:00 AM 21.36 70.448 0.077 7.05 4.06 7.86
8/13/2021 6:15:00 AM 21.3 70.34 0.077 7.09 3.84 7.89
8/13/2021 6:30:00 AM 21.26 70.268 0.076 7.1 4.71 7.9
8/13/2021 6:45:00 AM 21.22 70.196 0.076 7.1 4.01 7.94
8/13/2021 7:00:00 AM 21.19 70.142 0.076 7.11 3.23 7.97
8/13/2021 7:15:00 AM 21.16 70.088 0.076 7.11 2.94 8.02
8/13/2021 7:30:00 AM 21.14 70.052 0.076 7.13 2.93 8.09
8/13/2021 7:45:00 AM 21.14 70.052 0.076 7.15 2.64 8.19
8/13/2021 8:00:00 AM 21.13 70.034 0.076 7.17 2.6 8.25
8/13/2021 8:15:00 AM 21.14 70.052 0.076 7.14 2.41 8.35
8/13/2021 8:30:00 AM 21.13 70.034 0.076 7.2 2.35 8.4
8/13/2021 8:45:00 AM 21.16 70.088 0.075 7.19 2.38 8.54
8/13/2021 9:00:00 AM 21.22 70.196 0.075 7.27 2.2 8.66
8/13/2021 9:15:00 AM 21.3 70.34 0.075 7.26 2.07 8.77
8/13/2021 9:30:00 AM 21.39 70.502 0.075 7.33 2.09 8.84
8/13/2021 9:45:00 AM 21.49 70.682 0.075 7.35 2.09 8.91
8/13/2021 10:00:00 AM 21.64 70.952 0.075 7.4 2.5 8.96
8/13/2021 10:15:00 AM 21.84 71.312 0.075 7.43 1.97 9.01
8/13/2021 10:30:00 AM 22.06 71.708 0.075 7.48 2.22 9.06
8/13/2021 10:45:00 AM 22.28 72.104 0.075 7.45 2.23 9.13
8/13/2021 11:00:00 AM 22.49 72.482 0.075 7.51 2.28 9.22
8/13/2021 11:15:00 AM 22.63 72.734 0.075 7.59 2.25 9.27
8/13/2021 11:30:00 AM 22.72 72.896 0.075 7.62 2.32 9.28
8/13/2021 11:45:00 AM 22.79 73.022 0.075 7.65 2.4 9.32
8/13/2021 12:00:00 PM 23.07 73.526 0.074 7.69 2.31 9.35
8/13/2021 12:15:00 PM 23.12 73.616 0.075 7.73 2.85 9.28
8/13/2021 12:30:00 PM 23.03 73.454 0.074 7.66 2.28 9.14
8/13/2021 12:45:00 PM 22.94 73.292 0.074 7.61 2.46 9.08
8/13/2021 1:00:00 PM 23.03 73.454 0.074 7.64 2.29 9.1
8/13/2021 1:15:00 PM 23.1 73.58 0.074 7.66 2.53 9.13
8/13/2021 1:30:00 PM 23.2 73.76 0.074 7.72 2.37 9.2
8/13/2021 1:45:00 PM 23.69 74.642 0.074 7.82 2.29 9.25
8/13/2021 2:00:00 PM 23.82 74.876 0.074 7.87 2.27 9.28
8/13/2021 2:15:00 PM 24.33 75.794 0.074 7.94 2.24 9.31
8/13/2021 2:30:00 PM 24.6 76.28 0.074 7.98 2.2 9.26
8/13/2021 2:45:00 PM 24.4 75.92 0.074 7.82 2.6 8.94
8/13/2021 3:00:00 PM 24.56 76.208 0.079 7.85 8.17 8.91
8/13/2021 3:15:00 PM 24.85 76.73 0.074 7.79 3.06 8.9
8/13/2021 3:30:00 PM 24.64 76.352 0.074 7.76 2.11 8.88
8/13/2021 3:45:00 PM 24.97 76.946 0.074 7.8 2.03 8.94
8/13/2021 4:00:00 PM 25.07 77.126 0.074 7.84 2.63 8.91
8/13/2021 4:15:00 PM 25.08 77.144 0.074 7.84 1.81 8.91
8/13/2021 4:30:00 PM 25.06 77.108 0.074 7.83 7.94 8.91
8/13/2021 4:45:00 PM 24.99 76.982 0.074 7.8 1.75 8.87
8/13/2021 5:00:00 PM 25.16 77.288 0.074 7.81 1.86 8.83
8/13/2021 5:15:00 PM 25.07 77.126 0.074 7.71 1.82 8.76
8/13/2021 5:30:00 PM 25.01 77.018 0.074 7.68 1.66 8.64
8/13/2021 5:45:00 PM 24.97 76.946 0.074 7.66 1.57 8.59
8/13/2021 6:00:00 PM 24.92 76.856 0.074 7.56 1.54 8.46
8/13/2021 6:15:00 PM 24.85 76.73 0.074 7.55 1.46 8.36
8/13/2021 6:30:00 PM 24.74 76.532 0.075 7.49 1.54 8.23
8/13/2021 6:45:00 PM 24.65 76.37 0.074 7.43 1.43 8.14
8/13/2021 7:00:00 PM 24.58 76.244 0.075 7.38 1.65 8.06
8/13/2021 7:15:00 PM 24.52 76.136 0.075 7.36 1.47 7.99
8/13/2021 7:30:00 PM 24.43 75.974 0.075 7.28 1.43 7.9
8/13/2021 7:45:00 PM 24.34 75.812 0.075 7.3 1.37 7.8
8/13/2021 8:00:00 PM 24.24 75.632 0.075 7.26 1.47 7.72
8/13/2021 8:15:00 PM 24.13 75.434 0.075 7.23 1.67 7.64
8/13/2021 8:30:00 PM 24.02 75.236 0.076 7.16 1.53 7.58
8/13/2021 8:45:00 PM 23.93 75.074 0.076 7.18 1.48 7.53
8/13/2021 9:00:00 PM 23.83 74.894 0.076 7.16 1.71 7.5
8/13/2021 9:15:00 PM 23.74 74.732 0.076 7.14 1.63 7.47
8/13/2021 9:30:00 PM 23.67 74.606 0.076 7.14 2.06 7.45
8/13/2021 9:45:00 PM 23.6 74.48 0.076 7.13 1.93 7.44
8/13/2021 10:00:00 PM 23.53 74.354 0.076 7.12 1.68 7.44
8/13/2021 10:15:00 PM 23.47 74.246 0.077 7.11 2.55 7.43
8/13/2021 10:30:00 PM 23.41 74.138 0.077 7.11 1.53 7.43
8/13/2021 10:45:00 PM 23.33 73.994 0.076 7.11 2.68 7.48
8/13/2021 11:00:00 PM 23.15 73.67 0.092 7.15 32.21 7.63
8/13/2021 11:15:00 PM 23.18 73.724 0.079 7.14 2.96 7.55
8/13/2021 11:30:00 PM 23.1 73.58 0.08 7.11 3.45 7.55
8/13/2021 11:45:00 PM 23.04 73.472 0.078 7.1 2.3 7.52
8/14/2021 12:00:00 AM 22.97 73.346 0.077 7.09 2.11 7.51
8/14/2021 12:15:00 AM 22.91 73.238 0.077 7.09 2.09 7.51
8/14/2021 12:30:00 AM 22.85 73.13 0.077 7.09 1.87 7.52
8/14/2021 12:45:00 AM 22.79 73.022 0.077 7.09 1.88 7.52
8/14/2021 1:00:00 AM 22.74 72.932 0.077 7.06 1.86 7.53
8/14/2021 1:15:00 AM 22.68 72.824 0.077 7.08 2.08 7.53
8/14/2021 1:30:00 AM 22.64 72.752 0.077 7.09 1.95 7.54
8/14/2021 1:45:00 AM 22.59 72.662 0.077 7.1 2.28 7.55
8/14/2021 2:00:00 AM 22.55 72.59 0.077 7.1 2.33 7.55
8/14/2021 2:15:00 AM 22.5 72.5 0.077 7.04 2.54 7.57
8/14/2021 2:30:00 AM 22.45 72.41 0.077 7.1 2.43 7.58
8/14/2021 2:45:00 AM 22.4 72.32 0.077 7.08 2.35 7.6
8/14/2021 3:00:00 AM 22.36 72.248 0.077 7.09 2.29 7.61
8/14/2021 3:15:00 AM 22.3 72.14 0.077 7.1 2.6 7.63
8/14/2021 3:30:00 AM 22.26 72.068 0.076 7.1 2.43 7.66
8/14/2021 3:45:00 AM 22.21 71.978 0.076 7.1 2.48 7.67
8/14/2021 4:00:00 AM 22.17 71.906 0.076 7.1 2.49 7.68
8/14/2021 4:15:00 AM 22.12 71.816 0.076 7.08 2.39 7.7
8/14/2021 4:30:00 AM 22.07 71.726 0.076 7.09 2.39 7.71
8/14/2021 4:45:00 AM 22.03 71.654 0.076 7.08 2.42 7.73
8/14/2021 5:00:00 AM 21.98 71.564 0.076 7.1 2.91 7.75
8/14/2021 5:15:00 AM 21.94 71.492 0.076 7.09 2.87 7.76
8/14/2021 5:30:00 AM 21.89 71.402 0.076 7.1 3.52 7.78
8/14/2021 5:45:00 AM 21.85 71.33 0.076 7.1 3.49 7.79
8/14/2021 6:00:00 AM 21.8 71.24 0.076 7.1 3.52 7.79
8/14/2021 6:15:00 AM 21.76 71.168 0.076 7.06 3.96 7.81
8/14/2021 6:30:00 AM 21.72 71.096 0.076 7.1 3.71 7.83
8/14/2021 6:45:00 AM 21.68 71.024 0.076 7.09 3.23 7.86
8/14/2021 7:00:00 AM 21.65 70.97 0.076 7.1 3.57 7.88
8/14/2021 7:15:00 AM 21.62 70.916 0.076 7.07 3.16 7.92
8/14/2021 7:30:00 AM 21.59 70.862 0.076 7.12 3.29 7.97
8/14/2021 7:45:00 AM 21.56 70.808 0.076 7.1 2.89 7.99
8/14/2021 8:00:00 AM 21.52 70.736 0.076 7.13 2.89 8.02
8/14/2021 8:15:00 AM 21.5 70.7 0.076 7.15 2.81 8.07
8/14/2021 8:30:00 AM 21.5 70.7 0.076 7.15 2.99 8.16
8/14/2021 8:45:00 AM 21.48 70.664 0.076 7.17 2.56 8.2
8/14/2021 9:00:00 AM 21.44 70.592 0.076 7.18 2.33 8.27
8/14/2021 9:15:00 AM 21.39 70.502 0.076 7.14 2.52 8.31
8/14/2021 9:30:00 AM 21.36 70.448 0.076 7.21 2.39 8.4
8/14/2021 9:45:00 AM 21.31 70.358 0.076 7.22 2.02 8.44
8/14/2021 10:00:00 AM 21.33 70.394 0.076 7.26 2.06 8.62
8/14/2021 10:15:00 AM 21.34 70.412 0.076 7.29 1.92 8.73
8/14/2021 10:30:00 AM 21.39 70.502 0.076 7.35 1.96 8.93
8/14/2021 10:45:00 AM 21.47 70.646 0.076 7.4 1.79 9.07
8/14/2021 11:00:00 AM 21.52 70.736 0.076 7.39 1.73 9.16
8/14/2021 11:15:00 AM 21.57 70.826 0.076 7.49 1.91 9.25
8/14/2021 11:30:00 AM 21.66 70.988 0.075 7.5 3.06 9.34
8/14/2021 11:45:00 AM 21.87 71.366 0.075 7.57 1.89 9.42
8/14/2021 12:00:00 PM 21.98 71.564 0.075 7.65 2.2 9.48
8/14/2021 12:15:00 PM 22.09 71.762 0.075 7.7 1.59 9.48
8/14/2021 12:30:00 PM 22.41 72.338 0.075 7.74 1.55 9.49
8/14/2021 12:45:00 PM 22.82 73.076 0.075 7.79 1.42 9.49
8/14/2021 1:00:00 PM 23.25 73.85 0.075 7.86 1.46 9.51
8/14/2021 1:15:00 PM 23.56 74.408 0.075 7.9 1.5 9.5
8/14/2021 1:30:00 PM 23.58 74.444 0.075 7.88 1.51 9.52
8/14/2021 1:45:00 PM 23.92 75.056 0.075 7.94 1.4 9.47
8/14/2021 2:00:00 PM 24.2 75.56 0.075 7.91 1.61 9.43
8/14/2021 2:15:00 PM 24.43 75.974 0.075 7.99 1.45 9.37
8/14/2021 2:30:00 PM 24.63 76.334 0.075 7.96 1.26 9.33
8/14/2021 2:45:00 PM 24.78 76.604 0.075 8 1.71 9.28
8/14/2021 3:00:00 PM 24.92 76.856 0.074 8.01 1.48 9.24
8/14/2021 3:15:00 PM 25.04 77.07201 0.074 8 1.38 9.16
8/14/2021 3:30:00 PM 25.15 77.27 0.074 8 1.46 9.13
8/14/2021 3:45:00 PM 25.19 77.342 0.074 7.97 1.54 9.08
8/14/2021 4:00:00 PM 25.24 77.432 0.074 7.93 1.61 9
8/14/2021 4:15:00 PM 25.24 77.432 0.075 7.9 1.68 8.93
8/14/2021 4:30:00 PM 25.22 77.396 0.075 7.85 1.79 8.84
8/14/2021 4:45:00 PM 25.15 77.27 0.075 7.81 1.77 8.78
8/14/2021 5:00:00 PM 25.08 77.144 0.075 7.77 1.69 8.71
8/14/2021 5:15:00 PM 24.98 76.964 0.075 7.71 1.85 8.65
8/14/2021 5:30:00 PM 24.82 76.676 0.075 7.67 1.76 8.55
8/14/2021 5:45:00 PM 24.68 76.424 0.075 7.58 1.79 8.47
8/14/2021 6:00:00 PM 24.49 76.082 0.075 7.47 1.84 8.35
8/14/2021 6:15:00 PM 24.3 75.74 0.075 7.43 1.92 8.27
8/14/2021 6:30:00 PM 24.13 75.434 0.075 7.4 1.61 8.18
8/14/2021 6:45:00 PM 23.98 75.164 0.075 7.37 1.75 8.12
8/14/2021 7:00:00 PM 23.83 74.894 0.075 7.35 1.65 8.07
8/14/2021 7:15:00 PM 23.69 74.642 0.076 7.31 1.57 8.03
8/14/2021 7:30:00 PM 23.54 74.372 0.076 7.3 1.6 7.99
8/14/2021 7:45:00 PM 23.38 74.084 0.076 7.27 1.53 7.94
8/14/2021 8:00:00 PM 23.21 73.778 0.076 7.23 1.6 7.89
8/14/2021 8:15:00 PM 23.04 73.472 0.076 7.22 1.47 7.84
8/14/2021 8:30:00 PM 22.88 73.184 0.076 7.19 1.97 7.78
8/14/2021 8:45:00 PM 22.72 72.896 0.077 7.18 1.55 7.76
8/14/2021 9:00:00 PM 22.58 72.644 0.077 7.14 1.57 7.74
8/14/2021 9:15:00 PM 22.43 72.374 0.077 7.15 1.55 7.73
8/14/2021 9:30:00 PM 22.29 72.122 0.077 7.14 1.6 7.72
8/14/2021 9:45:00 PM 22.17 71.906 0.077 7.13 1.63 7.72
8/14/2021 10:00:00 PM 22.06 71.708 0.077 7.13 1.76 7.73
8/14/2021 10:15:00 PM 21.92 71.456 0.077 7.11 1.61 7.73
8/14/2021 10:30:00 PM 21.82 71.276 0.077 7.12 1.72 7.75
8/14/2021 10:45:00 PM 21.7 71.06 0.077 7.12 1.88 7.76
8/14/2021 11:00:00 PM 21.6 70.88 0.077 7.11 1.7 7.78
8/14/2021 11:15:00 PM 21.49 70.682 0.077 7.09 1.64 7.8
8/14/2021 11:30:00 PM 21.39 70.502 0.077 7.11 1.75 7.81
8/14/2021 11:45:00 PM 21.28 70.304 0.078 7.11 1.6 7.82
8/15/2021 12:00:00 AM 21.2 70.16 0.078 7.11 1.71 7.84
8/15/2021 12:15:00 AM 21.1 69.98 0.078 7.11 1.77 7.85
8/15/2021 12:30:00 AM 20.99 69.782 0.078 7.1 1.63 7.87
8/15/2021 12:45:00 AM 20.89 69.602 0.078 7.11 1.72 7.9
8/15/2021 1:00:00 AM 20.8 69.44 0.078 7.11 1.63 7.91
8/15/2021 1:15:00 AM 20.7 69.26 0.078 7.12 1.42 7.93
8/15/2021 1:30:00 AM 20.59 69.062 0.078 7.11 1.74 7.95
8/15/2021 1:45:00 AM 20.49 68.882 0.078 7.07 1.66 7.97
8/15/2021 2:00:00 AM 20.4 68.72 0.078 7.11 1.62 7.99
8/15/2021 2:15:00 AM 20.31 68.558 0.078 7.12 1.53 8.02
8/15/2021 2:30:00 AM 20.23 68.414 0.078 7.11 1.69 8.04
8/15/2021 2:45:00 AM 20.15 68.27 0.078 7.06 1.7 8.05
8/15/2021 3:00:00 AM 20.06 68.108 0.079 7.12 1.38 8.07
8/15/2021 3:15:00 AM 19.98 67.964 0.079 7.12 1.59 8.09
8/15/2021 3:30:00 AM 19.9 67.82 0.079 7.12 1.46 8.11
8/15/2021 3:45:00 AM 19.83 67.694 0.079 7.13 1.46 8.13
8/15/2021 4:00:00 AM 19.75 67.55 0.079 7.13 7.44 8.14
8/15/2021 4:15:00 AM 19.67 67.406 0.079 7.12 1.47 8.16
8/15/2021 4:30:00 AM 19.6 67.28 0.079 7.14 1.42 8.18
8/15/2021 4:45:00 AM 19.52 67.136 0.079 7.11 3.48 8.2
8/15/2021 5:00:00 AM 19.44 66.992 0.079 7.14 1.45 8.2
8/15/2021 5:15:00 AM 19.36 66.848 0.079 7.15 1.38 8.22
8/15/2021 5:30:00 AM 19.29 66.722 0.079 7.16 1.48 8.24
8/15/2021 5:45:00 AM 19.2 66.56 0.079 7.15 1.48 8.25
8/15/2021 6:00:00 AM 19.13 66.434 0.08 7.16 1.46 8.25
8/15/2021 6:15:00 AM 19.05 66.29 0.08 7.16 1.62 8.29
8/15/2021 6:30:00 AM 18.97 66.146 0.079 7.16 1.31 8.33
8/15/2021 6:45:00 AM 18.9 66.02 0.08 7.17 1.38 8.37
8/15/2021 7:00:00 AM 18.84 65.912 0.08 7.19 1.24 8.43
8/15/2021 7:15:00 AM 18.79 65.82201 0.08 7.19 1.31 8.5
8/15/2021 7:30:00 AM 18.75 65.75 0.08 7.2 1.4 8.59
8/15/2021 7:45:00 AM 18.71 65.67799 0.08 7.22 1.33 8.67
8/15/2021 8:00:00 AM 18.68 65.624 0.079 7.23 1.24 8.78
8/15/2021 8:15:00 AM 18.65 65.57 0.079 7.24 1.22 8.88
8/15/2021 8:30:00 AM 18.67 65.606 0.079 7.27 1.12 9.06
8/15/2021 8:45:00 AM 18.69 65.642 0.079 7.31 1.16 9.18
8/15/2021 9:00:00 AM 18.68 65.624 0.079 7.33 1.04 9.25
8/15/2021 9:15:00 AM 18.71 65.67799 0.079 7.32 1.05 9.36
8/15/2021 9:30:00 AM 18.77 65.786 0.079 7.4 0.98 9.47
8/15/2021 9:45:00 AM 18.84 65.912 0.078 7.43 0.98 9.55
8/15/2021 10:00:00 AM 18.98 66.164 0.079 7.47 0.87 9.65
8/15/2021 10:15:00 AM 19.17 66.506 0.078 7.51 1.24 9.72
8/15/2021 10:30:00 AM 19.38 66.884 0.078 7.55 0.86 9.78
8/15/2021 10:45:00 AM 19.64 67.352 0.078 7.54 1.09 9.85
8/15/2021 11:00:00 AM 19.79 67.622 0.078 7.62 0.84 9.89
8/15/2021 11:15:00 AM 19.87 67.766 0.078 7.66 1.09 9.9
8/15/2021 11:30:00 AM 20.01 68.018 0.078 7.7 0.92 9.93
8/15/2021 11:45:00 AM 20.18 68.324 0.078 7.73 0.86 9.95
8/15/2021 12:00:00 PM 20.54 68.972 0.078 7.79 0.96 9.98
8/15/2021 12:15:00 PM 20.84 69.512 0.078 7.81 0.83 9.91
8/15/2021 12:30:00 PM 21.16 70.088 0.078 7.85 1.04 9.91
8/15/2021 12:45:00 PM 21.55 70.79 0.078 7.88 0.9 9.89
8/15/2021 1:00:00 PM 21.81 71.258 0.078 7.91 0.83 9.87
8/15/2021 1:15:00 PM 22.01 71.618 0.077 7.97 0.82 9.85
8/15/2021 1:30:00 PM 22.31 72.158 0.077 7.95 0.83 9.81
8/15/2021 1:45:00 PM 22.56 72.608 0.077 8.02 0.82 9.8
8/15/2021 2:00:00 PM 22.53 72.554 0.077 8.05 0.83 9.76
8/15/2021 2:15:00 PM 22.56 72.608 0.077 8.08 0.79 9.76
8/15/2021 2:30:00 PM 22.83 73.094 0.077 8.02 0.74 9.72
8/15/2021 2:45:00 PM 23.02 73.436 0.077 8.11 0.8 9.68
8/15/2021 3:00:00 PM 22.99 73.382 0.077 8.14 0.83 9.66
8/15/2021 3:15:00 PM 23.05 73.49 0.077 8.16 0.75 9.65
8/15/2021 3:30:00 PM 23.12 73.616 0.077 8.17 0.76 9.61
8/15/2021 3:45:00 PM 23.02 73.436 0.077 8.14 0.8 9.55
8/15/2021 4:00:00 PM 22.91 73.238 0.077 8.12 0.78 9.55
8/15/2021 4:15:00 PM 22.9 73.22 0.078 8.11 0.67 9.49
8/15/2021 4:30:00 PM 22.98 73.364 0.077 8.13 0.71 9.49
8/15/2021 4:45:00 PM 23.14 73.652 0.077 8.14 0.69 9.46
8/15/2021 5:00:00 PM 23.13 73.634 0.077 8.1 0.81 9.37
8/15/2021 5:15:00 PM 23.09 73.562 0.077 8.05 0.88 9.31
8/15/2021 5:30:00 PM 23 73.4 0.077 7.99 0.77 9.22
8/15/2021 5:45:00 PM 22.92 73.256 0.077 7.94 0.77 9.13
8/15/2021 6:00:00 PM 22.81 73.058 0.077 7.84 0.68 9.02
8/15/2021 6:15:00 PM 22.74 72.932 0.077 7.78 0.74 8.96
8/15/2021 6:30:00 PM 22.66 72.788 0.077 7.73 0.73 8.85
8/15/2021 6:45:00 PM 22.57 72.626 0.078 7.66 0.77 8.75
8/15/2021 7:00:00 PM 22.48 72.464 0.078 7.61 0.66 8.67
8/15/2021 7:15:00 PM 22.38 72.284 0.078 7.55 2.05 8.54
8/15/2021 7:30:00 PM 22.28 72.104 0.078 7.48 0.84 8.43
8/15/2021 7:45:00 PM 22.17 71.906 0.078 7.45 0.8 8.33
8/15/2021 8:00:00 PM 22.05 71.69 0.079 7.41 0.8 8.24
8/15/2021 8:15:00 PM 21.92 71.456 0.079 7.38 0.89 8.15
8/15/2021 8:30:00 PM 21.79 71.222 0.079 7.35 0.91 8.07
8/15/2021 8:45:00 PM 21.66 70.988 0.079 7.31 0.97 8
8/15/2021 9:00:00 PM 21.53 70.754 0.08 7.28 1.05 7.94
8/15/2021 9:15:00 PM 21.4 70.52 0.08 7.27 1.09 7.91
8/15/2021 9:30:00 PM 21.28 70.304 0.08 7.24 1.23 7.88
8/15/2021 9:45:00 PM 21.16 70.088 0.08 7.23 1.18 7.88
8/15/2021 10:00:00 PM 21.06 69.908 0.08 7.19 1.08 7.87
8/15/2021 10:15:00 PM 20.95 69.71 0.08 7.21 1.06 7.87
8/15/2021 10:30:00 PM 20.86 69.548 0.08 7.2 1.17 7.87
8/15/2021 10:45:00 PM 20.77 69.386 0.08 7.19 1.03 7.88
8/15/2021 11:00:00 PM 20.69 69.242 0.08 7.19 1.04 7.89
8/15/2021 11:15:00 PM 20.61 69.098 0.081 7.19 1.07 7.9
8/15/2021 11:30:00 PM 20.53 68.954 0.08 7.14 1.39 7.91
8/15/2021 11:45:00 PM 20.45 68.81 0.081 7.18 1.16 7.93
8/16/2021 12:00:00 AM 20.38 68.684 0.081 7.18 1.17 7.94
8/16/2021 12:15:00 AM 20.31 68.558 0.081 7.16 1.13 7.95
8/16/2021 12:30:00 AM 20.24 68.432 0.081 7.18 1.11 7.96
8/16/2021 12:45:00 AM 20.17 68.306 0.081 7.17 1.1 7.97
8/16/2021 1:00:00 AM 20.09 68.162 0.081 7.16 1.17 7.98
8/16/2021 1:15:00 AM 20.02 68.036 0.081 7.17 1.36 7.99
8/16/2021 1:30:00 AM 19.93 67.874 0.081 7.16 1.31 8.01
8/16/2021 1:45:00 AM 19.85 67.73 0.081 7.16 1.24 8.01
8/16/2021 2:00:00 AM 19.78 67.604 0.081 7.13 1.24 8.03
8/16/2021 2:15:00 AM 19.72 67.496 0.081 7.16 1.2 8.04
8/16/2021 2:30:00 AM 19.65 67.37 0.081 7.14 1.26 8.05
8/16/2021 2:45:00 AM 19.6 67.28 0.081 7.16 1.23 8.07
8/16/2021 3:00:00 AM 19.55 67.19 0.081 7.15 1.16 8.08
8/16/2021 3:15:00 AM 19.5 67.1 0.082 7.16 1.67 8.09
8/16/2021 3:30:00 AM 19.45 67.01 0.082 7.16 1.16 8.1
8/16/2021 3:45:00 AM 19.4 66.92 0.082 7.16 1.05 8.12
8/16/2021 4:00:00 AM 19.36 66.848 0.083 7.16 1.09 8.13
8/16/2021 4:15:00 AM 19.32 66.776 0.084 7.16 1.17 8.13
8/16/2021 4:30:00 AM 19.29 66.722 0.086 7.16 1.15 8.15
8/16/2021 4:45:00 AM 19.26 66.668 0.085 7.16 1.14 8.16
8/16/2021 5:00:00 AM 19.23 66.614 0.084 7.17 1.14 8.17
8/16/2021 5:15:00 AM 19.19 66.542 0.084 7.15 1.31 8.17
8/16/2021 5:30:00 AM 19.16 66.488 0.084 7.16 1.17 8.18
8/16/2021 5:45:00 AM 19.13 66.434 0.085 7.16 3.58 8.18
8/16/2021 6:00:00 AM 19.09 66.362 0.086 7.15 1.13 8.19
8/16/2021 6:15:00 AM 19.06 66.308 0.087 7.17 1.09 8.2
8/16/2021 6:30:00 AM 19.03 66.254 0.085 7.11 0.98 8.21
8/16/2021 6:45:00 AM 19.01 66.218 0.084 7.17 0.95 8.24
8/16/2021 7:00:00 AM 18.98 66.164 0.083 7.18 1.01 8.29
8/16/2021 7:15:00 AM 18.97 66.146 0.083 7.15 1.15 8.35
8/16/2021 7:30:00 AM 18.97 66.146 0.082 7.16 0.97 8.43
8/16/2021 7:45:00 AM 18.96 66.128 0.082 7.21 0.92 8.53
8/16/2021 8:00:00 AM 18.98 66.164 0.082 7.23 0.98 8.66
8/16/2021 8:15:00 AM 19 66.2 0.082 7.25 0.85 8.77
8/16/2021 8:30:00 AM 19.03 66.254 0.082 7.26 0.96 8.88
8/16/2021 8:45:00 AM 19.07 66.326 0.081 7.3 0.86 8.99
8/16/2021 9:00:00 AM 19.12 66.416 0.081 7.32 1.12 9.12
8/16/2021 9:15:00 AM 19.18 66.524 0.081 7.35 0.96 9.24
8/16/2021 9:30:00 AM 19.25 66.65 0.081 7.38 0.77 9.34
8/16/2021 9:45:00 AM 19.36 66.848 0.081 7.43 0.85 9.47
8/16/2021 10:00:00 AM 19.46 67.028 0.081 7.47 0.83 9.55
8/16/2021 10:15:00 AM 19.56 67.208 0.08 7.5 0.75 9.64
8/16/2021 10:30:00 AM 19.66 67.388 0.08 7.54 0.82 9.68
8/16/2021 10:45:00 AM 19.74 67.532 0.08 7.56 0.75 9.72
8/16/2021 11:00:00 AM 19.82 67.676 0.08 7.62 0.72 9.77
8/16/2021 11:15:00 AM 19.99 67.982 0.08 7.67 0.82 9.83
8/16/2021 11:30:00 AM 20.11 68.198 0.08 7.7 0.73 9.88
8/16/2021 11:45:00 AM 20.19 68.342 0.08 7.74 0.67 9.86
8/16/2021 12:00:00 PM 20.27 68.486 0.08 7.77 0.71 9.88
8/16/2021 12:15:00 PM 20.38 68.684 0.08 7.82 0.7 9.91
8/16/2021 12:30:00 PM 20.46 68.828 0.079 7.85 1.02 9.91
8/16/2021 12:45:00 PM 20.61 69.098 0.079 7.9 0.84 9.92
8/16/2021 1:00:00 PM 20.69 69.242 0.079 7.92 0.8 9.92
8/16/2021 1:15:00 PM 20.75 69.35 0.079 7.93 0.69 9.87
8/16/2021 1:30:00 PM 20.76 69.368 0.079 7.9 0.87 9.81
8/16/2021 1:45:00 PM 20.78 69.404 0.079 7.89 0.93 9.76
8/16/2021 2:00:00 PM 20.78 69.404 0.079 7.89 0.78 9.69
8/16/2021 2:15:00 PM 20.78 69.404 0.079 7.84 0.72 9.6
8/16/2021 2:30:00 PM 20.77 69.386 0.079 7.78 0.75 9.53
8/16/2021 2:45:00 PM 20.78 69.404 0.079 7.77 0.65 9.46
8/16/2021 3:00:00 PM 20.77 69.386 0.079 7.73 0.76 9.39
8/16/2021 3:15:00 PM 20.79 69.422 0.079 7.73 0.69 9.41
8/16/2021 3:30:00 PM 20.79 69.422 0.079 7.71 0.5 9.33
8/16/2021 3:45:00 PM 20.79 69.422 0.079 7.68 0.61 9.3
8/16/2021 4:00:00 PM 20.78 69.404 0.079 7.68 0.54 9.28
8/16/2021 4:15:00 PM 20.8 69.44 0.079 7.68 0.62 9.28
8/16/2021 4:30:00 PM 20.8 69.44 0.079 7.66 0.62 9.24
8/16/2021 4:45:00 PM 20.8 69.44 0.079 7.63 0.47 9.17
8/16/2021 5:00:00 PM 20.8 69.44 0.079 7.61 0.53 9.13
8/16/2021 5:15:00 PM 20.81 69.458 0.079 7.59 0.59 9.09
8/16/2021 5:30:00 PM 20.83 69.494 0.079 7.57 0.61 9.06
8/16/2021 5:45:00 PM 20.82 69.476 0.08 7.54 0.68 8.97
8/16/2021 6:00:00 PM 20.8 69.44 0.08 7.51 0.76 8.87
8/16/2021 6:15:00 PM 20.79 69.422 0.08 7.47 0.58 8.76
8/16/2021 6:30:00 PM 20.77 69.386 0.08 7.43 0.5 8.65
8/16/2021 6:45:00 PM 20.75 69.35 0.08 7.41 0.63 8.57
8/16/2021 7:00:00 PM 20.73 69.314 0.08 7.37 0.6 8.52
8/16/2021 7:15:00 PM 20.71 69.278 0.08 7.36 0.63 8.45
8/16/2021 7:30:00 PM 20.69 69.242 0.08 7.33 0.59 8.37
8/16/2021 7:45:00 PM 20.66 69.188 0.081 7.32 0.68 8.3
8/16/2021 8:00:00 PM 20.63 69.134 0.081 7.27 0.59 8.23
8/16/2021 8:15:00 PM 20.6 69.08 0.081 7.27 0.64 8.17
8/16/2021 8:30:00 PM 20.57 69.026 0.081 7.24 0.73 8.12
8/16/2021 8:45:00 PM 20.54 68.972 0.081 7.23 0.75 8.09
8/16/2021 9:00:00 PM 20.51 68.918 0.081 7.21 0.81 8.06
8/16/2021 9:15:00 PM 20.48 68.864 0.081 7.21 0.7 8.04
8/16/2021 9:30:00 PM 20.46 68.828 0.081 7.19 0.82 8.02
8/16/2021 9:45:00 PM 20.43 68.774 0.082 7.2 0.81 8.01
8/16/2021 10:00:00 PM 20.41 68.738 0.082 7.19 0.67 8
8/16/2021 10:15:00 PM 20.39 68.702 0.082 7.18 0.85 8
8/16/2021 10:30:00 PM 20.37 68.666 0.082 7.17 0.91 8
8/16/2021 10:45:00 PM 20.34 68.612 0.082 7.18 0.87 7.99
8/16/2021 11:00:00 PM 20.32 68.576 0.082 7.17 0.81 8
8/16/2021 11:15:00 PM 20.3 68.54 0.082 7.16 0.93 7.99
8/16/2021 11:30:00 PM 20.28 68.504 0.082 7.15 0.8 7.99
8/16/2021 11:45:00 PM 20.26 68.468 0.082 7.16 1.13 8
8/17/2021 12:00:00 AM 20.24 68.432 0.082 7.16 0.97 8
8/17/2021 12:15:00 AM 20.21 68.378 0.081 7.13 1.12 8.02
8/17/2021 12:30:00 AM 20.19 68.342 0.082 7.15 0.9 8.01
8/17/2021 12:45:00 AM 20.17 68.306 0.082 7.11 1.26 8
8/17/2021 1:00:00 AM 20.16 68.288 0.082 7.14 1.1 8
8/17/2021 1:15:00 AM 20.14 68.252 0.082 7.14 1.06 8
8/17/2021 1:30:00 AM 20.12 68.216 0.081 7.14 1.17 8.02
8/17/2021 1:45:00 AM 20.1 68.18 0.086 7.14 4.83 8.05
8/17/2021 2:00:00 AM 20.08 68.144 0.082 7.13 1.49 8.04
8/17/2021 2:15:00 AM 20.06 68.108 0.082 7.13 1.08 8.02
8/17/2021 2:30:00 AM 20.05 68.09 0.082 7.13 1.36 8.01
8/17/2021 2:45:00 AM 20.04 68.07201 0.082 7.13 1.1 8.02
8/17/2021 3:00:00 AM 20.02 68.036 0.082 7.12 1.34 8.02
8/17/2021 3:15:00 AM 20 68 0.082 7.12 1.31 8.03
8/17/2021 3:30:00 AM 19.99 67.982 0.082 7.12 1.18 8.03
8/17/2021 3:45:00 AM 19.98 67.964 0.082 7.12 1.13 8.04
8/17/2021 4:00:00 AM 19.96 67.92799 0.082 7.11 1.06 8.04
8/17/2021 4:15:00 AM 19.95 67.91 0.082 7.12 1.1 8.04
8/17/2021 4:30:00 AM 19.93 67.874 0.082 7.12 1.16 8.05
8/17/2021 4:45:00 AM 19.92 67.856 0.082 7.12 1.18 8.06
8/17/2021 5:00:00 AM 19.91 67.838 0.083 7.12 1.01 8.06
8/17/2021 5:15:00 AM 19.89 67.802 0.082 7.11 1.08 8.07
8/17/2021 5:30:00 AM 19.88 67.784 0.083 7.08 1.1 8.08
8/17/2021 5:45:00 AM 19.87 67.766 0.083 7.12 1.2 8.08
8/17/2021 6:00:00 AM 19.86 67.748 0.083 7.11 1.3 8.08
8/17/2021 6:15:00 AM 19.84 67.712 0.083 7.12 1.14 8.1
8/17/2021 6:30:00 AM 19.84 67.712 0.083 7.07 1.05 8.1
8/17/2021 6:45:00 AM 19.82 67.676 0.083 7.11 0.95 8.11
8/17/2021 7:00:00 AM 19.82 67.676 0.083 7.12 1.03 8.14
8/17/2021 7:15:00 AM 19.82 67.676 0.083 7.06 1.15 8.2
8/17/2021 7:30:00 AM 19.82 67.676 0.082 7.13 0.82 8.25
8/17/2021 7:45:00 AM 19.83 67.694 0.082 7.14 1.16 8.32
8/17/2021 8:00:00 AM 19.84 67.712 0.082 7.15 0.84 8.39
8/17/2021 8:15:00 AM 19.85 67.73 0.082 7.14 0.92 8.47
8/17/2021 8:30:00 AM 19.89 67.802 0.082 7.17 0.82 8.59
8/17/2021 8:45:00 AM 19.93 67.874 0.082 7.21 0.79 8.73
8/17/2021 9:00:00 AM 19.98 67.964 0.082 7.21 0.83 8.83
8/17/2021 9:15:00 AM 20.06 68.108 0.081 7.23 0.83 9.03
8/17/2021 9:30:00 AM 20.14 68.252 0.081 7.3 0.73 9.14
8/17/2021 9:45:00 AM 20.21 68.378 0.081 7.29 0.86 9.24
8/17/2021 10:00:00 AM 20.29 68.522 0.081 7.36 0.71 9.34
8/17/2021 10:15:00 AM 20.36 68.648 0.081 7.4 0.73 9.4
8/17/2021 10:30:00 AM 20.44 68.792 0.081 7.43 0.66 9.45
8/17/2021 10:45:00 AM 20.51 68.918 0.08 7.46 0.79 9.47
8/17/2021 11:00:00 AM 20.59 69.062 0.08 7.48 0.85 9.52
8/17/2021 11:15:00 AM 20.68 69.224 0.08 7.52 0.72 9.58
8/17/2021 11:30:00 AM 20.81 69.458 0.08 7.58 0.64 9.63
8/17/2021 11:45:00 AM 21 69.8 0.08 7.62 0.66 9.71
8/17/2021 12:00:00 PM 21.04 69.872 0.08 7.63 0.7 9.64
8/17/2021 12:15:00 PM 21.23 70.214 0.08 7.71 0.67 9.71
8/17/2021 12:30:00 PM 21.3 70.34 0.08 7.72 0.72 9.65
8/17/2021 12:45:00 PM 21.39 70.502 0.08 7.72 0.92 9.68
8/17/2021 1:00:00 PM 21.59 70.862 0.079 7.8 0.61 9.72
8/17/2021 1:15:00 PM 21.75 71.15 0.079 7.84 0.71 9.73
8/17/2021 1:30:00 PM 22.04 71.672 0.079 7.91 0.74 9.76
8/17/2021 1:45:00 PM 22.17 71.906 0.079 7.97 1.1 9.78
8/17/2021 2:00:00 PM 22.52 72.536 0.079 8.04 1.2 9.8
8/17/2021 2:15:00 PM 22.76 72.968 0.079 8.07 1.48 9.78
8/17/2021 2:30:00 PM 22.85 73.13 0.078 8.14 0.72 9.74
8/17/2021 2:45:00 PM 22.83 73.094 0.078 8.08 1.05 9.62
8/17/2021 3:00:00 PM 22.91 73.238 0.078 8.07 0.93 9.62
8/17/2021 3:15:00 PM 22.8 73.04 0.078 8.04 0.77 9.5
8/17/2021 3:30:00 PM 22.75 72.95 0.077 8 0.64 9.42
8/17/2021 3:45:00 PM 22.69 72.842 0.077 7.89 0.87 9.23
8/17/2021 4:00:00 PM 22.67 72.806 0.08 7.88 1.42 9.18
8/17/2021 4:15:00 PM 22.61 72.698 0.081 7.76 2.21 9
8/17/2021 4:30:00 PM 22.54 72.57201 0.081 7.67 2.66 8.86
8/17/2021 4:45:00 PM 22.47 72.446 0.083 7.57 3.2 8.68
8/17/2021 5:00:00 PM 22.41 72.338 0.08 7.49 2.14 8.52
8/17/2021 5:15:00 PM 22.35 72.23 0.079 7.41 1.72 8.44
8/17/2021 5:30:00 PM 22.32 72.176 0.085 7.4 4.58 8.41
8/17/2021 5:45:00 PM 22.3 72.14 0.08 7.39 2.63 8.45
8/17/2021 6:00:00 PM 22.3 72.14 0.079 7.39 2.42 8.5
8/17/2021 6:15:00 PM 22.3 72.14 0.078 7.36 4.43 8.49
8/17/2021 6:30:00 PM 22.28 72.104 0.078 7.37 4.5 8.48
8/17/2021 6:45:00 PM 22.26 72.068 0.078 7.38 3.76 8.45
8/17/2021 7:00:00 PM 22.24 72.032 0.078 7.35 2.66 8.4
8/17/2021 7:15:00 PM 22.21 71.978 0.078 7.31 2.07 8.33
8/17/2021 7:30:00 PM 22.18 71.924 0.078 7.28 1.69 8.23
8/17/2021 7:45:00 PM 22.13 71.834 0.078 7.27 1.57 8.18
8/17/2021 8:00:00 PM 22.08 71.744 0.078 7.24 1.23 8.11
8/17/2021 8:15:00 PM 22.03 71.654 0.079 7.22 1.41 8.04
8/17/2021 8:30:00 PM 21.97 71.546 0.079 7.2 1.71 7.97
8/17/2021 8:45:00 PM 21.92 71.456 0.079 7.16 1.49 7.91
8/17/2021 9:00:00 PM 21.86 71.348 0.078 7.16 1.49 7.89
8/17/2021 9:15:00 PM 21.82 71.276 0.079 7.12 1.65 7.87
8/17/2021 9:30:00 PM 21.78 71.204 0.078 7.11 1.81 7.85
8/17/2021 9:45:00 PM 21.73 71.114 0.078 7.12 1.76 7.85
8/17/2021 10:00:00 PM 21.69 71.042 0.083 7.11 1.82 7.84
8/17/2021 10:15:00 PM 21.65 70.97 0.079 7.08 1.97 7.85
8/17/2021 10:30:00 PM 21.61 70.898 0.097 7.16 57.16 8.03
8/17/2021 10:45:00 PM 21.58 70.844 0.078 7.23 7.74 7.92
8/17/2021 11:00:00 PM 21.53 70.754 0.077 7.16 3.19 7.89
8/17/2021 11:15:00 PM 21.51 70.718 0.078 7.26 30.06 8.02
8/17/2021 11:30:00 PM 21.44 70.592 0.076 7.14 3.99 7.96
8/17/2021 11:45:00 PM 21.38 70.484 0.076 7.13 3.28 7.94
8/18/2021 12:00:00 AM 21.33 70.394 0.076 7.05 4.09 7.93
8/18/2021 12:15:00 AM 21.28 70.304 0.076 7.1 4.63 7.94
8/18/2021 12:30:00 AM 21.21 70.17799 0.075 7.08 11.14 7.95
8/18/2021 12:45:00 AM 21.15 70.07 0.073 7.04 13.74 7.97
8/18/2021 1:00:00 AM 21.08 69.944 0.072 7.04 13.03 8.04
8/18/2021 1:15:00 AM 21.04 69.872 0.072 7.07 13.15 8.08
8/18/2021 1:30:00 AM 20.98 69.764 0.072 7.06 12.86 8.11
8/18/2021 1:45:00 AM 20.93 69.674 0.073 7.07 12.3 8.14
8/18/2021 2:00:00 AM 20.88 69.584 0.072 7.07 12.34 8.16
8/18/2021 2:15:00 AM 20.83 69.494 0.072 7.07 12.33 8.18
8/18/2021 2:30:00 AM 20.78 69.404 0.072 7.07 12.76 8.19
8/18/2021 2:45:00 AM 20.72 69.296 0.072 7.07 12.8 8.21
8/18/2021 3:00:00 AM 20.65 69.17 0.073 7.07 12.64 8.23
8/18/2021 3:15:00 AM 20.59 69.062 0.073 7.07 12.48 8.25
8/18/2021 3:30:00 AM 20.54 68.972 0.073 7.07 12.42 8.25
8/18/2021 3:45:00 AM 20.49 68.882 0.073 7.07 12.28 8.26
8/18/2021 4:00:00 AM 20.44 68.792 0.073 7.06 10.88 8.28
8/18/2021 4:15:00 AM 20.39 68.702 0.073 7.07 9.71 8.29
8/18/2021 4:30:00 AM 20.35 68.63 0.073 7.07 8.68 8.3
8/18/2021 4:45:00 AM 20.31 68.558 0.074 7.06 8.82 8.33
8/18/2021 5:00:00 AM 20.25 68.45 0.072 7.07 7.84 8.34
8/18/2021 5:15:00 AM 20.2 68.36 0.072 7.06 7.79 8.35
8/18/2021 5:30:00 AM 20.15 68.27 0.072 7.04 7.54 8.35
8/18/2021 5:45:00 AM 20.11 68.198 0.071 7.05 7.55 8.35
8/18/2021 6:00:00 AM 20.06 68.108 0.071 7.04 7.22 8.36
8/18/2021 6:15:00 AM 20.01 68.018 0.071 7.02 14.49 8.36
8/18/2021 6:30:00 AM 19.95 67.91 0.07 7.01 9.62 8.38
8/18/2021 6:45:00 AM 19.89 67.802 0.07 6.99 10.21 8.4
8/18/2021 7:00:00 AM 19.82 67.676 0.069 6.99 11.62 8.44
8/18/2021 7:15:00 AM 19.75 67.55 0.069 7 13.11 8.46
8/18/2021 7:30:00 AM 19.68 67.424 0.07 6.99 16.73 8.49
8/18/2021 7:45:00 AM 19.62 67.316 0.07 7 17.66 8.52
8/18/2021 8:00:00 AM 19.56 67.208 0.07 7 20.72 8.55
8/18/2021 8:15:00 AM 19.5 67.1 0.07 7 22.74 8.58
8/18/2021 8:30:00 AM 19.45 67.01 0.07 7 23.65 8.6
8/18/2021 8:45:00 AM 19.4 66.92 0.07 6.99 26.75 8.63
8/18/2021 9:00:00 AM 19.36 66.848 0.07 7.01 20.23 8.67
8/18/2021 9:15:00 AM 19.33 66.794 0.069 7.03 16.99 8.7
8/18/2021 9:30:00 AM 19.32 66.776 0.069 7.03 17.59 8.74
8/18/2021 9:45:00 AM 19.31 66.758 0.069 7.03 16.77 8.77
8/18/2021 10:00:00 AM 19.29 66.722 0.069 7.05 103.33 8.78
8/18/2021 10:15:00 AM 19.28 66.704 0.07 7.06 17.31 8.78
8/18/2021 10:30:00 AM 19.27 66.686 0.069 7.07 25.6 8.78
8/18/2021 10:45:00 AM 19.27 66.686 0.069 7.07 17.72 8.79
8/18/2021 11:00:00 AM 19.27 66.686 0.069 7.09 20.99 8.79
8/18/2021 11:15:00 AM 19.25 66.65 0.069 7.09 23.65 8.78
8/18/2021 11:30:00 AM 19.23 66.614 0.069 7.08 25 8.77
8/18/2021 11:45:00 AM 19.22 66.596 0.069 7.08 32.26 8.78
8/18/2021 12:00:00 PM 19.2 66.56 0.069 7.07 24.67 8.79
8/18/2021 12:15:00 PM 19.17 66.506 0.069 7.08 27.16 8.77
8/18/2021 12:30:00 PM 19.14 66.452 0.069 7.1 24.77 8.77
8/18/2021 12:45:00 PM 19.13 66.434 0.069 7.08 25.41 8.76
8/18/2021 1:00:00 PM 19.11 66.398 0.069 7.08 21.45 8.75
8/18/2021 1:15:00 PM 19.09 66.362 0.069 7.03 125.02 8.75
8/18/2021 1:30:00 PM 19.08 66.344 0.069 7.07 35.61 8.75
8/18/2021 1:45:00 PM 19.06 66.308 0.07 7.09 31.64 8.76
8/18/2021 2:00:00 PM 19.05 66.29 0.07 7.07 30.33 8.76
8/18/2021 2:15:00 PM 19.04 66.272 0.07 7.05 88.53 8.76
8/18/2021 2:30:00 PM 19.02 66.236 0.07 7.05 69.09 8.76
8/18/2021 2:45:00 PM 18.99 66.182 0.069 7.04 61.3 8.75
8/18/2021 3:00:00 PM 18.98 66.164 0.068 7.03 55.19 8.76
8/18/2021 3:15:00 PM 18.95 66.11 0.067 7.03 70.78 8.75
8/18/2021 3:30:00 PM 18.94 66.092 0.065 6.98 66.8 8.75
8/18/2021 3:45:00 PM 18.92 66.056 0.063 6.91 75.45 8.74
8/18/2021 4:00:00 PM 18.88 65.984 0.06 6.87 161.98 8.72
8/18/2021 4:15:00 PM 18.9 66.02 0.057 6.84 308.55 8.7
8/18/2021 4:30:00 PM 18.92 66.056 0.055 6.85 264.72 8.67
8/18/2021 4:45:00 PM 18.88 65.984 0.053 6.79 197.89 8.66
8/18/2021 5:00:00 PM 18.81 65.858 0.053 6.78 205.87 8.67
8/18/2021 5:15:00 PM 18.73 65.714 0.053 6.78 195.46 8.68
8/18/2021 5:30:00 PM 18.65 65.57 0.052 6.77 194.78 8.69
8/18/2021 5:45:00 PM 18.57 65.426 0.052 6.74 137.1 8.71
8/18/2021 6:00:00 PM 18.5 65.3 0.051 6.76 141.18 8.73
8/18/2021 6:15:00 PM 18.44 65.192 0.052 6.72 139.93 8.74
8/18/2021 6:30:00 PM 18.39 65.102 0.052 6.76 111.33 8.76
8/18/2021 6:45:00 PM 18.34 65.012 0.052 6.74 141.78 8.77
8/18/2021 7:00:00 PM 18.26 64.868 0.052 6.69 102.21 8.79
8/18/2021 7:15:00 PM 18.18 64.724 0.052 6.7 82.33 8.81
8/18/2021 7:30:00 PM 18.1 64.58 0.052 6.67 72.5 8.83
8/18/2021 7:45:00 PM 18.01 64.418 0.052 6.68 64.5 8.85
8/18/2021 8:00:00 PM 17.92 64.256 0.051 6.68 65.07 8.88
8/18/2021 8:15:00 PM 17.82 64.076 0.051 6.69 60.11 8.9
8/18/2021 8:30:00 PM 17.73 63.914 0.051 6.63 62.72 8.91
8/18/2021 8:45:00 PM 17.64 63.752 0.051 6.69 54.75 8.93
8/18/2021 9:00:00 PM 17.55 63.59 0.051 6.7 42.21 8.96
8/18/2021 9:15:00 PM 17.46 63.428 0.051 6.65 52.35 8.97
8/18/2021 9:30:00 PM 17.38 63.284 0.051 6.61 42.07 9
8/18/2021 9:45:00 PM 17.3 63.14 0.051 6.62 39.03 9.01
8/18/2021 10:00:00 PM 17.23 63.014 0.051 6.64 40.46 9.03
8/18/2021 10:15:00 PM 17.15 62.87 0.052 6.64 33.06 9.05
8/18/2021 10:30:00 PM 17.09 62.762 0.051 6.62 30.54 9.06
8/18/2021 10:45:00 PM 17.02 62.636 0.052 6.64 29.02 9.08
8/18/2021 11:00:00 PM 16.95 62.51 0.052 6.62 28.4 9.09
8/18/2021 11:15:00 PM 16.89 62.402 0.052 6.66 28.01 9.11
8/18/2021 11:30:00 PM 16.83 62.294 0.052 6.65 25.99 9.13
8/18/2021 11:45:00 PM 16.76 62.168 0.053 6.67 24.82 9.15
8/19/2021 12:00:00 AM 16.7 62.06 0.053 6.67 24.2 9.16
8/19/2021 12:15:00 AM 16.66 61.988 0.053 6.67 24.24 9.17
8/19/2021 12:30:00 AM 16.6 61.88 0.053 6.68 22.46 9.19
8/19/2021 12:45:00 AM 16.55 61.79 0.053 6.69 24.16 9.2
8/19/2021 1:00:00 AM 16.5 61.7 0.053 6.64 21.38 9.22
8/19/2021 1:15:00 AM 16.45 61.61 0.053 6.68 20.1 9.23
8/19/2021 1:30:00 AM 16.41 61.538 0.053 6.72 20.13 9.24
8/19/2021 1:45:00 AM 16.37 61.466 0.053 6.73 19.33 9.24
8/19/2021 2:00:00 AM 16.33 61.394 0.054 6.76 18.51 9.26
8/19/2021 2:15:00 AM 16.29 61.322 0.054 6.73 18.25 9.27
8/19/2021 2:30:00 AM 16.25 61.25 0.054 6.74 17.55 9.28
8/19/2021 2:45:00 AM 16.21 61.178 0.054 6.76 17.5 9.29
8/19/2021 3:00:00 AM 16.18 61.124 0.054 6.76 16.74 9.3
8/19/2021 3:15:00 AM 16.14 61.052 0.054 6.77 16.43 9.31
8/19/2021 3:30:00 AM 16.12 61.016 0.054 6.77 15.95 9.32
8/19/2021 3:45:00 AM 16.1 60.98 0.054 6.78 15.23 9.33
8/19/2021 4:00:00 AM 16.07 60.926 0.054 6.78 15.22 9.34
8/19/2021 4:15:00 AM 16.04 60.872 0.054 6.78 14.66 9.35
8/19/2021 4:30:00 AM 16 60.8 0.054 6.76 14.41 9.35
8/19/2021 4:45:00 AM 15.97 60.746 0.054 6.76 14.44 9.36
8/19/2021 5:00:00 AM 15.94 60.692 0.054 6.77 13.82 9.37
8/19/2021 5:15:00 AM 15.91 60.638 0.054 6.78 14.08 9.38
8/19/2021 5:30:00 AM 15.88 60.584 0.054 6.72 13.75 9.38
8/19/2021 5:45:00 AM 15.86 60.548 0.054 6.79 13.29 9.39
8/19/2021 6:00:00 AM 15.83 60.494 0.054 6.8 13.31 9.4
8/19/2021 6:15:00 AM 15.8 60.44 0.054 6.78 15.68 9.4
8/19/2021 6:30:00 AM 15.79 60.422 0.054 6.81 23.06 9.41
8/19/2021 6:45:00 AM 15.77 60.386 0.054 6.79 62.71 9.41
8/19/2021 7:00:00 AM 15.75 60.35 0.054 6.81 15.74 9.42
8/19/2021 7:15:00 AM 15.73 60.314 0.054 6.82 13.46 9.43
8/19/2021 7:30:00 AM 15.71 60.278 0.054 6.82 22.61 9.45
8/19/2021 7:45:00 AM 15.71 60.278 0.054 6.8 15.53 9.47
8/19/2021 8:00:00 AM 15.7 60.26 0.054 6.73 15.22 9.48
8/19/2021 8:15:00 AM 15.69 60.242 0.054 6.81 14.23 9.49
8/19/2021 8:30:00 AM 15.67 60.206 0.054 6.79 13.47 9.5
8/19/2021 8:45:00 AM 15.69 60.242 0.054 6.81 13.57 9.52
8/19/2021 9:00:00 AM 15.7 60.26 0.054 6.83 13.13 9.54
8/19/2021 9:15:00 AM 15.72 60.296 0.054 6.81 12.63 9.55
8/19/2021 9:30:00 AM 15.73 60.314 0.054 6.84 12.27 9.56
8/19/2021 9:45:00 AM 15.78 60.404 0.054 6.86 9.61 9.59
8/19/2021 10:00:00 AM 15.8 60.44 0.054 6.86 9.56 9.59
8/19/2021 10:15:00 AM 15.81 60.458 0.054 6.87 9.13 9.6
8/19/2021 10:30:00 AM 15.86 60.548 0.054 6.85 8.94 9.61
8/19/2021 10:45:00 AM 15.95 60.71 0.054 6.89 23.74 9.63
8/19/2021 11:00:00 AM 15.99 60.782 0.054 6.87 8.85 9.62
8/19/2021 11:15:00 AM 16.08 60.944 0.054 6.88 8.35 9.63
8/19/2021 11:30:00 AM 16.2 61.16 0.054 6.93 8.45 9.64
8/19/2021 11:45:00 AM 16.31 61.358 0.054 6.95 8.25 9.63
8/19/2021 12:00:00 PM 16.45 61.61 0.054 6.92 8.37 9.62
8/19/2021 12:15:00 PM 16.57 61.826 0.055 6.92 8.25 9.59
8/19/2021 12:30:00 PM 16.71 62.078 0.054 6.91 8.06 9.57
8/19/2021 12:45:00 PM 16.8 62.24 0.054 6.92 8.14 9.57
8/19/2021 1:00:00 PM 16.89 62.402 0.054 6.88 8.54 9.54
8/19/2021 1:15:00 PM 16.93 62.474 0.054 6.93 7.73 9.51
8/19/2021 1:30:00 PM 17.11 62.798 0.054 6.9 7.59 9.52
8/19/2021 1:45:00 PM 17.23 63.014 0.055 6.98 12.97 9.5
8/19/2021 2:00:00 PM 17.37 63.266 0.054 7 10.41 9.49
8/19/2021 2:15:00 PM 17.56 63.608 0.054 7.01 7.67 9.48
8/19/2021 2:30:00 PM 17.67 63.806 0.055 7.01 7.9 9.47
8/19/2021 2:45:00 PM 17.72 63.896 0.054 7 7.94 9.44
8/19/2021 3:00:00 PM 17.74 63.932 0.055 6.98 7.72 9.42
8/19/2021 3:15:00 PM 17.82 64.076 0.055 6.99 7.76 9.41
8/19/2021 3:30:00 PM 17.91 64.238 0.055 6.98 7.82 9.39
8/19/2021 3:45:00 PM 17.98 64.364 0.055 6.92 7.4 9.36
8/19/2021 4:00:00 PM 18.01 64.418 0.055 6.99 7.44 9.33
8/19/2021 4:15:00 PM 18.07 64.526 0.055 7 7.29 9.3
8/19/2021 4:30:00 PM 18.1 64.58 0.055 7.01 7.35 9.3
8/19/2021 4:45:00 PM 18.1 64.58 0.055 6.98 7.48 9.29
8/19/2021 5:00:00 PM 18.09 64.562 0.055 6.98 7.17 9.28
8/19/2021 5:15:00 PM 18.07 64.526 0.055 6.94 7.47 9.27
8/19/2021 5:30:00 PM 18.04 64.472 0.055 6.95 7.22 9.25
8/19/2021 5:45:00 PM 17.97 64.346 0.055 6.92 7.07 9.22
8/19/2021 6:00:00 PM 17.92 64.256 0.055 6.93 7.3 9.22
8/19/2021 6:15:00 PM 17.89 64.202 0.055 6.92 7.34 9.22
8/19/2021 6:30:00 PM 17.82 64.076 0.055 6.85 7.27 9.22
8/19/2021 6:45:00 PM 17.75 63.95 0.055 6.88 6.94 9.2
8/19/2021 7:00:00 PM 17.66 63.788 0.055 6.91 7.03 9.18
8/19/2021 7:15:00 PM 17.58 63.644 0.056 6.89 6.93 9.17
8/19/2021 7:30:00 PM 17.49 63.482 0.056 6.88 6.82 9.15
8/19/2021 7:45:00 PM 17.4 63.32 0.056 6.81 6.69 9.14
8/19/2021 8:00:00 PM 17.32 63.176 0.056 6.86 6.8 9.14
8/19/2021 8:15:00 PM 17.24 63.032 0.056 6.85 6.62 9.14
8/19/2021 8:30:00 PM 17.17 62.906 0.056 6.85 6.7 9.14
8/19/2021 8:45:00 PM 17.1 62.78 0.056 6.85 7.16 9.14
8/19/2021 9:00:00 PM 17.02 62.636 0.056 6.83 7.69 9.14
8/19/2021 9:15:00 PM 16.95 62.51 0.056 6.83 8.22 9.16
8/19/2021 9:30:00 PM 16.89 62.402 0.056 6.82 7.96 9.17
8/19/2021 9:45:00 PM 16.82 62.276 0.056 6.79 7.71 9.18
8/19/2021 10:00:00 PM 16.76 62.168 0.056 6.82 7.72 9.2
8/19/2021 10:15:00 PM 16.7 62.06 0.056 6.82 7.64 9.21
8/19/2021 10:30:00 PM 16.64 61.952 0.056 6.73 7.67 9.22
8/19/2021 10:45:00 PM 16.58 61.844 0.057 6.83 7.33 9.23
8/19/2021 11:00:00 PM 16.52 61.736 0.057 6.83 7.84 9.25
8/19/2021 11:15:00 PM 16.46 61.628 0.057 6.8 7.54 9.26
8/19/2021 11:30:00 PM 16.4 61.52 0.057 6.84 6.95 9.27
8/19/2021 11:45:00 PM 16.35 61.43 0.057 6.85 7.08 9.28
8/20/2021 12:00:00 AM 16.33 61.394 0.057 6.76 6.7 9.29
8/20/2021 12:15:00 AM 16.24 61.232 0.057 6.84 6.61 9.31
8/20/2021 12:30:00 AM 16.21 61.178 0.057 6.84 6.41 9.31
8/20/2021 12:45:00 AM 16.17 61.106 0.057 6.82 6.47 9.32
8/20/2021 1:00:00 AM 16.12 61.016 0.057 6.85 6.3 9.33
8/20/2021 1:15:00 AM 16.08 60.944 0.057 6.85 6.26 9.34
8/20/2021 1:30:00 AM 16.04 60.872 0.057 6.79 6.21 9.35
8/20/2021 1:45:00 AM 16.01 60.818 0.057 6.86 6.36 9.35
8/20/2021 2:00:00 AM 15.98 60.764 0.057 6.86 5.9 9.36
8/20/2021 2:15:00 AM 15.94 60.692 0.057 6.8 5.89 9.37
8/20/2021 2:30:00 AM 15.91 60.638 0.057 6.85 5.97 9.38
8/20/2021 2:45:00 AM 15.87 60.566 0.057 6.87 5.79 9.38
8/20/2021 3:00:00 AM 15.84 60.512 0.057 6.87 6.05 9.39
8/20/2021 3:15:00 AM 15.81 60.458 0.058 6.86 5.93 9.39
8/20/2021 3:30:00 AM 15.79 60.422 0.057 6.87 5.73 9.4
8/20/2021 3:45:00 AM 15.76 60.368 0.058 6.85 5.93 9.41
8/20/2021 4:00:00 AM 15.74 60.332 0.058 6.81 5.51 9.41
8/20/2021 4:15:00 AM 15.73 60.314 0.058 6.87 5.45 9.41
8/20/2021 4:30:00 AM 15.71 60.278 0.058 6.82 5.7 9.42
8/20/2021 4:45:00 AM 15.7 60.26 0.058 6.88 5.57 9.42
8/20/2021 5:00:00 AM 15.68 60.224 0.058 6.85 5.69 9.43
8/20/2021 5:15:00 AM 15.64 60.152 0.058 6.88 5.21 9.44
8/20/2021 5:30:00 AM 15.64 60.152 0.058 6.89 5.35 9.44
8/20/2021 5:45:00 AM 15.62 60.116 0.058 6.83 5.44 9.44
8/20/2021 6:00:00 AM 15.61 60.098 0.058 6.9 5.37 9.44
8/20/2021 6:15:00 AM 15.6 60.08 0.058 6.9 5.22 9.44
8/20/2021 6:30:00 AM 15.59 60.062 0.058 6.9 5.28 9.45
8/20/2021 6:45:00 AM 15.57 60.026 0.058 6.91 5.27 9.45
8/20/2021 7:00:00 AM 15.54 59.972 0.058 6.91 5.29 9.46
8/20/2021 7:15:00 AM 15.56 60.008 0.058 6.92 5.37 9.46
8/20/2021 7:30:00 AM 15.52 59.936 0.058 6.92 5.13 9.48
8/20/2021 7:45:00 AM 15.54 59.972 0.058 6.92 5.1 9.5
8/20/2021 8:00:00 AM 15.53 59.954 0.058 6.9 4.77 9.53
8/20/2021 8:15:00 AM 15.53 59.954 0.058 6.91 4.61 9.56
8/20/2021 8:30:00 AM 15.54 59.972 0.058 6.9 4.67 9.59
8/20/2021 8:45:00 AM 15.55 59.99 0.058 6.96 4.51 9.61
8/20/2021 9:00:00 AM 15.58 60.044 0.058 6.97 4.39 9.63
8/20/2021 9:15:00 AM 15.61 60.098 0.058 6.97 4.22 9.68
8/20/2021 9:30:00 AM 15.67 60.206 0.058 6.98 4.04 9.71
8/20/2021 9:45:00 AM 15.7 60.26 0.058 7 3.93 9.74
8/20/2021 10:00:00 AM 15.75 60.35 0.058 7.01 4.2 9.76
8/20/2021 10:15:00 AM 15.83 60.494 0.058 7.02 3.83 9.76
8/20/2021 10:30:00 AM 15.92 60.656 0.058 7.03 3.92 9.76
8/20/2021 10:45:00 AM 16.07 60.926 0.058 7.04 3.7 9.76
8/20/2021 11:00:00 AM 16.17 61.106 0.058 6.99 3.71 9.76
8/20/2021 11:15:00 AM 16.28 61.304 0.058 7.06 3.75 9.77
8/20/2021 11:30:00 AM 16.42 61.556 0.058 7.01 3.67 9.76
8/20/2021 11:45:00 AM 16.63 61.934 0.058 7.04 3.5 9.76
8/20/2021 12:00:00 PM 16.8 62.24 0.058 7.08 3.97 9.73
8/20/2021 12:15:00 PM 16.97 62.546 0.058 7.1 3.58 9.7
8/20/2021 12:30:00 PM 17.06 62.708 0.058 7.11 3.65 9.67
8/20/2021 12:45:00 PM 17.15 62.87 0.058 7.09 3.47 9.66
8/20/2021 1:00:00 PM 17.21 62.978 0.058 7.06 3.45 9.62
8/20/2021 1:15:00 PM 17.2 62.96 0.058 7.09 3.32 9.6
8/20/2021 1:30:00 PM 17.21 62.978 0.058 7.07 3.57 9.6
8/20/2021 1:45:00 PM 17.44 63.392 0.058 7.06 3.26 9.62
8/20/2021 2:00:00 PM 17.66 63.788 0.058 7.11 3.29 9.6
8/20/2021 2:15:00 PM 17.88 64.184 0.058 7.13 3.29 9.56
8/20/2021 2:30:00 PM 18.12 64.616 0.058 7.14 4.8 9.53
8/20/2021 2:45:00 PM 18.35 65.03 0.058 7.13 3.59 9.48
8/20/2021 3:00:00 PM 18.53 65.354 0.058 7.1 3.66 9.44
8/20/2021 3:15:00 PM 18.74 65.732 0.058 7.15 3.19 9.4
8/20/2021 3:30:00 PM 18.85 65.93 0.058 7.16 3.12 9.38
8/20/2021 3:45:00 PM 18.9 66.02 0.058 7.14 3.15 9.35
8/20/2021 4:00:00 PM 18.89 66.002 0.058 7.15 3.06 9.32
8/20/2021 4:15:00 PM 18.94 66.092 0.058 7.09 3.12 9.28
8/20/2021 4:30:00 PM 19.01 66.218 0.058 7.13 3.11 9.26
8/20/2021 4:45:00 PM 19.08 66.344 0.059 7.13 3.23 9.24
8/20/2021 5:00:00 PM 19.16 66.488 0.059 7.13 3.25 9.23
8/20/2021 5:15:00 PM 19.14 66.452 0.059 7.12 3.31 9.2
8/20/2021 5:30:00 PM 19.08 66.344 0.059 7.1 3.2 9.17
8/20/2021 5:45:00 PM 19.06 66.308 0.059 7.08 3.29 9.15
8/20/2021 6:00:00 PM 19.05 66.29 0.059 7.09 3.3 9.13
8/20/2021 6:15:00 PM 19 66.2 0.059 7.03 3.37 9.12
8/20/2021 6:30:00 PM 18.98 66.164 0.059 7.07 3.31 9.09
8/20/2021 6:45:00 PM 18.88 65.984 0.059 7.05 3.39 9.04
8/20/2021 7:00:00 PM 18.82 65.876 0.059 7.02 3.25 9
8/20/2021 7:15:00 PM 18.76 65.768 0.059 6.96 3.27 8.97
8/20/2021 7:30:00 PM 18.7 65.66 0.059 6.98 3.35 8.94
8/20/2021 7:45:00 PM 18.63 65.534 0.059 6.93 3.54 8.91
8/20/2021 8:00:00 PM 18.54 65.372 0.059 6.98 3.38 8.88
8/20/2021 8:15:00 PM 18.44 65.192 0.059 6.96 3.63 8.87
8/20/2021 8:30:00 PM 18.35 65.03 0.059 6.94 3.76 8.86
8/20/2021 8:45:00 PM 18.27 64.886 0.059 6.94 3.98 8.86
8/20/2021 9:00:00 PM 18.2 64.76 0.06 6.9 4.06 8.86
8/20/2021 9:15:00 PM 18.13 64.634 0.06 6.93 3.9 8.87
8/20/2021 9:30:00 PM 18.04 64.472 0.06 6.91 4.18 8.88
8/20/2021 9:45:00 PM 17.95 64.31 0.06 6.91 4.14 8.9
8/20/2021 10:00:00 PM 17.9 64.22 0.06 6.85 4.32 8.91
8/20/2021 10:15:00 PM 17.79 64.022 0.06 6.91 4.12 8.92
8/20/2021 10:30:00 PM 17.73 63.914 0.06 6.91 4.23 8.94
8/20/2021 10:45:00 PM 17.63 63.734 0.06 6.92 4.03 8.96
8/20/2021 11:00:00 PM 17.6 63.68 0.06 6.92 3.93 8.97
8/20/2021 11:15:00 PM 17.5 63.5 0.061 6.92 4.14 8.99
8/20/2021 11:30:00 PM 17.47 63.446 0.061 6.9 3.86 8.99
8/20/2021 11:45:00 PM 17.43 63.374 0.061 6.91 3.83 9
8/21/2021 12:00:00 AM 17.37 63.266 0.061 6.91 3.85 9.02
8/21/2021 12:15:00 AM 17.32 63.176 0.061 6.9 3.74 9.03
8/21/2021 12:30:00 AM 17.27 63.086 0.061 6.91 3.76 9.03
8/21/2021 12:45:00 AM 17.21 62.978 0.061 6.83 3.63 9.05
8/21/2021 1:00:00 AM 17.18 62.924 0.061 6.89 3.61 9.06
8/21/2021 1:15:00 AM 17.17 62.906 0.061 6.93 3.55 9.06
8/21/2021 1:30:00 AM 17.12 62.816 0.061 6.93 3.48 9.07
8/21/2021 1:45:00 AM 17.07 62.726 0.061 6.9 3.55 9.08
8/21/2021 2:00:00 AM 17.02 62.636 0.061 6.92 3.42 9.09
8/21/2021 2:15:00 AM 16.95 62.51 0.061 6.91 3.36 9.1
8/21/2021 2:30:00 AM 16.92 62.456 0.061 6.92 3.35 9.11
8/21/2021 2:45:00 AM 16.9 62.42 0.062 6.91 3.59 9.11
8/21/2021 3:00:00 AM 16.86 62.348 0.062 6.91 3.48 9.12
8/21/2021 3:15:00 AM 16.82 62.276 0.062 6.9 3.4 9.13
8/21/2021 3:30:00 AM 16.83 62.294 0.062 6.92 3.36 9.12
8/21/2021 3:45:00 AM 16.77 62.186 0.062 6.93 3.24 9.14
8/21/2021 4:00:00 AM 16.78 62.204 0.062 6.93 3.35 9.14
8/21/2021 4:15:00 AM 16.74 62.132 0.062 6.88 3.4 9.15
8/21/2021 4:30:00 AM 16.67 62.006 0.062 6.93 3.33 9.16
8/21/2021 4:45:00 AM 16.69 62.042 0.062 6.94 3.2 9.16
8/21/2021 5:00:00 AM 16.66 61.988 0.062 6.92 3.16 9.17
8/21/2021 5:15:00 AM 16.62 61.916 0.062 6.93 3.39 9.17
8/21/2021 5:30:00 AM 16.6 61.88 0.062 6.93 3.23 9.17
8/21/2021 5:45:00 AM 16.57 61.826 0.062 6.93 3.23 9.18
8/21/2021 6:00:00 AM 16.55 61.79 0.062 6.91 3.18 9.18
8/21/2021 6:15:00 AM 16.52 61.736 0.062 6.91 3.3 9.19
8/21/2021 6:30:00 AM 16.5 61.7 0.062 6.92 3.18 9.2
8/21/2021 6:45:00 AM 16.48 61.664 0.062 6.87 3.33 9.21
8/21/2021 7:00:00 AM 16.45 61.61 0.062 6.92 3.15 9.22
8/21/2021 7:15:00 AM 16.42 61.556 0.062 6.92 3.03 9.25
8/21/2021 7:30:00 AM 16.44 61.592 0.063 6.93 3.12 9.26
8/21/2021 7:45:00 AM 16.42 61.556 0.062 6.93 2.91 9.3
8/21/2021 8:00:00 AM 16.4 61.52 0.062 6.94 2.78 9.34
8/21/2021 8:15:00 AM 16.39 61.502 0.062 6.95 2.75 9.4
8/21/2021 8:30:00 AM 16.43 61.574 0.062 6.96 2.74 9.44
8/21/2021 8:45:00 AM 16.44 61.592 0.062 6.92 2.88 9.49
8/21/2021 9:00:00 AM 16.5 61.7 0.062 7.02 2.68 9.54
8/21/2021 9:15:00 AM 16.55 61.79 0.062 7.01 2.58 9.59
8/21/2021 9:30:00 AM 16.63 61.934 0.062 7.04 2.42 9.63
8/21/2021 9:45:00 AM 16.69 62.042 0.062 7.06 2.56 9.65
8/21/2021 10:00:00 AM 16.82 62.276 0.062 7.07 2.37 9.66
8/21/2021 10:15:00 AM 16.89 62.402 0.062 7.06 2.6 9.66
8/21/2021 10:30:00 AM 17.02 62.636 0.062 7.11 2.37 9.67
8/21/2021 10:45:00 AM 17.14 62.852 0.062 7.1 2.6 9.67
8/21/2021 11:00:00 AM 17.26 63.068 0.062 7.12 2.2 9.68
8/21/2021 11:15:00 AM 17.46 63.428 0.062 7.14 2.29 9.66
8/21/2021 11:30:00 AM 17.66 63.788 0.062 7.15 2.2 9.66
8/21/2021 11:45:00 AM 17.67 63.806 0.062 7.16 2.17 9.6
8/21/2021 12:00:00 PM 17.73 63.914 0.062 7.1 2.16 9.57
8/21/2021 12:15:00 PM 17.93 64.274 0.062 7.16 2.25 9.55
8/21/2021 12:30:00 PM 18.12 64.616 0.062 7.18 2.35 9.54
8/21/2021 12:45:00 PM 18.23 64.814 0.062 7.18 2.05 9.52
8/21/2021 1:00:00 PM 18.43 65.174 0.062 7.18 2.15 9.56
8/21/2021 1:15:00 PM 18.51 65.318 0.062 7.18 2.04 9.56
8/21/2021 1:30:00 PM 18.59 65.462 0.062 7.21 2.08 9.56
8/21/2021 1:45:00 PM 18.61 65.498 0.062 7.22 2.23 9.56
8/21/2021 2:00:00 PM 18.6 65.48 0.062 7.22 2.38 9.52
8/21/2021 2:15:00 PM 18.64 65.552 0.062 7.2 2.01 9.46
8/21/2021 2:30:00 PM 18.61 65.498 0.062 7.19 2.28 9.4
8/21/2021 2:45:00 PM 18.68 65.624 0.062 7.2 2.02 9.37
8/21/2021 3:00:00 PM 18.72 65.696 0.062 7.2 2.09 9.36
8/21/2021 3:15:00 PM 18.83 65.894 0.062 7.21 1.95 9.4
8/21/2021 3:30:00 PM 18.98 66.164 0.062 7.23 2.08 9.42
8/21/2021 3:45:00 PM 19.11 66.398 0.062 7.21 1.89 9.38
8/21/2021 4:00:00 PM 19.21 66.578 0.062 7.24 2.03 9.36
8/21/2021 4:15:00 PM 19.26 66.668 0.062 7.24 2.04 9.34
8/21/2021 4:30:00 PM 19.33 66.794 0.062 7.23 2 9.3
8/21/2021 4:45:00 PM 19.52 67.136 0.062 7.22 2.05 9.27
8/21/2021 5:00:00 PM 19.6 67.28 0.062 7.21 2 9.23
8/21/2021 5:15:00 PM 19.67 67.406 0.062 7.21 1.99 9.18
8/21/2021 5:30:00 PM 19.69 67.442 0.062 7.18 2.02 9.12
8/21/2021 5:45:00 PM 19.7 67.46 0.062 7.17 1.94 9.09
8/21/2021 6:00:00 PM 19.71 67.478 0.062 7.12 1.96 9.09
8/21/2021 6:15:00 PM 19.71 67.478 0.062 7.17 2.15 9.05
8/21/2021 6:30:00 PM 19.72 67.496 0.062 7.15 1.92 8.99
8/21/2021 6:45:00 PM 19.72 67.496 0.062 7.14 1.92 8.94
8/21/2021 7:00:00 PM 19.66 67.388 0.063 7.09 1.89 8.89
8/21/2021 7:15:00 PM 19.58 67.244 0.063 7.09 1.87 8.85
8/21/2021 7:30:00 PM 19.48 67.064 0.063 7.08 2.02 8.83
8/21/2021 7:45:00 PM 19.41 66.938 0.063 7 2 8.81
8/21/2021 8:00:00 PM 19.35 66.83 0.063 7.01 2.08 8.77
8/21/2021 8:15:00 PM 19.29 66.722 0.063 7 2.14 8.73
8/21/2021 8:30:00 PM 19.21 66.578 0.063 6.97 2.06 8.7
8/21/2021 8:45:00 PM 19.13 66.434 0.064 6.99 2.28 8.68
8/21/2021 9:00:00 PM 19.06 66.308 0.064 6.94 2.34 8.68
8/21/2021 9:15:00 PM 18.94 66.092 0.064 6.97 2.72 8.69
8/21/2021 9:30:00 PM 18.87 65.966 0.064 6.95 2.32 8.69
8/21/2021 9:45:00 PM 18.78 65.804 0.064 6.9 2.43 8.7
8/21/2021 10:00:00 PM 18.67 65.606 0.064 6.92 2.35 8.71
8/21/2021 10:15:00 PM 18.61 65.498 0.064 6.92 2.53 8.72
8/21/2021 10:30:00 PM 18.5 65.3 0.064 6.95 2.37 8.74
8/21/2021 10:45:00 PM 18.44 65.192 0.064 6.92 2.41 8.75
8/21/2021 11:00:00 PM 18.34 65.012 0.064 6.94 2.39 8.77
8/21/2021 11:15:00 PM 18.26 64.868 0.064 6.95 2.5 8.78
8/21/2021 11:30:00 PM 18.2 64.76 0.065 6.93 3.08 8.79
8/21/2021 11:45:00 PM 18.09 64.562 0.065 6.93 2.57 8.82
8/22/2021 12:00:00 AM 18.04 64.472 0.065 6.92 2.41 8.83
8/22/2021 12:15:00 AM 17.95 64.31 0.065 6.93 2.49 8.84
8/22/2021 12:30:00 AM 17.91 64.238 0.065 6.93 2.28 8.85
8/22/2021 12:45:00 AM 17.84 64.112 0.065 6.94 2.32 8.87
8/22/2021 1:00:00 AM 17.8 64.04 0.065 6.97 2.27 8.88
8/22/2021 1:15:00 AM 17.78 64.004 0.065 6.96 2.21 8.88
8/22/2021 1:30:00 AM 17.7 63.86 0.065 6.96 2.36 8.9
8/22/2021 1:45:00 AM 17.66 63.788 0.065 6.97 2.22 8.91
8/22/2021 2:00:00 AM 17.64 63.752 0.065 6.93 2.29 8.91
8/22/2021 2:15:00 AM 17.62 63.716 0.065 6.95 2.18 8.92
8/22/2021 2:30:00 AM 17.57 63.626 0.065 6.96 2.85 8.93
8/22/2021 2:45:00 AM 17.54 63.572 0.065 6.99 15.6 8.93
8/22/2021 3:00:00 AM 17.5 63.5 0.065 6.93 30.22 8.94
8/22/2021 3:15:00 AM 17.5 63.5 0.065 6.99 2.64 8.94
8/22/2021 3:30:00 AM 17.43 63.374 0.065 6.98 2.23 8.96
8/22/2021 3:45:00 AM 17.42 63.356 0.065 6.97 2.47 8.96
8/22/2021 4:00:00 AM 17.38 63.284 0.065 6.98 2.37 8.98
8/22/2021 4:15:00 AM 17.37 63.266 0.065 6.96 2.22 8.98
8/22/2021 4:30:00 AM 17.33 63.194 0.065 6.95 2.48 8.99
8/22/2021 4:45:00 AM 17.29 63.122 0.065 6.94 2.36 9
8/22/2021 5:00:00 AM 17.24 63.032 0.065 6.96 2.15 9.01
8/22/2021 5:15:00 AM 17.22 62.996 0.066 6.98 2.25 9.01
8/22/2021 5:30:00 AM 17.2 62.96 0.065 6.99 2.11 9.02
8/22/2021 5:45:00 AM 17.15 62.87 0.065 6.95 2.41 9.03
8/22/2021 6:00:00 AM 17.12 62.816 0.065 6.97 2.38 9.04
8/22/2021 6:15:00 AM 17.09 62.762 0.065 6.94 2.22 9.04
8/22/2021 6:30:00 AM 17.1 62.78 0.065 6.94 2.21 9.04
8/22/2021 6:45:00 AM 17.05 62.69 0.065 6.99 2.22 9.06
8/22/2021 7:00:00 AM 17.03 62.654 0.065 6.94 2.21 9.08
8/22/2021 7:15:00 AM 17.01 62.618 0.065 6.99 2.49 9.1
8/22/2021 7:30:00 AM 16.98 62.564 0.066 6.99 2.19 9.13
8/22/2021 7:45:00 AM 16.98 62.564 0.066 7 2.06 9.15
8/22/2021 8:00:00 AM 16.95 62.51 0.066 7.01 1.86 9.19
8/22/2021 8:15:00 AM 16.96 62.528 0.065 7.02 1.99 9.24
8/22/2021 8:30:00 AM 16.96 62.528 0.066 7.04 1.76 9.3
8/22/2021 8:45:00 AM 16.98 62.564 0.065 7.03 1.77 9.37
8/22/2021 9:00:00 AM 16.98 62.564 0.065 7.01 1.69 9.43
8/22/2021 9:15:00 AM 17.02 62.636 0.065 7.1 1.74 9.51
8/22/2021 9:30:00 AM 17.1 62.78 0.065 7.11 1.56 9.59
8/22/2021 9:45:00 AM 17.15 62.87 0.065 7.14 1.69 9.65
8/22/2021 10:00:00 AM 17.2 62.96 0.065 7.14 1.6 9.7
8/22/2021 10:15:00 AM 17.26 63.068 0.065 7.17 1.65 9.73
8/22/2021 10:30:00 AM 17.35 63.23 0.065 7.17 1.5 9.73
8/22/2021 10:45:00 AM 17.4 63.32 0.065 7.2 1.48 9.76
8/22/2021 11:00:00 AM 17.55 63.59 0.065 7.15 1.53 9.78
8/22/2021 11:15:00 AM 17.75 63.95 0.065 7.24 1.52 9.79
8/22/2021 11:30:00 AM 18.01 64.418 0.065 7.25 1.53 9.79
8/22/2021 11:45:00 AM 18.2 64.76 0.065 7.28 1.46 9.79
8/22/2021 12:00:00 PM 18.31 64.958 0.064 7.29 1.49 9.76
8/22/2021 12:15:00 PM 18.4 65.12 0.064 7.27 1.45 9.74
8/22/2021 12:30:00 PM 18.65 65.57 0.064 7.3 1.43 9.71
8/22/2021 12:45:00 PM 18.93 66.074 0.064 7.29 1.43 9.7
8/22/2021 1:00:00 PM 19.13 66.434 0.064 7.33 1.4 9.64
8/22/2021 1:15:00 PM 19.29 66.722 0.064 7.32 1.47 9.61
8/22/2021 1:30:00 PM 19.57 67.226 0.064 7.35 1.51 9.62
8/22/2021 1:45:00 PM 19.6 67.28 0.065 7.34 1.33 9.53
8/22/2021 2:00:00 PM 19.64 67.352 0.064 7.32 1.46 9.49
8/22/2021 2:15:00 PM 19.8 67.64 0.064 7.32 1.36 9.51
8/22/2021 2:30:00 PM 19.7 67.46 0.064 7.32 1.4 9.46
8/22/2021 2:45:00 PM 19.77 67.586 0.064 7.32 1.56 9.46
8/22/2021 3:00:00 PM 19.74 67.532 0.064 7.32 1.28 9.38
8/22/2021 3:15:00 PM 19.77 67.586 0.064 7.25 1.52 9.4
8/22/2021 3:30:00 PM 19.76 67.568 0.064 7.3 1.34 9.4
8/22/2021 3:45:00 PM 19.8 67.64 0.064 7.25 1.37 9.39
8/22/2021 4:00:00 PM 19.82 67.676 0.064 7.31 1.42 9.37
8/22/2021 4:15:00 PM 19.82 67.676 0.064 7.29 1.42 9.33
8/22/2021 4:30:00 PM 19.83 67.694 0.065 7.24 1.39 9.2
8/22/2021 4:45:00 PM 19.8 67.64 0.065 7.23 1.53 9.14
8/22/2021 5:00:00 PM 19.8 67.64 0.065 7.13 1.37 9.08
8/22/2021 5:15:00 PM 19.77 67.586 0.065 7.17 1.43 9.02
8/22/2021 5:30:00 PM 19.78 67.604 0.065 7.12 1.43 8.97
8/22/2021 5:45:00 PM 19.77 67.586 0.065 7.13 1.53 8.97
8/22/2021 6:00:00 PM 19.81 67.658 0.065 7.09 1.43 8.95
8/22/2021 6:15:00 PM 19.8 67.64 0.065 7.12 1.4 8.92
8/22/2021 6:30:00 PM 19.82 67.676 0.065 7.1 1.5 8.89
8/22/2021 6:45:00 PM 19.81 67.658 0.065 7.09 1.55 8.87
8/22/2021 7:00:00 PM 19.8 67.64 0.065 7.02 1.58 8.81
8/22/2021 7:15:00 PM 19.81 67.658 0.066 7.06 1.59 8.75
8/22/2021 7:30:00 PM 19.76 67.568 0.066 6.99 1.48 8.71
8/22/2021 7:45:00 PM 19.74 67.532 0.066 7.02 1.5 8.66
8/22/2021 8:00:00 PM 19.69 67.442 0.066 7.01 1.41 8.63
8/22/2021 8:15:00 PM 19.64 67.352 0.066 6.97 1.76 8.59
8/22/2021 8:30:00 PM 19.62 67.316 0.066 6.97 1.56 8.55
8/22/2021 8:45:00 PM 19.55 67.19 0.066 6.97 1.88 8.54
8/22/2021 9:00:00 PM 19.5 67.1 0.067 6.95 1.79 8.53
8/22/2021 9:15:00 PM 19.44 66.992 0.067 6.94 1.71 8.53
8/22/2021 9:30:00 PM 19.36 66.848 0.067 6.92 1.6 8.53
8/22/2021 9:45:00 PM 19.33 66.794 0.067 6.92 1.79 8.53
8/22/2021 10:00:00 PM 19.24 66.632 0.067 6.93 1.86 8.55
8/22/2021 10:15:00 PM 19.2 66.56 0.067 6.93 1.71 8.54
8/22/2021 10:30:00 PM 19.12 66.416 0.067 6.92 1.82 8.55
8/22/2021 10:45:00 PM 19.06 66.308 0.067 6.9 1.59 8.56
8/22/2021 11:00:00 PM 18.98 66.164 0.067 6.89 1.74 8.58
8/22/2021 11:15:00 PM 18.92 66.056 0.067 6.9 1.54 8.59
8/22/2021 11:30:00 PM 18.86 65.948 0.068 6.87 1.67 8.6
8/22/2021 11:45:00 PM 18.8 65.84 0.067 6.94 1.73 8.62
8/23/2021 12:00:00 AM 18.74 65.732 0.068 6.93 1.77 8.63
8/23/2021 12:15:00 AM 18.68 65.624 0.068 6.94 1.65 8.64
8/23/2021 12:30:00 AM 18.61 65.498 0.068 6.93 1.81 8.65
8/23/2021 12:45:00 AM 18.56 65.408 0.068 6.94 1.56 8.66
8/23/2021 1:00:00 AM 18.49 65.282 0.068 6.92 1.65 8.68
8/23/2021 1:15:00 AM 18.43 65.174 0.068 6.94 2.08 8.68
8/23/2021 1:30:00 AM 18.38 65.084 0.068 6.89 1.59 8.7
8/23/2021 1:45:00 AM 18.33 64.994 0.068 6.95 1.64 8.71
8/23/2021 2:00:00 AM 18.29 64.922 0.068 6.94 1.66 8.72
8/23/2021 2:15:00 AM 18.22 64.796 0.068 6.94 1.69 8.73
8/23/2021 2:30:00 AM 18.18 64.724 0.068 6.96 1.74 8.74
8/23/2021 2:45:00 AM 18.12 64.616 0.068 6.96 1.59 8.75
8/23/2021 3:00:00 AM 18.07 64.526 0.068 6.91 1.8 8.76
8/23/2021 3:15:00 AM 18.03 64.454 0.068 6.97 1.88 8.78
8/23/2021 3:30:00 AM 17.97 64.346 0.068 6.96 1.83 8.78
8/23/2021 3:45:00 AM 17.93 64.274 0.068 6.97 2.03 8.79
8/23/2021 4:00:00 AM 17.87 64.166 0.068 6.95 1.74 8.8
8/23/2021 4:15:00 AM 17.83 64.094 0.068 6.97 1.85 8.81
8/23/2021 4:30:00 AM 17.79 64.022 0.068 6.98 1.72 8.83
8/23/2021 4:45:00 AM 17.74 63.932 0.068 6.97 1.74 8.84
8/23/2021 5:00:00 AM 17.71 63.878 0.068 6.95 1.91 8.84
8/23/2021 5:15:00 AM 17.66 63.788 0.068 6.95 1.92 8.85
8/23/2021 5:30:00 AM 17.65 63.77 0.069 6.95 1.81 8.86
8/23/2021 5:45:00 AM 17.6 63.68 0.068 6.95 2.03 8.87
8/23/2021 6:00:00 AM 17.56 63.608 0.069 6.96 6.63 8.87
8/23/2021 6:15:00 AM 17.54 63.572 0.069 6.97 2 8.88
8/23/2021 6:30:00 AM 17.48 63.464 0.069 6.92 1.91 8.9
8/23/2021 6:45:00 AM 17.46 63.428 0.069 6.97 2.01 8.91
8/23/2021 7:00:00 AM 17.42 63.356 0.068 6.98 1.75 8.95
8/23/2021 7:15:00 AM 17.42 63.356 0.069 6.99 1.68 9
8/23/2021 7:30:00 AM 17.39 63.302 0.068 7 1.85 9.04
8/23/2021 7:45:00 AM 17.39 63.302 0.068 6.98 1.76 9.09
8/23/2021 8:00:00 AM 17.37 63.266 0.068 7.03 1.71 9.15
8/23/2021 8:15:00 AM 17.39 63.302 0.068 7.03 1.6 9.22
8/23/2021 8:30:00 AM 17.4 63.32 0.068 7.06 1.75 9.32
8/23/2021 8:45:00 AM 17.43 63.374 0.068 7.06 1.68 9.4
8/23/2021 9:00:00 AM 17.48 63.464 0.068 7.06 1.56 9.47
8/23/2021 9:15:00 AM 17.54 63.572 0.068 7.12 1.72 9.54
8/23/2021 9:30:00 AM 17.66 63.788 0.068 7.15 1.7 9.62
8/23/2021 9:45:00 AM 17.75 63.95 0.068 7.17 1.63 9.68
8/23/2021 10:00:00 AM 17.91 64.238 0.068 7.19 1.68 9.72
8/23/2021 10:15:00 AM 18.01 64.418 0.068 7.22 1.69 9.72
8/23/2021 10:30:00 AM 18.12 64.616 0.068 7.25 1.62 9.71
8/23/2021 10:45:00 AM 18.26 64.868 0.067 7.25 1.5 9.73
8/23/2021 11:00:00 AM 18.42 65.156 0.067 7.29 1.46 9.74
8/23/2021 11:15:00 AM 18.53 65.354 0.067 7.28 1.47 9.74
8/23/2021 11:30:00 AM 18.73 65.714 0.067 7.32 1.6 9.77
8/23/2021 11:45:00 AM 19 66.2 0.067 7.36 1.53 9.79
8/23/2021 12:00:00 PM 19.2 66.56 0.067 7.39 1.51 9.77
8/23/2021 12:15:00 PM 19.42 66.956 0.067 7.41 1.52 9.75
8/23/2021 12:30:00 PM 19.6 67.28 0.067 7.41 1.55 9.72
8/23/2021 12:45:00 PM 19.72 67.496 0.067 7.36 1.52 9.67
8/23/2021 1:00:00 PM 19.95 67.91 0.067 7.43 1.68 9.66
8/23/2021 1:15:00 PM 20.12 68.216 0.067 7.44 1.59 9.62
8/23/2021 1:30:00 PM 20.35 68.63 0.067 7.4 1.57 9.61
8/23/2021 1:45:00 PM 20.57 69.026 0.067 7.47 1.51 9.58
8/23/2021 2:00:00 PM 20.78 69.404 0.067 7.47 1.68 9.55
8/23/2021 2:15:00 PM 20.85 69.53 0.067 7.47 1.39 9.49
8/23/2021 2:30:00 PM 21.01 69.818 0.067 7.49 1.47 9.47
8/23/2021 2:45:00 PM 21.07 69.926 0.067 7.47 1.4 9.38
8/23/2021 3:00:00 PM 21.17 70.106 0.066 7.41 1.53 9.38
8/23/2021 3:15:00 PM 21.19 70.142 0.066 7.4 1.4 9.3
8/23/2021 3:30:00 PM 21.38 70.484 0.066 7.44 1.43 9.28
8/23/2021 3:45:00 PM 21.53 70.754 0.066 7.45 1.41 9.28
8/23/2021 4:00:00 PM 21.7 71.06 0.066 7.48 1.5 9.27
8/23/2021 4:15:00 PM 21.84 71.312 0.066 7.5 1.17 9.26
8/23/2021 4:30:00 PM 21.9 71.42 0.066 7.48 1.46 9.2
8/23/2021 4:45:00 PM 21.95 71.51 0.066 7.42 1.33 9.14
8/23/2021 5:00:00 PM 21.92 71.456 0.067 7.41 1.36 9.01
8/23/2021 5:15:00 PM 21.92 71.456 0.067 7.4 1.29 8.94
8/23/2021 5:30:00 PM 21.89 71.402 0.067 7.36 1.23 8.87
8/23/2021 5:45:00 PM 21.86 71.348 0.067 7.33 1.37 8.8
8/23/2021 6:00:00 PM 21.85 71.33 0.067 7.31 1.22 8.74
8/23/2021 6:15:00 PM 21.84 71.312 0.067 7.28 1.22 8.67
8/23/2021 6:30:00 PM 21.83 71.294 0.067 7.26 1.07 8.61
8/23/2021 6:45:00 PM 21.81 71.258 0.067 7.23 1.21 8.55
8/23/2021 7:00:00 PM 21.76 71.168 0.067 7.2 1.54 8.49
8/23/2021 7:15:00 PM 21.69 71.042 0.067 7.16 1.61 8.43
8/23/2021 7:30:00 PM 21.62 70.916 0.068 7.16 1.52 8.37
8/23/2021 7:45:00 PM 21.55 70.79 0.068 7.12 1.45 8.32
8/23/2021 8:00:00 PM 21.49 70.682 0.068 7.1 1.58 8.27
8/23/2021 8:15:00 PM 21.44 70.592 0.068 7.05 1.45 8.22
8/23/2021 8:30:00 PM 21.39 70.502 0.068 7.08 1.66 8.18
8/23/2021 8:45:00 PM 21.33 70.394 0.068 7.06 1.63 8.15
8/23/2021 9:00:00 PM 21.27 70.286 0.069 7.04 1.57 8.13
8/23/2021 9:15:00 PM 21.19 70.142 0.069 7.02 1.41 8.13
8/23/2021 9:30:00 PM 21.12 70.016 0.069 7.01 1.33 8.13
8/23/2021 9:45:00 PM 21.05 69.89 0.069 7.01 1.53 8.13
8/23/2021 10:00:00 PM 20.97 69.746 0.069 7 1.45 8.14
8/23/2021 10:15:00 PM 20.89 69.602 0.069 7 1.49 8.15
8/23/2021 10:30:00 PM 20.81 69.458 0.069 6.93 1.58 8.16
8/23/2021 10:45:00 PM 20.73 69.314 0.069 7 1.43 8.18
8/23/2021 11:00:00 PM 20.65 69.17 0.069 6.98 1.46 8.19
8/23/2021 11:15:00 PM 20.58 69.044 0.07 6.95 1.64 8.2
8/23/2021 11:30:00 PM 20.5 68.9 0.07 6.99 1.49 8.22
8/23/2021 11:45:00 PM 20.41 68.738 0.07 6.98 1.44 8.23
8/24/2021 12:00:00 AM 20.33 68.594 0.07 6.98 1.88 8.25
8/24/2021 12:15:00 AM 20.25 68.45 0.07 6.97 1.45 8.26
8/24/2021 12:30:00 AM 20.17 68.306 0.07 6.97 1.45 8.27
8/24/2021 12:45:00 AM 20.09 68.162 0.07 6.98 1.54 8.3
8/24/2021 1:00:00 AM 20.01 68.018 0.07 6.97 1.53 8.32
8/24/2021 1:15:00 AM 19.92 67.856 0.07 6.97 1.48 8.33
8/24/2021 1:30:00 AM 19.84 67.712 0.07 6.97 1.5 8.35
8/24/2021 1:45:00 AM 19.75 67.55 0.07 6.95 1.49 8.37
8/24/2021 2:00:00 AM 19.66 67.388 0.071 6.98 1.48 8.39
8/24/2021 2:15:00 AM 19.57 67.226 0.071 6.96 1.53 8.41
8/24/2021 2:30:00 AM 19.49 67.082 0.071 6.97 1.44 8.43
8/24/2021 2:45:00 AM 19.41 66.938 0.071 6.91 1.54 8.44
8/24/2021 3:00:00 AM 19.34 66.812 0.071 6.97 1.38 8.46
8/24/2021 3:15:00 AM 19.28 66.704 0.071 6.98 1.45 8.47
8/24/2021 3:30:00 AM 19.21 66.578 0.071 6.97 1.55 8.49
8/24/2021 3:45:00 AM 19.15 66.47 0.071 6.98 1.56 8.51
8/24/2021 4:00:00 AM 19.08 66.344 0.071 6.97 1.63 8.52
8/24/2021 4:15:00 AM 19.04 66.272 0.071 6.98 1.56 8.53
8/24/2021 4:30:00 AM 18.97 66.146 0.071 6.96 1.56 8.54
8/24/2021 4:45:00 AM 18.91 66.038 0.071 6.98 1.51 8.56
8/24/2021 5:00:00 AM 18.86 65.948 0.071 6.99 1.61 8.57
8/24/2021 5:15:00 AM 18.79 65.82201 0.071 6.97 1.62 8.59
8/24/2021 5:30:00 AM 18.75 65.75 0.071 6.99 1.62 8.6
8/24/2021 5:45:00 AM 18.7 65.66 0.071 6.97 1.57 8.62
8/24/2021 6:00:00 AM 18.66 65.588 0.071 7 1.64 8.63
8/24/2021 6:15:00 AM 18.61 65.498 0.071 7 1.5 8.64
8/24/2021 6:30:00 AM 18.57 65.426 0.071 7 1.61 8.65
8/24/2021 6:45:00 AM 18.54 65.372 0.071 7 1.47 8.67
8/24/2021 7:00:00 AM 18.51 65.318 0.071 7.01 1.42 8.69
8/24/2021 7:15:00 AM 18.47 65.246 0.071 6.99 1.76 8.74
8/24/2021 7:30:00 AM 18.45 65.21 0.071 7.03 1.48 8.78
8/24/2021 7:45:00 AM 18.42 65.156 0.071 6.99 1.42 8.85
8/24/2021 8:00:00 AM 18.41 65.138 0.071 7.07 1.23 8.92
8/24/2021 8:15:00 AM 18.41 65.138 0.071 7.07 1.33 9.01
8/24/2021 8:30:00 AM 18.41 65.138 0.071 7.09 1.17 9.11
8/24/2021 8:45:00 AM 18.42 65.156 0.071 7.11 1.21 9.21
8/24/2021 9:00:00 AM 18.44 65.192 0.071 7.13 1.15 9.31
8/24/2021 9:15:00 AM 18.47 65.246 0.071 7.17 1.07 9.42
8/24/2021 9:30:00 AM 18.56 65.408 0.07 7.22 1.11 9.5
8/24/2021 9:45:00 AM 18.65 65.57 0.07 7.2 1.22 9.56
8/24/2021 10:00:00 AM 18.75 65.75 0.07 7.24 1.04 9.58
8/24/2021 10:15:00 AM 18.86 65.948 0.07 7.26 1.04 9.6
8/24/2021 10:30:00 AM 19 66.2 0.07 7.31 1.13 9.63
8/24/2021 10:45:00 AM 19.17 66.506 0.07 7.26 1.11 9.65
8/24/2021 11:00:00 AM 19.35 66.83 0.07 7.34 1 9.66
8/24/2021 11:15:00 AM 19.55 67.19 0.07 7.36 1.13 9.67
8/24/2021 11:30:00 AM 19.76 67.568 0.07 7.39 1 9.68
8/24/2021 11:45:00 AM 19.98 67.964 0.07 7.42 1.04 9.69
8/24/2021 12:00:00 PM 20.23 68.414 0.07 7.43 1.07 9.69
8/24/2021 12:15:00 PM 20.46 68.828 0.069 7.47 1.49 9.68
8/24/2021 12:30:00 PM 20.71 69.278 0.069 7.43 1.39 9.67
8/24/2021 12:45:00 PM 20.96 69.728 0.069 7.5 1.32 9.64
8/24/2021 1:00:00 PM 21.23 70.214 0.069 7.49 1.45 9.61
8/24/2021 1:15:00 PM 21.51 70.718 0.069 7.53 1.44 9.58
8/24/2021 1:30:00 PM 21.76 71.168 0.069 7.5 1.25 9.54
8/24/2021 1:45:00 PM 22.02 71.636 0.069 7.56 1.35 9.5
8/24/2021 2:00:00 PM 22.24 72.032 0.069 7.56 1.57 9.47
8/24/2021 2:15:00 PM 22.45 72.41 0.069 7.52 1.27 9.45
8/24/2021 2:30:00 PM 22.62 72.716 0.069 7.55 1.33 9.41
8/24/2021 2:45:00 PM 22.76 72.968 0.069 7.59 1.4 9.38
8/24/2021 3:00:00 PM 22.9 73.22 0.069 7.59 1.36 9.34
8/24/2021 3:15:00 PM 23 73.4 0.069 7.59 1.35 9.29
8/24/2021 3:30:00 PM 23.08 73.544 0.069 7.53 1.35 9.26
8/24/2021 3:45:00 PM 23.15 73.67 0.069 7.54 1.37 9.21
8/24/2021 4:00:00 PM 23.21 73.778 0.069 7.58 1.37 9.17
8/24/2021 4:15:00 PM 23.27 73.886 0.069 7.57 1.25 9.15
8/24/2021 4:30:00 PM 23.23 73.814 0.069 7.53 1.33 9.11
8/24/2021 4:45:00 PM 23.24 73.832 0.069 7.54 1.32 9.08
8/24/2021 5:00:00 PM 23.18 73.724 0.069 7.52 1.33 9.01
8/24/2021 5:15:00 PM 23.09 73.562 0.069 7.49 1.44 8.95
8/24/2021 5:30:00 PM 23.04 73.472 0.069 7.44 1.32 8.87
8/24/2021 5:45:00 PM 23 73.4 0.069 7.41 1.36 8.81
8/24/2021 6:00:00 PM 22.94 73.292 0.069 7.38 0.91 8.75
8/24/2021 6:15:00 PM 22.9 73.22 0.069 7.29 0.84 8.69
8/24/2021 6:30:00 PM 22.85 73.13 0.069 7.29 0.89 8.59
8/24/2021 6:45:00 PM 22.83 73.094 0.069 7.29 1.27 8.54
8/24/2021 7:00:00 PM 22.82 73.076 0.069 7.27 0.89 8.5
8/24/2021 7:15:00 PM 22.79 73.022 0.07 7.24 1.05 8.42
8/24/2021 7:30:00 PM 22.74 72.932 0.07 7.22 0.98 8.33
8/24/2021 7:45:00 PM 22.68 72.824 0.07 7.17 0.93 8.23
8/24/2021 8:00:00 PM 22.62 72.716 0.07 7.13 0.95 8.14
8/24/2021 8:15:00 PM 22.56 72.608 0.07 7.1 1.09 8.06
8/24/2021 8:30:00 PM 22.49 72.482 0.07 7.1 1.03 8
8/24/2021 8:45:00 PM 22.43 72.374 0.07 7.09 1.14 7.96
8/24/2021 9:00:00 PM 22.37 72.266 0.071 7.07 1.25 7.93
8/24/2021 9:15:00 PM 22.3 72.14 0.071 6.99 1.14 7.91
8/24/2021 9:30:00 PM 22.24 72.032 0.071 7 1.33 7.9
8/24/2021 9:45:00 PM 22.17 71.906 0.071 7.04 1.31 7.9
8/24/2021 10:00:00 PM 22.09 71.762 0.071 7.03 1.34 7.91
8/24/2021 10:15:00 PM 22.01 71.618 0.071 7.02 1.38 7.91
8/24/2021 10:30:00 PM 21.94 71.492 0.071 7.02 1.22 7.92
8/24/2021 10:45:00 PM 21.85 71.33 0.072 7.01 1.39 7.93
8/24/2021 11:00:00 PM 21.76 71.168 0.072 7.01 1.36 7.94
8/24/2021 11:15:00 PM 21.67 71.006 0.072 7 1.3 7.96
8/24/2021 11:30:00 PM 21.58 70.844 0.072 7 1.46 7.98
8/24/2021 11:45:00 PM 21.49 70.682 0.072 7 1.42 8
8/25/2021 12:00:00 AM 21.41 70.538 0.072 7 1.28 8.01
8/25/2021 12:15:00 AM 21.32 70.376 0.072 6.99 1.29 8.03
8/25/2021 12:30:00 AM 21.24 70.232 0.072 6.99 1.32 8.05
8/25/2021 12:45:00 AM 21.17 70.106 0.072 7 1.3 8.07
8/25/2021 1:00:00 AM 21.08 69.944 0.073 7 1.42 8.09
8/25/2021 1:15:00 AM 21 69.8 0.073 6.99 1.44 8.11
8/25/2021 1:30:00 AM 20.93 69.674 0.073 7 1.29 8.12
8/25/2021 1:45:00 AM 20.86 69.548 0.073 7 1.32 8.13
8/25/2021 2:00:00 AM 20.79 69.422 0.073 7 1.25 8.15
8/25/2021 2:15:00 AM 20.72 69.296 0.073 7.02 1.46 8.17
8/25/2021 2:30:00 AM 20.65 69.17 0.073 6.96 1.24 8.18
8/25/2021 2:45:00 AM 20.58 69.044 0.073 7.01 1.16 8.2
8/25/2021 3:00:00 AM 20.52 68.936 0.073 7.02 1.15 8.21
8/25/2021 3:15:00 AM 20.45 68.81 0.073 6.97 1.34 8.22
8/25/2021 3:30:00 AM 20.38 68.684 0.073 7.02 1.34 8.24
8/25/2021 3:45:00 AM 20.31 68.558 0.073 7.01 1.26 8.26
8/25/2021 4:00:00 AM 20.25 68.45 0.073 6.97 1.39 8.27
8/25/2021 4:15:00 AM 20.19 68.342 0.073 7.01 1.28 8.28
8/25/2021 4:30:00 AM 20.13 68.234 0.073 7.02 1.28 8.3
8/25/2021 4:45:00 AM 20.07 68.126 0.074 7.02 1.22 8.32
8/25/2021 5:00:00 AM 20.01 68.018 0.074 7.02 1.3 8.32
8/25/2021 5:15:00 AM 19.95 67.91 0.074 7.02 1.28 8.34
8/25/2021 5:30:00 AM 19.9 67.82 0.075 7.02 1.24 8.35
8/25/2021 5:45:00 AM 19.84 67.712 0.075 6.98 1.29 8.37
8/25/2021 6:00:00 AM 19.78 67.604 0.074 7.01 1.28 8.38
8/25/2021 6:15:00 AM 19.73 67.514 0.074 7.03 1.33 8.4
8/25/2021 6:30:00 AM 19.68 67.424 0.074 7.03 1.28 8.41
8/25/2021 6:45:00 AM 19.63 67.334 0.074 7.03 1.23 8.43
8/25/2021 7:00:00 AM 19.59 67.262 0.074 7.01 1.24 8.46
8/25/2021 7:15:00 AM 19.55 67.19 0.074 7.04 1.24 8.5
8/25/2021 7:30:00 AM 19.52 67.136 0.074 7.06 1.29 8.56
8/25/2021 7:45:00 AM 19.48 67.064 0.074 7.06 1.38 8.62
8/25/2021 8:00:00 AM 19.46 67.028 0.074 7.08 1.5 8.68
8/25/2021 8:15:00 AM 19.44 66.992 0.073 7.07 1.15 8.8
8/25/2021 8:30:00 AM 19.44 66.992 0.073 7.11 1.22 8.92
8/25/2021 8:45:00 AM 19.44 66.992 0.073 7.14 1.21 9.02
8/25/2021 9:00:00 AM 19.45 67.01 0.073 7.16 1.13 9.14
8/25/2021 9:15:00 AM 19.47 67.046 0.073 7.19 1.02 9.27
8/25/2021 9:30:00 AM 19.51 67.118 0.073 7.22 1.33 9.37
8/25/2021 9:45:00 AM 19.55 67.19 0.073 7.26 1.18 9.48
8/25/2021 10:00:00 AM 19.62 67.316 0.073 7.31 1.09 9.57
8/25/2021 10:15:00 AM 19.76 67.568 0.072 7.34 0.99 9.62
8/25/2021 10:30:00 AM 19.89 67.802 0.072 7.38 0.92 9.65
8/25/2021 10:45:00 AM 20.03 68.054 0.072 7.39 0.96 9.67
8/25/2021 11:00:00 AM 20.22 68.396 0.072 7.38 0.96 9.7
8/25/2021 11:15:00 AM 20.41 68.738 0.072 7.45 1.28 9.71
8/25/2021 11:30:00 AM 20.62 69.116 0.072 7.47 1.01 9.72
8/25/2021 11:45:00 AM 20.85 69.53 0.072 7.5 0.9 9.74
8/25/2021 12:00:00 PM 21.11 69.998 0.072 7.52 0.95 9.74
8/25/2021 12:15:00 PM 21.33 70.394 0.072 7.55 0.96 9.74
8/25/2021 12:30:00 PM 21.58 70.844 0.072 7.58 0.91 9.74
8/25/2021 12:45:00 PM 21.71 71.078 0.071 7.6 0.92 9.7
8/25/2021 1:00:00 PM 21.73 71.114 0.071 7.58 0.85 9.62
8/25/2021 1:15:00 PM 21.78 71.204 0.071 7.56 2.65 9.55
8/25/2021 1:30:00 PM 22.13 71.834 0.071 7.6 0.9 9.6
8/25/2021 1:45:00 PM 22.48 72.464 0.071 7.68 0.91 9.61
8/25/2021 2:00:00 PM 22.8 73.04 0.071 7.7 0.89 9.61
8/25/2021 2:15:00 PM 23.14 73.652 0.071 7.75 1 9.59
8/25/2021 2:30:00 PM 23.43 74.174 0.071 7.76 0.92 9.55
8/25/2021 2:45:00 PM 23.54 74.372 0.071 7.77 1.02 9.43
8/25/2021 3:00:00 PM 23.74 74.732 0.071 7.74 1.16 9.42
8/25/2021 3:15:00 PM 23.89 75.002 0.071 7.78 0.89 9.38
8/25/2021 3:30:00 PM 23.91 75.038 0.071 7.76 0.86 9.27
8/25/2021 3:45:00 PM 23.9 75.02 0.071 7.71 0.86 9.22
8/25/2021 4:00:00 PM 24.02 75.236 0.071 7.67 0.97 9.18
8/25/2021 4:15:00 PM 24.05 75.29 0.071 7.69 0.93 9.15
8/25/2021 4:30:00 PM 24.06 75.308 0.071 7.64 0.85 9.1
8/25/2021 4:45:00 PM 24.03 75.254 0.071 7.65 0.85 9.06
8/25/2021 5:00:00 PM 23.9 75.02 0.071 7.58 0.92 8.95
8/25/2021 5:15:00 PM 23.85 74.93 0.071 7.55 0.92 8.91
8/25/2021 5:30:00 PM 23.82 74.876 0.071 7.5 0.93 8.85
8/25/2021 5:45:00 PM 23.7 74.66 0.071 7.47 0.88 8.76
8/25/2021 6:00:00 PM 23.58 74.444 0.071 7.4 0.89 8.66
8/25/2021 6:15:00 PM 23.51 74.318 0.071 7.36 0.83 8.6
8/25/2021 6:30:00 PM 23.44 74.192 0.071 7.31 0.94 8.51
8/25/2021 6:45:00 PM 23.39 74.102 0.071 7.28 0.89 8.44
8/25/2021 7:00:00 PM 23.33 73.994 0.071 7.26 0.83 8.36
8/25/2021 7:15:00 PM 23.26 73.868 0.071 7.24 0.93 8.27
8/25/2021 7:30:00 PM 23.18 73.724 0.072 7.16 1.05 8.16
8/25/2021 7:45:00 PM 23.1 73.58 0.072 7.17 0.94 8.08
8/25/2021 8:00:00 PM 23.03 73.454 0.072 7.14 1.06 8
8/25/2021 8:15:00 PM 22.97 73.346 0.072 7.12 1.05 7.93
8/25/2021 8:30:00 PM 22.91 73.238 0.072 7.1 1.09 7.88
8/25/2021 8:45:00 PM 22.84 73.112 0.072 7.08 1.15 7.84
8/25/2021 9:00:00 PM 22.78 73.004 0.072 7.07 1.12 7.82
8/25/2021 9:15:00 PM 22.72 72.896 0.073 7.05 1.13 7.81
8/25/2021 9:30:00 PM 22.65 72.77 0.073 7.05 1.17 7.8
8/25/2021 9:45:00 PM 22.59 72.662 0.073 7.04 1.27 7.8
8/25/2021 10:00:00 PM 22.52 72.536 0.073 7.03 1.36 7.8
8/25/2021 10:15:00 PM 22.45 72.41 0.073 7.03 1.3 7.8
8/25/2021 10:30:00 PM 22.39 72.302 0.073 7.02 1.29 7.8
8/25/2021 10:45:00 PM 22.32 72.176 0.073 7 1.13 7.82
8/25/2021 11:00:00 PM 22.26 72.068 0.073 7.02 1.19 7.83
8/25/2021 11:15:00 PM 22.19 71.942 0.073 7.01 1.18 7.84
8/25/2021 11:30:00 PM 22.12 71.816 0.074 7.01 1.19 7.85
8/25/2021 11:45:00 PM 22.05 71.69 0.074 6.97 1.21 7.87
8/26/2021 12:00:00 AM 21.97 71.546 0.074 7.01 1.31 7.88
8/26/2021 12:15:00 AM 21.91 71.438 0.074 6.97 1.23 7.89
8/26/2021 12:30:00 AM 21.84 71.312 0.074 7 1.19 7.9
8/26/2021 12:45:00 AM 21.77 71.186 0.074 7 1.17 7.92
8/26/2021 1:00:00 AM 21.71 71.078 0.074 6.97 1.17 7.93
8/26/2021 1:15:00 AM 21.64 70.952 0.074 7 1.2 7.95
8/26/2021 1:30:00 AM 21.58 70.844 0.074 7 1.18 7.96
8/26/2021 1:45:00 AM 21.54 70.772 0.074 6.99 1.26 7.97
8/26/2021 2:00:00 AM 21.49 70.682 0.074 7 1.25 7.98
8/26/2021 2:15:00 AM 21.45 70.61 0.074 7 1.17 8
8/26/2021 2:30:00 AM 21.4 70.52 0.074 7.01 1.27 8.01
8/26/2021 2:45:00 AM 21.36 70.448 0.075 7 1.22 8.02
8/26/2021 3:00:00 AM 21.31 70.358 0.075 7.01 1.21 8.03
8/26/2021 3:15:00 AM 21.27 70.286 0.075 7.01 1.42 8.04
8/26/2021 3:30:00 AM 21.22 70.196 0.075 6.99 1.12 8.05
8/26/2021 3:45:00 AM 21.18 70.124 0.075 7 1.24 8.06
8/26/2021 4:00:00 AM 21.14 70.052 0.075 7.01 1.29 8.07
8/26/2021 4:15:00 AM 21.09 69.962 0.075 6.96 1.11 8.07
8/26/2021 4:30:00 AM 21.05 69.89 0.075 7.01 1.17 8.08
8/26/2021 4:45:00 AM 21 69.8 0.075 7.02 1.33 8.1
8/26/2021 5:00:00 AM 20.96 69.728 0.075 7.02 1.22 8.11
8/26/2021 5:15:00 AM 20.91 69.638 0.075 6.99 1.18 8.12
8/26/2021 5:30:00 AM 20.87 69.566 0.075 7.02 1.22 8.13
8/26/2021 5:45:00 AM 20.82 69.476 0.075 7.02 1.84 8.14
8/26/2021 6:00:00 AM 20.77 69.386 0.075 7.03 1.29 8.15
8/26/2021 6:15:00 AM 20.72 69.296 0.075 7.02 1.25 8.17
8/26/2021 6:30:00 AM 20.68 69.224 0.075 7.02 1.15 8.18
8/26/2021 6:45:00 AM 20.64 69.152 0.076 7.02 1.16 8.2
8/26/2021 7:00:00 AM 20.6 69.08 0.075 6.96 1.28 8.23
8/26/2021 7:15:00 AM 20.56 69.008 0.076 7.04 1.12 8.26
8/26/2021 7:30:00 AM 20.53 68.954 0.075 7.04 1.06 8.32
8/26/2021 7:45:00 AM 20.5 68.9 0.075 7.06 1.04 8.4
8/26/2021 8:00:00 AM 20.47 68.846 0.075 7.07 1.13 8.47
8/26/2021 8:15:00 AM 20.46 68.828 0.075 7.08 1.11 8.57
8/26/2021 8:30:00 AM 20.46 68.828 0.075 7.1 1.03 8.72
8/26/2021 8:45:00 AM 20.48 68.864 0.075 7.12 0.99 8.88
8/26/2021 9:00:00 AM 20.51 68.918 0.075 7.17 0.99 9.03
8/26/2021 9:15:00 AM 20.54 68.972 0.075 7.21 1.08 9.16
8/26/2021 9:30:00 AM 20.57 69.026 0.074 7.24 0.94 9.26
8/26/2021 9:45:00 AM 20.6 69.08 0.074 7.27 0.95 9.35
8/26/2021 10:00:00 AM 20.65 69.17 0.074 7.31 0.95 9.43
8/26/2021 10:15:00 AM 20.74 69.332 0.074 7.36 0.83 9.54
8/26/2021 10:30:00 AM 20.85 69.53 0.074 7.42 0.91 9.63
8/26/2021 10:45:00 AM 21.01 69.818 0.074 7.41 0.86 9.71
8/26/2021 11:00:00 AM 21.2 70.16 0.074 7.53 0.9 9.76
8/26/2021 11:15:00 AM 21.4 70.52 0.074 7.58 0.89 9.79
8/26/2021 11:30:00 AM 21.62 70.916 0.074 7.61 0.96 9.8
8/26/2021 11:45:00 AM 21.9 71.42 0.073 7.65 0.86 9.77
8/26/2021 12:00:00 PM 22.23 72.014 0.073 7.63 0.8 9.77
8/26/2021 12:15:00 PM 22.42 72.356 0.073 7.7 0.83 9.73
8/26/2021 12:30:00 PM 22.58 72.644 0.073 7.73 0.81 9.71
8/26/2021 12:45:00 PM 22.8 73.04 0.073 7.76 0.86 9.69
8/26/2021 1:00:00 PM 23.12 73.616 0.073 7.79 0.81 9.67
8/26/2021 1:15:00 PM 23.44 74.192 0.073 7.82 0.73 9.63
8/26/2021 1:30:00 PM 23.72 74.696 0.073 7.84 0.77 9.56
8/26/2021 1:45:00 PM 23.99 75.182 0.073 7.84 6.44 9.49
8/26/2021 2:00:00 PM 24.25 75.65 0.072 7.87 0.85 9.47
8/26/2021 2:15:00 PM 24.37 75.866 0.072 7.87 0.74 9.45
8/26/2021 2:30:00 PM 24.56 76.208 0.072 7.91 0.88 9.44
8/26/2021 2:45:00 PM 24.65 76.37 0.072 7.9 0.86 9.39
8/26/2021 3:00:00 PM 24.72 76.496 0.072 7.88 0.7 9.33
8/26/2021 3:15:00 PM 25.03 77.054 0.072 7.95 0.75 9.3
8/26/2021 3:30:00 PM 25.1 77.18 0.072 7.9 0.71 9.22
8/26/2021 3:45:00 PM 24.95 76.91 0.072 7.84 0.74 9.1
8/26/2021 4:00:00 PM 24.84 76.712 0.072 7.79 0.75 9.06
8/26/2021 4:15:00 PM 24.74 76.532 0.072 7.72 0.75 8.99
8/26/2021 4:30:00 PM 24.73 76.514 0.072 7.71 0.8 8.97
8/26/2021 4:45:00 PM 24.8 76.64 0.072 7.68 0.76 8.95
8/26/2021 5:00:00 PM 24.73 76.514 0.072 7.68 0.76 8.84
8/26/2021 5:15:00 PM 24.69 76.442 0.072 7.61 0.73 8.81
8/26/2021 5:30:00 PM 24.64 76.352 0.072 7.59 0.86 8.72
8/26/2021 5:45:00 PM 24.51 76.118 0.072 7.5 1.03 8.59
8/26/2021 6:00:00 PM 24.41 75.938 0.072 7.43 0.72 8.46
8/26/2021 6:15:00 PM 24.3 75.74 0.073 7.35 0.75 8.33
8/26/2021 6:30:00 PM 24.19 75.542 0.073 7.32 1.01 8.23
8/26/2021 6:45:00 PM 24.1 75.38 0.073 7.29 0.99 8.22
8/26/2021 7:00:00 PM 24.03 75.254 0.073 7.28 0.85 8.22
8/26/2021 7:15:00 PM 23.97 75.146 0.073 7.27 1.1 8.21
8/26/2021 7:30:00 PM 23.88 74.984 0.073 7.26 1.21 8.15
8/26/2021 7:45:00 PM 23.8 74.84 0.073 7.21 0.93 8.06
8/26/2021 8:00:00 PM 23.7 74.66 0.073 7.19 0.86 7.96
8/26/2021 8:15:00 PM 23.62 74.516 0.073 7.17 1 7.87
8/26/2021 8:30:00 PM 23.54 74.372 0.073 7.15 1.05 7.79
8/26/2021 8:45:00 PM 23.46 74.228 0.074 7.07 1.2 7.73
8/26/2021 9:00:00 PM 23.39 74.102 0.074 7.12 1.1 7.69
8/26/2021 9:15:00 PM 23.32 73.976 0.074 7.11 1.32 7.67
8/26/2021 9:30:00 PM 23.26 73.868 0.074 7.1 1.17 7.66
8/26/2021 9:45:00 PM 23.21 73.778 0.074 7.09 1.35 7.66
8/26/2021 10:00:00 PM 23.15 73.67 0.074 7.09 1.46 7.66
8/26/2021 10:15:00 PM 23.1 73.58 0.074 7.08 1.37 7.66
8/26/2021 10:30:00 PM 23.04 73.472 0.073 7.08 1.4 7.67
8/26/2021 10:45:00 PM 22.99 73.382 0.073 7.08 1.46 7.68
8/26/2021 11:00:00 PM 22.95 73.31 0.073 7.09 1.31 7.69
8/26/2021 11:15:00 PM 22.9 73.22 0.073 7.1 1.4 7.7
8/26/2021 11:30:00 PM 22.82 73.076 0.074 7.09 1.8 7.74
8/26/2021 11:45:00 PM 22.74 72.932 0.074 7.09 1.85 7.77
8/27/2021 12:00:00 AM 22.68 72.824 0.074 7.1 1.52 7.79
8/27/2021 12:15:00 AM 22.63 72.734 0.074 7.1 1.6 7.8
8/27/2021 12:30:00 AM 22.59 72.662 0.074 7.03 1.55 7.81
8/27/2021 12:45:00 AM 22.55 72.59 0.074 7.09 1.49 7.81
8/27/2021 1:00:00 AM 22.5 72.5 0.074 7.1 1.85 7.82
8/27/2021 1:15:00 AM 22.44 72.392 0.074 7.08 1.54 7.83
8/27/2021 1:30:00 AM 22.37 72.266 0.074 7.09 1.43 7.84
8/27/2021 1:45:00 AM 22.29 72.122 0.074 7.08 1.48 7.85
8/27/2021 2:00:00 AM 22.19 71.942 0.074 7.06 1.34 7.87
8/27/2021 2:15:00 AM 22.1 71.78 0.074 7.06 1.35 7.88
8/27/2021 2:30:00 AM 22.01 71.618 0.074 7.06 1.5 7.9
8/27/2021 2:45:00 AM 21.92 71.456 0.075 7.05 1.48 7.91
8/27/2021 3:00:00 AM 21.84 71.312 0.075 7.05 1.58 7.93
8/27/2021 3:15:00 AM 21.76 71.168 0.075 7.05 1.69 7.94
8/27/2021 3:30:00 AM 21.7 71.06 0.075 7.04 1.58 7.94
8/27/2021 3:45:00 AM 21.63 70.934 0.075 7.06 1.69 7.96
8/27/2021 4:00:00 AM 21.56 70.808 0.075 7.05 1.6 7.97
8/27/2021 4:15:00 AM 21.51 70.718 0.075 7.06 1.7 7.99
8/27/2021 4:30:00 AM 21.46 70.628 0.075 7.06 1.68 7.99
8/27/2021 4:45:00 AM 21.41 70.538 0.075 7.06 1.55 8
8/27/2021 5:00:00 AM 21.36 70.448 0.075 6.99 1.69 8.01
8/27/2021 5:15:00 AM 21.32 70.376 0.076 7.02 1.61 8.02
8/27/2021 5:30:00 AM 21.27 70.286 0.076 7.07 1.63 8.03
8/27/2021 5:45:00 AM 21.22 70.196 0.076 7.06 1.64 8.04
8/27/2021 6:00:00 AM 21.18 70.124 0.076 7.06 1.71 8.05
8/27/2021 6:15:00 AM 21.14 70.052 0.076 7.05 1.68 8.06
8/27/2021 6:30:00 AM 21.1 69.98 0.076 7.07 1.64 8.07
8/27/2021 6:45:00 AM 21.06 69.908 0.076 7.06 1.69 8.08
8/27/2021 7:00:00 AM 21.02 69.836 0.076 7.06 1.7 8.1
8/27/2021 7:15:00 AM 20.98 69.764 0.076 7.06 1.58 8.15
8/27/2021 7:30:00 AM 20.95 69.71 0.076 7.07 1.69 8.21
8/27/2021 7:45:00 AM 20.92 69.656 0.076 7.09 1.59 8.29
8/27/2021 8:00:00 AM 20.91 69.638 0.076 7.09 1.61 8.38
8/27/2021 8:15:00 AM 20.89 69.602 0.076 7.12 1.61 8.46
8/27/2021 8:30:00 AM 20.88 69.584 0.076 7.14 1.7 8.56
8/27/2021 8:45:00 AM 20.89 69.602 0.076 7.15 1.79 8.68
8/27/2021 9:00:00 AM 20.92 69.656 0.076 7.21 1.9 8.86
8/27/2021 9:15:00 AM 20.95 69.71 0.076 7.23 1.93 9
8/27/2021 9:30:00 AM 21 69.8 0.076 7.29 1.73 9.14
8/27/2021 9:45:00 AM 21.06 69.908 0.076 7.33 1.68 9.26
8/27/2021 10:00:00 AM 21.11 69.998 0.076 7.36 1.63 9.35
8/27/2021 10:15:00 AM 21.17 70.106 0.076 7.39 1.88 9.42
8/27/2021 10:30:00 AM 21.25 70.25 0.076 7.44 1.76 9.5
8/27/2021 10:45:00 AM 21.35 70.43 0.076 7.49 1.64 9.57
8/27/2021 11:00:00 AM 21.44 70.592 0.076 7.54 1.67 9.62
8/27/2021 11:15:00 AM 21.52 70.736 0.076 7.51 1.58 9.66
8/27/2021 11:30:00 AM 21.66 70.988 0.075 7.62 1.76 9.71
8/27/2021 11:45:00 AM 21.78 71.204 0.075 7.68 1.53 9.74
8/27/2021 12:00:00 PM 21.9 71.42 0.076 7.7 1.46 9.74
8/27/2021 12:15:00 PM 22 71.6 0.075 7.71 1.41 9.7
8/27/2021 12:30:00 PM 22.19 71.942 0.075 7.75 1.39 9.71
8/27/2021 12:45:00 PM 22.42 72.356 0.075 7.8 1.34 9.71
8/27/2021 1:00:00 PM 22.67 72.806 0.075 7.84 1.35 9.69
8/27/2021 1:15:00 PM 22.94 73.292 0.076 7.84 1.34 9.72
8/27/2021 1:30:00 PM 23.02 73.436 0.075 7.92 1.37 9.7
8/27/2021 1:45:00 PM 23.15 73.67 0.075 7.96 1.29 9.7
8/27/2021 2:00:00 PM 23.31 73.958 0.075 7.98 1.26 9.68
8/27/2021 2:15:00 PM 23.39 74.102 0.075 8.02 1.29 9.65
8/27/2021 2:30:00 PM 23.59 74.462 0.075 8.03 1.21 9.62
8/27/2021 2:45:00 PM 23.85 74.93 0.075 8.04 1.09 9.55
8/27/2021 3:00:00 PM 24.08 75.344 0.075 8 1.04 9.47
8/27/2021 3:15:00 PM 24.23 75.614 0.075 7.99 1.05 9.39
8/27/2021 3:30:00 PM 24.15 75.47 0.075 7.9 1.05 9.25
8/27/2021 3:45:00 PM 24.31 75.758 0.075 7.87 1.06 9.2
8/27/2021 4:00:00 PM 24.17 75.506 0.075 7.82 1.06 9.06
8/27/2021 4:15:00 PM 24.39 75.902 0.075 7.8 1.08 9.07
8/27/2021 4:30:00 PM 24.47 76.046 0.075 7.81 0.97 9.06
8/27/2021 4:45:00 PM 24.32 75.776 0.075 7.76 0.96 8.97
8/27/2021 5:00:00 PM 24.22 75.596 0.075 7.72 0.89 8.92
8/27/2021 5:15:00 PM 24.15 75.47 0.075 7.66 0.96 8.82
8/27/2021 5:30:00 PM 24.07 75.326 0.075 7.6 1.02 8.75
8/27/2021 5:45:00 PM 23.98 75.164 0.075 7.54 0.84 8.65
8/27/2021 6:00:00 PM 23.89 75.002 0.076 7.49 0.9 8.53
8/27/2021 6:15:00 PM 23.77 74.786 0.076 7.43 0.86 8.35
8/27/2021 6:30:00 PM 23.67 74.606 0.076 7.36 0.97 8.24
8/27/2021 6:45:00 PM 23.58 74.444 0.076 7.32 0.84 8.15
8/27/2021 7:00:00 PM 23.5 74.3 0.076 7.28 1 8.05
8/27/2021 7:15:00 PM 23.43 74.174 0.076 7.27 0.99 7.96
8/27/2021 7:30:00 PM 23.37 74.066 0.076 7.24 0.99 7.9
8/27/2021 7:45:00 PM 23.31 73.958 0.076 7.16 1.04 7.84
8/27/2021 8:00:00 PM 23.26 73.868 0.077 7.2 1.03 7.79
8/27/2021 8:15:00 PM 23.19 73.742 0.076 7.18 1.1 7.76
8/27/2021 8:30:00 PM 23.13 73.634 0.077 7.15 1.1 7.73
8/27/2021 8:45:00 PM 23.07 73.526 0.077 7.11 1.11 7.7
8/27/2021 9:00:00 PM 23.01 73.418 0.077 7.13 1.64 7.69
8/27/2021 9:15:00 PM 22.94 73.292 0.08 7.15 2.04 7.72
8/27/2021 9:30:00 PM 22.84 73.112 0.081 7.16 2.45 7.77
8/27/2021 9:45:00 PM 22.78 73.004 0.081 7.16 2.68 7.82
8/27/2021 10:00:00 PM 22.76 72.968 0.08 7.15 3.39 7.83
8/27/2021 10:15:00 PM 22.72 72.896 0.08 7.16 2.83 7.85
8/27/2021 10:30:00 PM 22.67 72.806 0.08 7.15 2.71 7.86
8/27/2021 10:45:00 PM 22.6 72.68 0.08 7.15 2.73 7.88
8/27/2021 11:00:00 PM 22.53 72.554 0.08 7.14 2.73 7.9
8/27/2021 11:15:00 PM 22.44 72.392 0.08 7.11 2.79 7.92
8/27/2021 11:30:00 PM 22.32 72.176 0.081 7.13 3.03 7.94
8/27/2021 11:45:00 PM 22.19 71.942 0.081 7.12 3.46 7.96
8/28/2021 12:00:00 AM 22.05 71.69 0.081 7.1 3.94 7.98
8/28/2021 12:15:00 AM 21.92 71.456 0.081 7.1 4.89 8.01
8/28/2021 12:30:00 AM 21.79 71.222 0.08 7.1 6.49 8.02
8/28/2021 12:45:00 AM 21.67 71.006 0.08 7.1 7.52 8.04
8/28/2021 1:00:00 AM 21.57 70.826 0.08 7.1 8.56 8.06
8/28/2021 1:15:00 AM 21.48 70.664 0.08 7.06 9.39 8.07
8/28/2021 1:30:00 AM 21.41 70.538 0.08 7.08 9.17 8.08
8/28/2021 1:45:00 AM 21.34 70.412 0.08 7.1 8.6 8.09
8/28/2021 2:00:00 AM 21.28 70.304 0.08 7.11 8.39 8.09
8/28/2021 2:15:00 AM 21.23 70.214 0.08 7.1 8.13 8.1
8/28/2021 2:30:00 AM 21.18 70.124 0.08 7.11 8.11 8.11
8/28/2021 2:45:00 AM 21.14 70.052 0.08 7.1 7.56 8.12
8/28/2021 3:00:00 AM 21.1 69.98 0.08 7.11 7.84 8.12
8/28/2021 3:15:00 AM 21.06 69.908 0.08 7.08 7.19 8.12
8/28/2021 3:30:00 AM 21.03 69.854 0.08 7.11 7.67 8.13
8/28/2021 3:45:00 AM 20.99 69.782 0.08 7.11 7.99 8.14
8/28/2021 4:00:00 AM 20.96 69.728 0.08 7.11 7.33 8.15
8/28/2021 4:15:00 AM 20.93 69.674 0.08 7.12 6.83 8.15
8/28/2021 4:30:00 AM 20.89 69.602 0.08 7.12 6.28 8.16
8/28/2021 4:45:00 AM 20.86 69.548 0.079 7.11 6.28 8.17
8/28/2021 5:00:00 AM 20.83 69.494 0.079 7.12 5.79 8.18
8/28/2021 5:15:00 AM 20.79 69.422 0.079 7.12 5.59 8.19
8/28/2021 5:30:00 AM 20.76 69.368 0.079 7.12 5.37 8.2
8/28/2021 5:45:00 AM 20.73 69.314 0.08 7.12 5.2 8.2
8/28/2021 6:00:00 AM 20.69 69.242 0.079 7.12 5.01 8.21
8/28/2021 6:15:00 AM 20.66 69.188 0.079 7.12 4.5 8.22
8/28/2021 6:30:00 AM 20.63 69.134 0.079 7.12 4.44 8.23
8/28/2021 6:45:00 AM 20.6 69.08 0.079 7.12 4.25 8.25
8/28/2021 7:00:00 AM 20.57 69.026 0.079 7.12 3.96 8.27
8/28/2021 7:15:00 AM 20.54 68.972 0.079 7.12 4.11 8.3
8/28/2021 7:30:00 AM 20.52 68.936 0.079 7.13 3.9 8.34
8/28/2021 7:45:00 AM 20.5 68.9 0.079 7.1 3.68 8.39
8/28/2021 8:00:00 AM 20.49 68.882 0.079 7.14 3.53 8.46
8/28/2021 8:15:00 AM 20.48 68.864 0.079 7.16 3.25 8.53
8/28/2021 8:30:00 AM 20.48 68.864 0.079 7.17 3.04 8.6
8/28/2021 8:45:00 AM 20.48 68.864 0.079 7.19 3.04 8.69
8/28/2021 9:00:00 AM 20.49 68.882 0.078 7.22 2.79 8.8
8/28/2021 9:15:00 AM 20.48 68.864 0.079 7.19 2.76 8.84
8/28/2021 9:30:00 AM 20.51 68.918 0.078 7.25 2.69 8.96
8/28/2021 9:45:00 AM 20.56 69.008 0.078 7.3 2.48 9.09
8/28/2021 10:00:00 AM 20.58 69.044 0.078 7.32 2.52 9.16
8/28/2021 10:15:00 AM 20.67 69.206 0.078 7.37 2.5 9.29
8/28/2021 10:30:00 AM 20.73 69.314 0.078 7.41 2.28 9.39
8/28/2021 10:45:00 AM 20.82 69.476 0.077 7.47 2.47 9.48
8/28/2021 11:00:00 AM 21.01 69.818 0.077 7.52 2.44 9.55
8/28/2021 11:15:00 AM 21.22 70.196 0.077 7.56 2.39 9.59
8/28/2021 11:30:00 AM 21.42 70.556 0.077 7.6 2.25 9.63
8/28/2021 11:45:00 AM 21.65 70.97 0.077 7.65 2.19 9.65
8/28/2021 12:00:00 PM 21.89 71.402 0.077 7.69 2.47 9.64
8/28/2021 12:15:00 PM 22.14 71.852 0.077 7.71 2.1 9.64
8/28/2021 12:30:00 PM 22.37 72.266 0.077 7.75 2.13 9.63
8/28/2021 12:45:00 PM 22.63 72.734 0.077 7.79 2.04 9.63
8/28/2021 1:00:00 PM 22.89 73.202 0.076 7.84 1.89 9.64
8/28/2021 1:15:00 PM 23.11 73.598 0.076 7.88 1.92 9.6
8/28/2021 1:30:00 PM 23.28 73.904 0.076 7.86 1.86 9.59
8/28/2021 1:45:00 PM 23.23 73.814 0.076 7.79 1.98 9.37
8/28/2021 2:00:00 PM 23.21 73.778 0.076 7.73 1.86 9.28
8/28/2021 2:15:00 PM 23.28 73.904 0.076 7.78 1.85 9.28
8/28/2021 2:30:00 PM 23.23 73.814 0.076 7.74 1.83 9.2
8/28/2021 2:45:00 PM 23.14 73.652 0.076 7.67 1.76 9.06
8/28/2021 3:00:00 PM 23.06 73.508 0.077 7.6 1.71 8.89
8/28/2021 3:15:00 PM 22.97 73.346 0.077 7.53 1.66 8.76
8/28/2021 3:30:00 PM 22.89 73.202 0.077 7.48 1.6 8.72
8/28/2021 3:45:00 PM 22.81 73.058 0.077 7.45 1.72 8.74
8/28/2021 4:00:00 PM 22.74 72.932 0.077 7.48 1.65 8.75
8/28/2021 4:15:00 PM 22.65 72.77 0.077 7.46 1.54 8.7
8/28/2021 4:30:00 PM 22.57 72.626 0.077 7.42 1.58 8.63
8/28/2021 4:45:00 PM 22.49 72.482 0.077 7.4 1.68 8.55
8/28/2021 5:00:00 PM 22.41 72.338 0.077 7.37 1.62 8.52
8/28/2021 5:15:00 PM 22.47 72.446 0.076 7.34 1.48 8.68
8/28/2021 5:30:00 PM 22.5 72.5 0.076 7.45 1.61 8.81
8/28/2021 5:45:00 PM 22.47 72.446 0.076 7.47 1.49 8.85
8/28/2021 6:00:00 PM 22.42 72.356 0.076 7.45 1.66 8.81
8/28/2021 6:15:00 PM 22.38 72.284 0.076 7.43 1.6 8.73
8/28/2021 6:30:00 PM 22.32 72.176 0.076 7.41 1.59 8.63
8/28/2021 6:45:00 PM 22.25 72.05 0.075 7.37 2.69 8.58
8/28/2021 7:00:00 PM 22.17 71.906 0.072 7.24 3.48 8.49
8/28/2021 7:15:00 PM 22.13 71.834 0.071 7.26 3.19 8.44
8/28/2021 7:30:00 PM 22.09 71.762 0.071 7.25 3.62 8.37
8/28/2021 7:45:00 PM 22.12 71.816 0.07 7.23 4.62 8.3
8/28/2021 8:00:00 PM 22.26 72.068 0.069 7.2 8.47 8.22
8/28/2021 8:15:00 PM 22.34 72.212 0.067 7.2 11.71 8.16
8/28/2021 8:30:00 PM 22.18 71.924 0.065 7.12 16.14 8.16
8/28/2021 8:45:00 PM 21.98 71.564 0.064 7.06 19.13 8.17
8/28/2021 9:00:00 PM 21.83 71.294 0.063 7.04 19.65 8.18
8/28/2021 9:15:00 PM 21.68 71.024 0.062 6.98 19.1 8.21
8/28/2021 9:30:00 PM 21.56 70.808 0.062 7.02 17.41 8.21
8/28/2021 9:45:00 PM 21.44 70.592 0.062 7.02 16.88 8.23
8/28/2021 10:00:00 PM 21.35 70.43 0.062 7 15.94 8.24
8/28/2021 10:15:00 PM 21.28 70.304 0.062 7.02 14.56 8.25
8/28/2021 10:30:00 PM 21.22 70.196 0.062 7.02 14.5 8.25
8/28/2021 10:45:00 PM 21.17 70.106 0.062 7.03 14.4 8.25
8/28/2021 11:00:00 PM 21.12 70.016 0.063 7.04 14.37 8.25
8/28/2021 11:15:00 PM 21.07 69.926 0.063 6.97 13.92 8.26
8/28/2021 11:30:00 PM 21.01 69.818 0.063 7.04 14.93 8.26
8/28/2021 11:45:00 PM 20.95 69.71 0.063 7.04 14.93 8.26
8/29/2021 12:00:00 AM 20.9 69.62 0.063 7.04 14.49 8.28
8/29/2021 12:15:00 AM 20.85 69.53 0.063 7.04 15.32 8.28
8/29/2021 12:30:00 AM 20.79 69.422 0.063 7.02 14.71 8.29
8/29/2021 12:45:00 AM 20.74 69.332 0.063 7.03 15.29 8.3
8/29/2021 1:00:00 AM 20.7 69.26 0.063 7.01 14.19 8.3
8/29/2021 1:15:00 AM 20.66 69.188 0.063 7.03 14.05 8.31
8/29/2021 1:30:00 AM 20.62 69.116 0.063 7.02 13.31 8.32
8/29/2021 1:45:00 AM 20.58 69.044 0.063 7.03 12.8 8.32
8/29/2021 2:00:00 AM 20.54 68.972 0.063 7.03 11.94 8.32
8/29/2021 2:15:00 AM 20.5 68.9 0.063 7.02 10.96 8.33
8/29/2021 2:30:00 AM 20.47 68.846 0.064 7.02 10.63 8.34
8/29/2021 2:45:00 AM 20.43 68.774 0.064 7.02 10.71 8.34
8/29/2021 3:00:00 AM 20.4 68.72 0.064 7.02 9.8 8.34
8/29/2021 3:15:00 AM 20.37 68.666 0.064 7.02 9.81 8.35
8/29/2021 3:30:00 AM 20.34 68.612 0.064 7.02 9.56 8.35
8/29/2021 3:45:00 AM 20.31 68.558 0.064 7.01 9.64 8.35
8/29/2021 4:00:00 AM 20.28 68.504 0.064 6.97 9.99 8.36
8/29/2021 4:15:00 AM 20.25 68.45 0.064 7.02 10.1 8.36
8/29/2021 4:30:00 AM 20.22 68.396 0.064 7.02 10.64 8.36
8/29/2021 4:45:00 AM 20.19 68.342 0.065 7.02 10.76 8.36
8/29/2021 5:00:00 AM 20.17 68.306 0.065 7.01 11.54 8.37
8/29/2021 5:15:00 AM 20.14 68.252 0.065 7 10.6 8.37
8/29/2021 5:30:00 AM 20.12 68.216 0.065 7.02 10.7 8.37
8/29/2021 5:45:00 AM 20.09 68.162 0.065 6.99 10.12 8.38
8/29/2021 6:00:00 AM 20.06 68.108 0.065 7.01 9.65 8.39
8/29/2021 6:15:00 AM 20.03 68.054 0.066 7.01 9.54 8.39
8/29/2021 6:30:00 AM 20.01 68.018 0.066 7 9.42 8.4
8/29/2021 6:45:00 AM 19.99 67.982 0.066 7.01 8.74 8.41
8/29/2021 7:00:00 AM 19.97 67.946 0.066 7.03 8.22 8.43
8/29/2021 7:15:00 AM 19.96 67.92799 0.066 7.03 7.78 8.49
8/29/2021 7:30:00 AM 19.98 67.964 0.07 7.04 10.06 8.57
8/29/2021 7:45:00 AM 19.96 67.92799 0.066 7.06 7.52 8.56
8/29/2021 8:00:00 AM 19.94 67.892 0.066 7.05 6.31 8.57
8/29/2021 8:15:00 AM 19.92 67.856 0.066 7.06 6.13 8.57
8/29/2021 8:30:00 AM 19.92 67.856 0.066 7.06 5.64 8.62
8/29/2021 8:45:00 AM 19.93 67.874 0.066 7.08 5.35 8.71
8/29/2021 9:00:00 AM 19.95 67.91 0.066 7.11 5.13 8.82
8/29/2021 9:15:00 AM 19.98 67.964 0.066 7.13 4.97 8.92
8/29/2021 9:30:00 AM 20 68 0.066 7.16 4.74 8.97
8/29/2021 9:45:00 AM 20.01 68.018 0.066 7.17 4.54 8.99
8/29/2021 10:00:00 AM 20.04 68.07201 0.066 7.2 4.57 9.06
8/29/2021 10:15:00 AM 20.11 68.198 0.066 7.23 4.1 9.18
8/29/2021 10:30:00 AM 20.16 68.288 0.066 7.21 4.03 9.26
8/29/2021 10:45:00 AM 20.25 68.45 0.066 7.3 3.78 9.36
8/29/2021 11:00:00 AM 20.27 68.486 0.066 7.33 3.66 9.32
8/29/2021 11:15:00 AM 20.29 68.522 0.067 7.33 3.3 9.29
8/29/2021 11:30:00 AM 20.33 68.594 0.067 7.36 3.26 9.29
8/29/2021 11:45:00 AM 20.35 68.63 0.067 7.33 2.96 9.23
8/29/2021 12:00:00 PM 20.48 68.864 0.067 7.38 3.03 9.35
8/29/2021 12:15:00 PM 20.49 68.882 0.067 7.41 3.02 9.33
8/29/2021 12:30:00 PM 20.53 68.954 0.067 7.37 2.98 9.34
8/29/2021 12:45:00 PM 20.68 69.224 0.066 7.46 3.01 9.44
8/29/2021 1:00:00 PM 20.85 69.53 0.066 7.51 2.91 9.48
8/29/2021 1:15:00 PM 20.83 69.494 0.066 7.5 2.74 9.4
8/29/2021 1:30:00 PM 20.86 69.548 0.065 7.43 3.02 9.16
8/29/2021 1:45:00 PM 20.86 69.548 0.065 7.35 3.54 9.14
8/29/2021 2:00:00 PM 20.88 69.584 0.066 7.37 2.97 9.18
8/29/2021 2:15:00 PM 20.91 69.638 0.065 7.42 3.3 9.16
8/29/2021 2:30:00 PM 20.93 69.674 0.066 7.41 3.44 9.12
8/29/2021 2:45:00 PM 20.95 69.71 0.066 7.36 3.98 9.12
8/29/2021 3:00:00 PM 21.16 70.088 0.066 7.47 4.22 9.23
8/29/2021 3:15:00 PM 21.16 70.088 0.066 7.47 4.29 9.25
8/29/2021 3:30:00 PM 21.27 70.286 0.066 7.53 5.19 9.31
8/29/2021 3:45:00 PM 21.27 70.286 0.066 7.52 7.4 9.28
8/29/2021 4:00:00 PM 21.36 70.448 0.066 7.54 7.38 9.3
8/29/2021 4:15:00 PM 21.34 70.412 0.065 7.53 8.46 9.21
8/29/2021 4:30:00 PM 21.32 70.376 0.065 7.48 8.63 9.11
8/29/2021 4:45:00 PM 21.24 70.232 0.066 7.4 16 8.94
8/29/2021 5:00:00 PM 21.17 70.106 0.065 7.33 19.83 8.79
8/29/2021 5:15:00 PM 21.14 70.052 0.065 7.3 17.25 8.67
8/29/2021 5:30:00 PM 21.02 69.836 0.065 7.23 23.86 8.57
8/29/2021 5:45:00 PM 20.92 69.656 0.065 7.13 33.6 8.51
8/29/2021 6:00:00 PM 20.86 69.548 0.065 7.13 42.04 8.46
8/29/2021 6:15:00 PM 20.81 69.458 0.065 7.16 36.43 8.44
8/29/2021 6:30:00 PM 20.77 69.386 0.065 7.15 34.75 8.43
8/29/2021 6:45:00 PM 20.73 69.314 0.065 7.15 37.82 8.42
8/29/2021 7:00:00 PM 20.68 69.224 0.066 7.13 33.25 8.41
8/29/2021 7:15:00 PM 20.63 69.134 0.066 7.13 32.26 8.41
8/29/2021 7:30:00 PM 20.57 69.026 0.066 7.1 36.99 8.41
8/29/2021 7:45:00 PM 20.51 68.918 0.066 7.12 31.11 8.41
8/29/2021 8:00:00 PM 20.44 68.792 0.066 7.13 27.39 8.42
8/29/2021 8:15:00 PM 20.38 68.684 0.066 7.1 28.43 8.43
8/29/2021 8:30:00 PM 20.31 68.558 0.065 7.07 25.77 8.43
8/29/2021 8:45:00 PM 20.24 68.432 0.065 7.09 25.12 8.44
8/29/2021 9:00:00 PM 20.17 68.306 0.065 7.03 24.62 8.45
8/29/2021 9:15:00 PM 20.1 68.18 0.065 7.08 22.46 8.46
8/29/2021 9:30:00 PM 20.04 68.07201 0.065 7.08 21.47 8.48
8/29/2021 9:45:00 PM 19.98 67.964 0.066 7.08 20.47 8.49
8/29/2021 10:00:00 PM 19.92 67.856 0.066 7.09 19.29 8.5
8/29/2021 10:15:00 PM 19.85 67.73 0.066 7.08 18.36 8.52
8/29/2021 10:30:00 PM 19.79 67.622 0.066 7.04 17.04 8.53
8/29/2021 10:45:00 PM 19.74 67.532 0.066 7.07 16.34 8.54
8/29/2021 11:00:00 PM 19.68 67.424 0.066 7.07 15.97 8.55
8/29/2021 11:15:00 PM 19.62 67.316 0.066 7.07 15.92 8.56
8/29/2021 11:30:00 PM 19.57 67.226 0.066 7.08 15.49 8.58
8/29/2021 11:45:00 PM 19.51 67.118 0.066 7.1 14.96 8.58
8/30/2021 12:00:00 AM 19.46 67.028 0.067 7.11 15.33 8.6
8/30/2021 12:15:00 AM 19.41 66.938 0.067 7.12 15.02 8.61
8/30/2021 12:30:00 AM 19.36 66.848 0.067 7.07 14.09 8.62
8/30/2021 12:45:00 AM 19.31 66.758 0.067 7.12 13.5 8.63
8/30/2021 1:00:00 AM 19.26 66.668 0.067 7.12 13.07 8.64
8/30/2021 1:15:00 AM 19.21 66.578 0.067 7.12 12 8.64
8/30/2021 1:30:00 AM 19.17 66.506 0.067 7.11 11.64 8.65
8/30/2021 1:45:00 AM 19.12 66.416 0.068 7.03 11.34 8.66
8/30/2021 2:00:00 AM 19.08 66.344 0.068 7.12 10.45 8.67
8/30/2021 2:15:00 AM 19.03 66.254 0.067 7.12 10.09 8.68
8/30/2021 2:30:00 AM 18.99 66.182 0.067 7.11 9.6 8.69
8/30/2021 2:45:00 AM 18.95 66.11 0.067 7.12 8.6 8.7
8/30/2021 3:00:00 AM 18.91 66.038 0.068 7.13 8.58 8.71
8/30/2021 3:15:00 AM 18.88 65.984 0.067 7.13 10.93 8.73
8/30/2021 3:30:00 AM 18.83 65.894 0.066 7.13 8.69 8.73
8/30/2021 3:45:00 AM 18.79 65.82201 0.066 7.11 7.98 8.73
8/30/2021 4:00:00 AM 18.75 65.75 0.067 7.1 7.79 8.73
8/30/2021 4:15:00 AM 18.71 65.67799 0.067 7.09 7.67 8.72
8/30/2021 4:30:00 AM 18.67 65.606 0.066 7.1 7.64 8.73
8/30/2021 4:45:00 AM 18.63 65.534 0.066 7.1 7.49 8.75
8/30/2021 5:00:00 AM 18.59 65.462 0.066 7.1 7.65 8.75
8/30/2021 5:15:00 AM 18.55 65.39 0.066 7.1 7.53 8.76
8/30/2021 5:30:00 AM 18.51 65.318 0.066 7.09 7.53 8.77
8/30/2021 5:45:00 AM 18.48 65.264 0.066 7 7.7 8.78
8/30/2021 6:00:00 AM 18.44 65.192 0.066 7.09 7.9 8.78
8/30/2021 6:15:00 AM 18.41 65.138 0.065 7.07 8.74 8.79
8/30/2021 6:30:00 AM 18.37 65.066 0.065 7.07 8.91 8.8
8/30/2021 6:45:00 AM 18.34 65.012 0.065 7.05 8.91 8.82
8/30/2021 7:00:00 AM 18.31 64.958 0.064 7.05 8.62 8.84
8/30/2021 7:15:00 AM 18.28 64.904 0.063 7.07 8.39 8.87
8/30/2021 7:30:00 AM 18.26 64.868 0.063 7.05 8.38 8.89
8/30/2021 7:45:00 AM 18.23 64.814 0.063 7.03 8.33 8.92
8/30/2021 8:00:00 AM 18.22 64.796 0.063 7.08 9.47 8.95
8/30/2021 8:15:00 AM 18.2 64.76 0.063 7.04 9.76 8.98
8/30/2021 8:30:00 AM 18.19 64.742 0.062 7.09 9.92 9
8/30/2021 8:45:00 AM 18.17 64.706 0.063 7.09 9.78 9.02
8/30/2021 9:00:00 AM 18.2 64.76 0.062 7.11 9.85 9.11
8/30/2021 9:15:00 AM 18.21 64.778 0.062 7.11 9.37 9.17
8/30/2021 9:30:00 AM 18.23 64.814 0.062 7.1 9.05 9.22
8/30/2021 9:45:00 AM 18.27 64.886 0.062 7.17 8.18 9.29
8/30/2021 10:00:00 AM 18.29 64.922 0.062 7.19 8.08 9.28
8/30/2021 10:15:00 AM 18.32 64.976 0.062 7.19 7.95 9.28
8/30/2021 10:30:00 AM 18.33 64.994 0.061 7.2 7.47 9.26
8/30/2021 10:45:00 AM 18.36 65.048 0.062 7.19 6.9 9.29
8/30/2021 11:00:00 AM 18.39 65.102 0.062 7.23 6.74 9.33
8/30/2021 11:15:00 AM 18.44 65.192 0.062 7.22 6.36 9.38
8/30/2021 11:30:00 AM 18.59 65.462 0.061 7.29 6.24 9.46
8/30/2021 11:45:00 AM 18.62 65.516 0.062 7.28 5.96 9.46
8/30/2021 12:00:00 PM 18.64 65.552 0.062 7.29 5.72 9.4
8/30/2021 12:15:00 PM 18.66 65.588 0.062 7.29 5.92 9.38
8/30/2021 12:30:00 PM 18.73 65.714 0.062 7.28 5.22 9.44
8/30/2021 12:45:00 PM 18.79 65.82201 0.062 7.34 5.18 9.48
8/30/2021 1:00:00 PM 18.9 66.02 0.062 7.37 5.47 9.55
8/30/2021 1:15:00 PM 19.01 66.218 0.062 7.4 4.88 9.58
8/30/2021 1:30:00 PM 19.25 66.65 0.061 7.44 4.53 9.6
8/30/2021 1:45:00 PM 19.4 66.92 0.062 7.47 4.61 9.6
8/30/2021 2:00:00 PM 19.65 67.37 0.062 7.5 4.59 9.61
8/30/2021 2:15:00 PM 19.79 67.622 0.061 7.51 4.73 9.58
8/30/2021 2:30:00 PM 19.9 67.82 0.061 7.52 4.39 9.54
8/30/2021 2:45:00 PM 19.97 67.946 0.062 7.51 4.43 9.52
8/30/2021 3:00:00 PM 20 68 0.061 7.52 4.2 9.47
8/30/2021 3:15:00 PM 20.11 68.198 0.061 7.53 4.27 9.47
8/30/2021 3:30:00 PM 20.24 68.432 0.061 7.54 4.16 9.45
8/30/2021 3:45:00 PM 20.3 68.54 0.061 7.46 3.83 9.41
8/30/2021 4:00:00 PM 20.27 68.486 0.061 7.52 4.32 9.34
8/30/2021 4:15:00 PM 20.21 68.378 0.062 7.45 4.17 9.2
8/30/2021 4:30:00 PM 20.26 68.468 0.061 7.43 4.05 9.18
8/30/2021 4:45:00 PM 20.26 68.468 0.061 7.43 3.72 9.16
8/30/2021 5:00:00 PM 20.31 68.558 0.062 7.43 3.83 9.14
8/30/2021 5:15:00 PM 20.36 68.648 0.062 7.42 3.79 9.1
8/30/2021 5:30:00 PM 20.36 68.648 0.062 7.4 3.71 9.01
8/30/2021 5:45:00 PM 20.38 68.684 0.062 7.37 3.65 8.99
8/30/2021 6:00:00 PM 20.37 68.666 0.062 7.31 3.46 8.93
8/30/2021 6:15:00 PM 20.38 68.684 0.062 7.34 3.45 8.91
8/30/2021 6:30:00 PM 20.37 68.666 0.062 7.32 3.46 8.85
8/30/2021 6:45:00 PM 20.34 68.612 0.062 7.28 3.44 8.79
8/30/2021 7:00:00 PM 20.3 68.54 0.062 7.25 3.61 8.73
8/30/2021 7:15:00 PM 20.26 68.468 0.062 7.22 3.5 8.65
8/30/2021 7:30:00 PM 20.22 68.396 0.063 7.2 3.48 8.6
8/30/2021 7:45:00 PM 20.18 68.324 0.063 7.17 3.44 8.54
8/30/2021 8:00:00 PM 20.13 68.234 0.063 7.14 3.85 8.5
8/30/2021 8:15:00 PM 20.07 68.126 0.063 7.12 3.79 8.48
8/30/2021 8:30:00 PM 20 68 0.063 7.09 3.98 8.47
8/30/2021 8:45:00 PM 19.92 67.856 0.063 7.02 4.07 8.47
8/30/2021 9:00:00 PM 19.84 67.712 0.064 7 3.86 8.47
8/30/2021 9:15:00 PM 19.77 67.586 0.064 7.09 3.89 8.48
8/30/2021 9:30:00 PM 19.7 67.46 0.064 7.05 4.17 8.49
8/30/2021 9:45:00 PM 19.63 67.334 0.064 7.04 3.85 8.5
8/30/2021 10:00:00 PM 19.56 67.208 0.064 7.04 3.91 8.51
8/30/2021 10:15:00 PM 19.5 67.1 0.064 7.03 4.5 8.52
8/30/2021 10:30:00 PM 19.42 66.956 0.064 7.05 3.97 8.54
8/30/2021 10:45:00 PM 19.35 66.83 0.064 7.04 3.95 8.55
8/30/2021 11:00:00 PM 19.27 66.686 0.064 7.04 3.72 8.56
8/30/2021 11:15:00 PM 19.19 66.542 0.064 7.04 3.93 8.57
8/30/2021 11:30:00 PM 19.12 66.416 0.064 7.04 3.64 8.59
8/30/2021 11:45:00 PM 19.05 66.29 0.065 7.04 3.55 8.61
8/31/2021 12:00:00 AM 18.98 66.164 0.065 7.05 3.7 8.62
8/31/2021 12:15:00 AM 18.91 66.038 0.065 7.03 3.75 8.63
8/31/2021 12:30:00 AM 18.84 65.912 0.065 7.04 3.85 8.65
8/31/2021 12:45:00 AM 18.77 65.786 0.065 7.04 3.56 8.66
8/31/2021 1:00:00 AM 18.7 65.66 0.065 7.05 3.64 8.68
8/31/2021 1:15:00 AM 18.63 65.534 0.064 7.02 3.49 8.69
8/31/2021 1:30:00 AM 18.56 65.408 0.065 7.05 3.57 8.71
8/31/2021 1:45:00 AM 18.49 65.282 0.064 7 3.49 8.72
8/31/2021 2:00:00 AM 18.43 65.174 0.065 7.05 3.41 8.74
8/31/2021 2:15:00 AM 18.36 65.048 0.065 7.05 3.25 8.75
8/31/2021 2:30:00 AM 18.31 64.958 0.065 7.06 3.43 8.76
8/31/2021 2:45:00 AM 18.25 64.85 0.065 7.05 3.43 8.77
8/31/2021 3:00:00 AM 18.2 64.76 0.064 7.06 3.41 8.78
8/31/2021 3:15:00 AM 18.15 64.67 0.064 7.05 3.34 8.79
8/31/2021 3:30:00 AM 18.1 64.58 0.064 7.07 3.28 8.8
8/31/2021 3:45:00 AM 18.05 64.49 0.064 7.07 3.36 8.81
8/31/2021 4:00:00 AM 18.01 64.418 0.064 7.04 3.44 8.83
8/31/2021 4:15:00 AM 17.97 64.346 0.064 7.06 3.13 8.84
8/31/2021 4:30:00 AM 17.92 64.256 0.064 7.07 3.45 8.84
8/31/2021 4:45:00 AM 17.88 64.184 0.064 7.07 3.04 8.85
8/31/2021 5:00:00 AM 17.84 64.112 0.064 7.07 3.34 8.86
8/31/2021 5:15:00 AM 17.8 64.04 0.064 7.07 3.16 8.87
8/31/2021 5:30:00 AM 17.76 63.968 0.064 7.06 3.08 8.88
8/31/2021 5:45:00 AM 17.72 63.896 0.064 7.06 3.1 8.88
8/31/2021 6:00:00 AM 17.68 63.824 0.064 7.07 3.44 8.89
8/31/2021 6:15:00 AM 17.64 63.752 0.064 7.07 3.44 8.89
8/31/2021 6:30:00 AM 17.61 63.698 0.064 7.07 3.5 8.91
8/31/2021 6:45:00 AM 17.57 63.626 0.064 7.06 3.31 8.92
8/31/2021 7:00:00 AM 17.53 63.554 0.064 7.07 3.67 8.93
8/31/2021 7:15:00 AM 17.5 63.5 0.064 7.07 3.3 8.95
8/31/2021 7:30:00 AM 17.47 63.446 0.064 7.08 3.01 8.99
8/31/2021 7:45:00 AM 17.44 63.392 0.064 7.02 3.1 9.02
8/31/2021 8:00:00 AM 17.42 63.356 0.064 7.1 3.15 9.08
8/31/2021 8:15:00 AM 17.41 63.338 0.064 7.11 2.36 9.13
8/31/2021 8:30:00 AM 17.4 63.32 0.063 7.13 2.62 9.2
8/31/2021 8:45:00 AM 17.4 63.32 0.064 7.15 2.49 9.26
8/31/2021 9:00:00 AM 17.41 63.338 0.063 7.15 2.64 9.32
8/31/2021 9:15:00 AM 17.41 63.338 0.063 7.18 2.48 9.38
8/31/2021 9:30:00 AM 17.42 63.356 0.063 7.15 2.2 9.42
8/31/2021 9:45:00 AM 17.43 63.374 0.063 7.21 2.23 9.47
8/31/2021 10:00:00 AM 17.46 63.428 0.063 7.23 2.35 9.55
8/31/2021 10:15:00 AM 17.48 63.464 0.063 7.26 2 9.59
8/31/2021 10:30:00 AM 17.52 63.536 0.063 7.24 2.18 9.64
8/31/2021 10:45:00 AM 17.56 63.608 0.062 7.31 2.49 9.69
8/31/2021 11:00:00 AM 17.63 63.734 0.063 7.34 2.19 9.77
8/31/2021 11:15:00 AM 17.7 63.86 0.062 7.39 2.41 9.82
8/31/2021 11:30:00 AM 17.77 63.986 0.062 7.41 1.99 9.84
8/31/2021 11:45:00 AM 17.89 64.202 0.062 7.45 2.04 9.88
8/31/2021 12:00:00 PM 18.07 64.526 0.062 7.5 1.94 9.91
8/31/2021 12:15:00 PM 18.23 64.814 0.062 7.48 2.8 9.93
8/31/2021 12:30:00 PM 18.39 65.102 0.062 7.57 1.69 9.93
8/31/2021 12:45:00 PM 18.54 65.372 0.062 7.57 1.86 9.92
8/31/2021 1:00:00 PM 18.62 65.516 0.062 7.52 1.75 9.81
8/31/2021 1:15:00 PM 18.74 65.732 0.062 7.54 1.84 9.78
8/31/2021 1:30:00 PM 18.88 65.984 0.062 7.51 1.83 9.77
8/31/2021 1:45:00 PM 19.13 66.434 0.062 7.61 1.88 9.79
8/31/2021 2:00:00 PM 19.35 66.83 0.062 7.66 2.3 9.8
8/31/2021 2:15:00 PM 19.54 67.172 0.062 7.66 1.81 9.77
8/31/2021 2:30:00 PM 19.54 67.172 0.062 7.61 1.76 9.67
8/31/2021 2:45:00 PM 19.66 67.388 0.062 7.63 1.67 9.66
8/31/2021 3:00:00 PM 19.83 67.694 0.061 7.64 1.83 9.64
8/31/2021 3:15:00 PM 19.98 67.964 0.061 7.65 1.99 9.6
8/31/2021 3:30:00 PM 20.1 68.18 0.061 7.67 1.69 9.57
8/31/2021 3:45:00 PM 20.21 68.378 0.061 7.66 1.85 9.54
8/31/2021 4:00:00 PM 20.16 68.288 0.061 7.64 1.88 9.47
8/31/2021 4:15:00 PM 20.31 68.558 0.061 7.65 1.88 9.46
8/31/2021 4:30:00 PM 20.36 68.648 0.061 7.63 1.69 9.43
8/31/2021 4:45:00 PM 20.33 68.594 0.062 7.62 1.84 9.35
8/31/2021 5:00:00 PM 20.37 68.666 0.061 7.54 2.07 9.33
8/31/2021 5:15:00 PM 20.41 68.738 0.062 7.59 1.76 9.31
8/31/2021 5:30:00 PM 20.4 68.72 0.062 7.58 1.65 9.26
8/31/2021 5:45:00 PM 20.4 68.72 0.062 7.54 1.63 9.2
8/31/2021 6:00:00 PM 20.39 68.702 0.062 7.49 1.74 9.11
8/31/2021 6:15:00 PM 20.38 68.684 0.061 7.41 1.66 9.03
8/31/2021 6:30:00 PM 20.36 68.648 0.062 7.4 1.77 8.94
8/31/2021 6:45:00 PM 20.32 68.576 0.062 7.37 1.63 8.87
8/31/2021 7:00:00 PM 20.28 68.504 0.062 7.31 1.83 8.8
8/31/2021 7:15:00 PM 20.24 68.432 0.062 7.3 1.9 8.72
8/31/2021 7:30:00 PM 20.19 68.342 0.062 7.26 1.88 8.64
8/31/2021 7:45:00 PM 20.14 68.252 0.062 7.23 1.95 8.56
8/31/2021 8:00:00 PM 20.08 68.144 0.062 7.2 2.13 8.51
8/31/2021 8:15:00 PM 20.03 68.054 0.063 7.17 2.12 8.47
8/31/2021 8:30:00 PM 19.97 67.946 0.063 7.15 2.28 8.44
8/31/2021 8:45:00 PM 19.91 67.838 0.063 7.11 2.09 8.43
8/31/2021 9:00:00 PM 19.85 67.73 0.063 7.11 2.28 8.42
8/31/2021 9:15:00 PM 19.78 67.604 0.063 7.12 2.27 8.42
8/31/2021 9:30:00 PM 19.71 67.478 0.064 7.08 2.21 8.42
8/31/2021 9:45:00 PM 19.64 67.352 0.064 7.09 2.08 8.43
8/31/2021 10:00:00 PM 19.57 67.226 0.064 7.1 2.22 8.44
8/31/2021 10:15:00 PM 19.51 67.118 0.064 7.02 2.31 8.45
8/31/2021 10:30:00 PM 19.45 67.01 0.064 7.07 2.28 8.46
8/31/2021 10:45:00 PM 19.38 66.884 0.064 7.08 2.51 8.47
8/31/2021 11:00:00 PM 19.31 66.758 0.064 7.08 2.15 8.49
8/31/2021 11:15:00 PM 19.24 66.632 0.064 7.04 2.24 8.5
8/31/2021 11:30:00 PM 19.16 66.488 0.064 7.04 2.37 8.52
8/31/2021 11:45:00 PM 19.09 66.362 0.064 7.07 2.34 8.53
9/1/2021 12:00:00 AM 19.02 66.236 0.064 7.07 2.14 8.55
9/1/2021 12:15:00 AM 18.94 66.092 0.064 7.06 2.45 8.57
9/1/2021 12:30:00 AM 18.89 66.002 0.064 7.04 2.38 8.57
9/1/2021 12:45:00 AM 18.83 65.894 0.065 7.05 2.41 8.58
9/1/2021 1:00:00 AM 18.76 65.768 0.064 7.06 2.39 8.6
9/1/2021 1:15:00 AM 18.7 65.66 0.064 7.05 2.4 8.61
9/1/2021 1:30:00 AM 18.63 65.534 0.065 7.06 2.19 8.62
9/1/2021 1:45:00 AM 18.57 65.426 0.064 7.06 2.26 8.64
9/1/2021 2:00:00 AM 18.52 65.336 0.065 7.06 2.26 8.65
9/1/2021 2:15:00 AM 18.46 65.228 0.065 7.06 2.29 8.66
9/1/2021 2:30:00 AM 18.4 65.12 0.065 7.06 2.4 8.67
9/1/2021 2:45:00 AM 18.35 65.03 0.065 7.07 2.37 8.68
9/1/2021 3:00:00 AM 18.3 64.94 0.065 7.07 2.12 8.69
9/1/2021 3:15:00 AM 18.25 64.85 0.065 6.99 2.3 8.7
9/1/2021 3:30:00 AM 18.21 64.778 0.065 7.07 2.35 8.71
9/1/2021 3:45:00 AM 18.16 64.688 0.065 7.05 2.28 8.72
9/1/2021 4:00:00 AM 18.13 64.634 0.065 7.07 2.19 8.72
9/1/2021 4:15:00 AM 18.09 64.562 0.065 7.04 2.38 8.74
9/1/2021 4:30:00 AM 18.05 64.49 0.065 7.07 2.14 8.75
9/1/2021 4:45:00 AM 18.01 64.418 0.065 7.08 2.46 8.75
9/1/2021 5:00:00 AM 17.97 64.346 0.065 7.06 2.25 8.76
9/1/2021 5:15:00 AM 17.94 64.292 0.064 7.07 2.22 8.77
9/1/2021 5:30:00 AM 17.9 64.22 0.064 7.06 2.45 8.77
9/1/2021 5:45:00 AM 17.86 64.148 0.064 7.07 2.49 8.79
9/1/2021 6:00:00 AM 17.83 64.094 0.065 7.07 3.17 8.78
9/1/2021 6:15:00 AM 17.79 64.022 0.065 7.06 2.82 8.8
9/1/2021 6:30:00 AM 17.75 63.95 0.064 7.06 2.53 8.8
9/1/2021 6:45:00 AM 17.71 63.878 0.065 7.05 2.5 8.81
9/1/2021 7:00:00 AM 17.67 63.806 0.064 7.06 2.46 8.83
9/1/2021 7:15:00 AM 17.64 63.752 0.065 7.03 2.77 8.84
9/1/2021 7:30:00 AM 17.6 63.68 0.065 7.08 2.62 8.86
9/1/2021 7:45:00 AM 17.57 63.626 0.065 7.08 2.58 8.9
9/1/2021 8:00:00 AM 17.53 63.554 0.064 7.09 2.65 8.94
9/1/2021 8:15:00 AM 17.51 63.518 0.064 7.08 2.36 8.98
9/1/2021 8:30:00 AM 17.48 63.464 0.064 7.09 2.06 9.02
9/1/2021 8:45:00 AM 17.46 63.428 0.064 7.12 2.51 9.07
9/1/2021 9:00:00 AM 17.44 63.392 0.064 7.14 2.43 9.12
9/1/2021 9:15:00 AM 17.43 63.374 0.063 7.14 2.12 9.15
9/1/2021 9:30:00 AM 17.41 63.338 0.064 7.16 2.07 9.19
9/1/2021 9:45:00 AM 17.41 63.338 0.064 7.17 2.3 9.25
9/1/2021 10:00:00 AM 17.41 63.338 0.063 7.18 2.74 9.33
9/1/2021 10:15:00 AM 17.42 63.356 0.063 7.2 2.08 9.42
9/1/2021 10:30:00 AM 17.44 63.392 0.063 7.25 2.2 9.52
9/1/2021 10:45:00 AM 17.45 63.41 0.063 7.27 2.33 9.54
9/1/2021 11:00:00 AM 17.47 63.446 0.063 7.27 2.04 9.59
9/1/2021 11:15:00 AM 17.48 63.464 0.063 7.3 2.15 9.6
9/1/2021 11:30:00 AM 17.49 63.482 0.063 7.3 2 9.58
9/1/2021 11:45:00 AM 17.5 63.5 0.062 7.31 2.39 9.57
9/1/2021 12:00:00 PM 17.51 63.518 0.062 7.31 1.79 9.58
9/1/2021 12:15:00 PM 17.51 63.518 0.062 7.31 2.37 9.54
9/1/2021 12:30:00 PM 17.51 63.518 0.062 7.29 1.94 9.49
9/1/2021 12:45:00 PM 17.5 63.5 0.062 7.29 2.29 9.44
9/1/2021 1:00:00 PM 17.49 63.482 0.062 7.27 2.16 9.41
9/1/2021 1:15:00 PM 17.49 63.482 0.062 7.26 2.36 9.4
9/1/2021 1:30:00 PM 17.49 63.482 0.063 7.28 2.6 9.43
9/1/2021 1:45:00 PM 17.49 63.482 0.062 7.28 2.76 9.46
9/1/2021 2:00:00 PM 17.49 63.482 0.062 7.3 3 9.49
9/1/2021 2:15:00 PM 17.49 63.482 0.062 7.31 2.91 9.52
9/1/2021 2:30:00 PM 17.49 63.482 0.062 7.31 2.84 9.52
9/1/2021 2:45:00 PM 17.48 63.464 0.062 7.31 2.87 9.51
9/1/2021 3:00:00 PM 17.48 63.464 0.062 7.28 3.13 9.48
9/1/2021 3:15:00 PM 17.48 63.464 0.062 7.3 3 9.5
9/1/2021 3:30:00 PM 17.49 63.482 0.062 7.32 3.21 9.52
9/1/2021 3:45:00 PM 17.48 63.464 0.062 7.29 3.03 9.45
9/1/2021 4:00:00 PM 17.46 63.428 0.062 7.27 2.81 9.39
9/1/2021 4:15:00 PM 17.45 63.41 0.062 7.26 3.14 9.34
9/1/2021 4:30:00 PM 17.45 63.41 0.062 7.25 2.97 9.39
9/1/2021 4:45:00 PM 17.45 63.41 0.062 7.26 3.02 9.38
9/1/2021 5:00:00 PM 17.45 63.41 0.062 7.27 3.04 9.43
9/1/2021 5:15:00 PM 17.45 63.41 0.062 7.28 3.33 9.43
9/1/2021 5:30:00 PM 17.45 63.41 0.062 7.27 3.24 9.42
9/1/2021 5:45:00 PM 17.45 63.41 0.062 7.28 3.15 9.44
9/1/2021 6:00:00 PM 17.44 63.392 0.063 7.26 3.25 9.38
9/1/2021 6:15:00 PM 17.42 63.356 0.063 7.24 3.39 9.34
9/1/2021 6:30:00 PM 17.4 63.32 0.063 7.24 3.1 9.29
9/1/2021 6:45:00 PM 17.38 63.284 0.063 7.18 3.13 9.25
9/1/2021 7:00:00 PM 17.37 63.266 0.063 7.19 3.02 9.26
9/1/2021 7:15:00 PM 17.35 63.23 0.063 7.21 3.15 9.27
9/1/2021 7:30:00 PM 17.33 63.194 0.064 7.2 3.13 9.25
9/1/2021 7:45:00 PM 17.3 63.14 0.064 7.21 3.12 9.2
9/1/2021 8:00:00 PM 17.27 63.086 0.064 7.16 3.28 9.14
9/1/2021 8:15:00 PM 17.23 63.014 0.064 7.17 3.73 9.1
9/1/2021 8:30:00 PM 17.18 62.924 0.064 7.15 3.46 9.08
9/1/2021 8:45:00 PM 17.12 62.816 0.065 7.14 3.36 9.06
9/1/2021 9:00:00 PM 17.06 62.708 0.065 7.14 3.81 9.06
9/1/2021 9:15:00 PM 16.99 62.582 0.065 7.11 3.72 9.06
9/1/2021 9:30:00 PM 16.92 62.456 0.065 7.09 3.96 9.06
9/1/2021 9:45:00 PM 16.86 62.348 0.065 7.12 3.56 9.06
9/1/2021 10:00:00 PM 16.79 62.222 0.065 7.11 3.72 9.08
9/1/2021 10:15:00 PM 16.72 62.096 0.065 7.1 3.84 9.09
9/1/2021 10:30:00 PM 16.64 61.952 0.065 7.1 3.73 9.1
9/1/2021 10:45:00 PM 16.57 61.826 0.065 7.1 3.93 9.12
9/1/2021 11:00:00 PM 16.5 61.7 0.065 7.1 3.69 9.13
9/1/2021 11:15:00 PM 16.42 61.556 0.065 7.1 3.97 9.14
9/1/2021 11:30:00 PM 16.34 61.412 0.065 7.09 4.02 9.16
9/1/2021 11:45:00 PM 16.27 61.286 0.065 7.08 3.85 9.17
9/2/2021 12:00:00 AM 16.19 61.142 0.065 7.09 3.48 9.19
9/2/2021 12:15:00 AM 16.11 60.998 0.065 7.08 3.78 9.21
9/2/2021 12:30:00 AM 16.03 60.854 0.065 7.1 3.6 9.23
9/2/2021 12:45:00 AM 15.96 60.728 0.066 7.09 3.59 9.24
9/2/2021 1:00:00 AM 15.88 60.584 0.066 7.09 3.58 9.26
9/2/2021 1:15:00 AM 15.81 60.458 0.066 7.09 3.62 9.28
9/2/2021 1:30:00 AM 15.74 60.332 0.066 7.1 3.29 9.3
9/2/2021 1:45:00 AM 15.67 60.206 0.066 7.09 3.46 9.32
9/2/2021 2:00:00 AM 15.59 60.062 0.066 7.04 3.37 9.34
9/2/2021 2:15:00 AM 15.52 59.936 0.066 7.09 2.94 9.36
9/2/2021 2:30:00 AM 15.45 59.81 0.066 7.08 2.77 9.37
9/2/2021 2:45:00 AM 15.37 59.666 0.066 7.08 3.12 9.38
9/2/2021 3:00:00 AM 15.3 59.54 0.066 7.08 2.95 9.4
9/2/2021 3:15:00 AM 15.23 59.414 0.066 7.09 3.36 9.42
9/2/2021 3:30:00 AM 15.16 59.288 0.066 7.08 2.95 9.44
9/2/2021 3:45:00 AM 15.1 59.18 0.066 7.09 2.88 9.46
9/2/2021 4:00:00 AM 15.03 59.054 0.066 7.08 2.75 9.47
9/2/2021 4:15:00 AM 14.97 58.946 0.066 7.09 2.74 9.49
9/2/2021 4:30:00 AM 14.9 58.82 0.066 7.07 2.66 9.51
9/2/2021 4:45:00 AM 14.84 58.712 0.066 7.08 2.71 9.52
9/2/2021 5:00:00 AM 14.78 58.604 0.066 7.08 2.73 9.54
9/2/2021 5:15:00 AM 14.72 58.496 0.066 7.09 2.5 9.55
9/2/2021 5:30:00 AM 14.67 58.406 0.066 7.06 2.57 9.56
9/2/2021 5:45:00 AM 14.61 58.298 0.066 7.09 2.67 9.58
9/2/2021 6:00:00 AM 14.56 58.208 0.066 7.07 2.53 9.59
9/2/2021 6:15:00 AM 14.51 58.118 0.066 7.08 2.88 9.61
9/2/2021 6:30:00 AM 14.46 58.028 0.066 7.09 2.45 9.62
9/2/2021 6:45:00 AM 14.42 57.956 0.066 7.07 2.51 9.63
9/2/2021 7:00:00 AM 14.37 57.866 0.066 7.09 2.42 9.66
9/2/2021 7:15:00 AM 14.33 57.794 0.066 7.06 2.56 9.69
9/2/2021 7:30:00 AM 14.29 57.722 0.065 7.1 2.18 9.74
9/2/2021 7:45:00 AM 14.27 57.686 0.066 7.07 2.38 9.8
9/2/2021 8:00:00 AM 14.24 57.632 0.065 7.13 2.1 9.89
9/2/2021 8:15:00 AM 14.22 57.596 0.065 7.15 2.02 9.98
9/2/2021 8:30:00 AM 14.2 57.56 0.065 7.16 1.73 10.04
9/2/2021 8:45:00 AM 14.19 57.542 0.065 7.18 1.84 10.14
9/2/2021 9:00:00 AM 14.19 57.542 0.065 7.2 1.81 10.17
9/2/2021 9:15:00 AM 14.2 57.56 0.065 7.22 1.78 10.21
9/2/2021 9:30:00 AM 14.23 57.614 0.065 7.24 2.75 10.23
9/2/2021 9:45:00 AM 14.28 57.704 0.065 7.25 1.62 10.26
9/2/2021 10:00:00 AM 14.37 57.866 0.065 7.28 1.98 10.3
9/2/2021 10:15:00 AM 14.47 58.046 0.065 7.29 1.83 10.32
9/2/2021 10:30:00 AM 14.58 58.244 0.065